<?xml version="1.0" encoding="UTF-8" standalone="no" ?>
<gpx xmlns="http://www.topografix.com/GPX/1/1" xmlns:xsi="http://www.w3.org/2001/XMLSchema-instance" xsi:schemaLocation="http://www.topografix.com/GPX/1/1 http://www.topografix.com/GPX/1/1/gpx.xsd" version="1.1" creator="VisuGPX - https://www.visugpx.com">
  <metadata>
    <name>GUITALENS </name>
    <desc><![CDATA[Départ église Guitalens  suivre circuit de l'eau puis passer par Saint Sébastien vue par temps clair la Montagne Noire et les Pyrénées]]></desc>
  </metadata>
  <trk>
    <name><![CDATA[2017-08-14 16:00:09]]></name>
    <extensions>
      <line xmlns="http://www.topografix.com/GPX/gpx_style/0/2">
        <color>0000FF</color>
        <width>4</width>
      </line>
    </extensions>
    <trkseg>
      <trkpt lat="43.64391" lon="2.03706">
        <ele>128.47</ele>
        <time>2017-08-13T12:45:27Z</time>
      </trkpt>
      <trkpt lat="43.64391" lon="2.03706">
        <ele>128.47</ele>
        <time>2017-08-13T12:45:28Z</time>
      </trkpt>
      <trkpt lat="43.64391" lon="2.03706">
        <ele>128.47</ele>
        <time>2017-08-13T12:45:31Z</time>
      </trkpt>
      <trkpt lat="43.64402" lon="2.03674">
        <ele>145.78</ele>
        <time>2017-08-14T07:20:28Z</time>
      </trkpt>
      <trkpt lat="43.64401" lon="2.03673">
        <ele>143.37</ele>
        <time>2017-08-14T07:20:40Z</time>
      </trkpt>
      <trkpt lat="43.644" lon="2.03671">
        <ele>143.85</ele>
        <time>2017-08-14T07:21:09Z</time>
      </trkpt>
      <trkpt lat="43.644" lon="2.03671">
        <ele>145.3</ele>
        <time>2017-08-14T07:21:16Z</time>
      </trkpt>
      <trkpt lat="43.64401" lon="2.03669">
        <ele>144.34</ele>
        <time>2017-08-14T07:21:23Z</time>
      </trkpt>
      <trkpt lat="43.64401" lon="2.03669">
        <ele>144.34</ele>
        <time>2017-08-14T07:21:46Z</time>
      </trkpt>
      <trkpt lat="43.64399" lon="2.03669">
        <ele>144.82</ele>
        <time>2017-08-14T07:22:02Z</time>
      </trkpt>
      <trkpt lat="43.64397" lon="2.03676">
        <ele>144.82</ele>
        <time>2017-08-14T07:22:12Z</time>
      </trkpt>
      <trkpt lat="43.64388" lon="2.037">
        <ele>145.3</ele>
        <time>2017-08-14T07:22:29Z</time>
      </trkpt>
      <trkpt lat="43.64387" lon="2.03701">
        <ele>145.3</ele>
        <time>2017-08-14T07:22:30Z</time>
      </trkpt>
      <trkpt lat="43.6438" lon="2.03708">
        <ele>145.3</ele>
        <time>2017-08-14T07:22:38Z</time>
      </trkpt>
      <trkpt lat="43.64368" lon="2.03711">
        <ele>145.3</ele>
        <time>2017-08-14T07:22:52Z</time>
      </trkpt>
      <trkpt lat="43.6436" lon="2.03711">
        <ele>145.3</ele>
        <time>2017-08-14T07:22:59Z</time>
      </trkpt>
      <trkpt lat="43.64341" lon="2.0371">
        <ele>145.3</ele>
        <time>2017-08-14T07:23:15Z</time>
      </trkpt>
      <trkpt lat="43.64323" lon="2.03713">
        <ele>145.78</ele>
        <time>2017-08-14T07:23:31Z</time>
      </trkpt>
      <trkpt lat="43.64304" lon="2.03711">
        <ele>145.78</ele>
        <time>2017-08-14T07:23:48Z</time>
      </trkpt>
      <trkpt lat="43.64281" lon="2.03701">
        <ele>146.26</ele>
        <time>2017-08-14T07:24:10Z</time>
      </trkpt>
      <trkpt lat="43.64251" lon="2.03692">
        <ele>146.26</ele>
        <time>2017-08-14T07:24:35Z</time>
      </trkpt>
      <trkpt lat="43.64226" lon="2.0368">
        <ele>146.26</ele>
        <time>2017-08-14T07:24:58Z</time>
      </trkpt>
      <trkpt lat="43.64202" lon="2.03672">
        <ele>146.26</ele>
        <time>2017-08-14T07:25:23Z</time>
      </trkpt>
      <trkpt lat="43.64172" lon="2.03666">
        <ele>146.26</ele>
        <time>2017-08-14T07:25:47Z</time>
      </trkpt>
      <trkpt lat="43.64149" lon="2.03651">
        <ele>146.26</ele>
        <time>2017-08-14T07:26:08Z</time>
      </trkpt>
      <trkpt lat="43.64124" lon="2.03637">
        <ele>146.26</ele>
        <time>2017-08-14T07:26:31Z</time>
      </trkpt>
      <trkpt lat="43.64105" lon="2.03619">
        <ele>146.26</ele>
        <time>2017-08-14T07:26:49Z</time>
      </trkpt>
      <trkpt lat="43.64082" lon="2.03603">
        <ele>146.74</ele>
        <time>2017-08-14T07:27:12Z</time>
      </trkpt>
      <trkpt lat="43.6406" lon="2.03584">
        <ele>146.74</ele>
        <time>2017-08-14T07:27:33Z</time>
      </trkpt>
      <trkpt lat="43.6404" lon="2.03565">
        <ele>146.74</ele>
        <time>2017-08-14T07:27:53Z</time>
      </trkpt>
      <trkpt lat="43.64017" lon="2.03547">
        <ele>147.22</ele>
        <time>2017-08-14T07:28:15Z</time>
      </trkpt>
      <trkpt lat="43.63996" lon="2.03529">
        <ele>147.22</ele>
        <time>2017-08-14T07:28:37Z</time>
      </trkpt>
      <trkpt lat="43.63994" lon="2.03527">
        <ele>147.22</ele>
        <time>2017-08-14T07:28:40Z</time>
      </trkpt>
      <trkpt lat="43.63964" lon="2.035">
        <ele>147.22</ele>
        <time>2017-08-14T07:29:02Z</time>
      </trkpt>
      <trkpt lat="43.63945" lon="2.03483">
        <ele>146.74</ele>
        <time>2017-08-14T07:29:22Z</time>
      </trkpt>
      <trkpt lat="43.63921" lon="2.03464">
        <ele>147.7</ele>
        <time>2017-08-14T07:29:43Z</time>
      </trkpt>
      <trkpt lat="43.63917" lon="2.03461">
        <ele>149.14</ele>
        <time>2017-08-14T07:29:48Z</time>
      </trkpt>
      <trkpt lat="43.63894" lon="2.03442">
        <ele>148.18</ele>
        <time>2017-08-14T07:30:10Z</time>
      </trkpt>
      <trkpt lat="43.6387" lon="2.03423">
        <ele>148.18</ele>
        <time>2017-08-14T07:30:31Z</time>
      </trkpt>
      <trkpt lat="43.63846" lon="2.034">
        <ele>149.14</ele>
        <time>2017-08-14T07:30:54Z</time>
      </trkpt>
      <trkpt lat="43.63825" lon="2.03385">
        <ele>149.62</ele>
        <time>2017-08-14T07:31:13Z</time>
      </trkpt>
      <trkpt lat="43.63804" lon="2.03366">
        <ele>150.58</ele>
        <time>2017-08-14T07:31:36Z</time>
      </trkpt>
      <trkpt lat="43.63802" lon="2.03364">
        <ele>149.14</ele>
        <time>2017-08-14T07:31:38Z</time>
      </trkpt>
      <trkpt lat="43.63796" lon="2.03361">
        <ele>150.58</ele>
        <time>2017-08-14T07:31:43Z</time>
      </trkpt>
      <trkpt lat="43.63774" lon="2.03342">
        <ele>150.58</ele>
        <time>2017-08-14T07:32:06Z</time>
      </trkpt>
      <trkpt lat="43.63747" lon="2.03322">
        <ele>151.54</ele>
        <time>2017-08-14T07:32:31Z</time>
      </trkpt>
      <trkpt lat="43.63733" lon="2.03313">
        <ele>150.58</ele>
        <time>2017-08-14T07:32:46Z</time>
      </trkpt>
      <trkpt lat="43.6373" lon="2.0331">
        <ele>152.03</ele>
        <time>2017-08-14T07:32:49Z</time>
      </trkpt>
      <trkpt lat="43.63707" lon="2.03294">
        <ele>152.03</ele>
        <time>2017-08-14T07:33:12Z</time>
      </trkpt>
      <trkpt lat="43.63695" lon="2.03288">
        <ele>152.99</ele>
        <time>2017-08-14T07:33:32Z</time>
      </trkpt>
      <trkpt lat="43.63688" lon="2.03285">
        <ele>149.62</ele>
        <time>2017-08-14T07:33:55Z</time>
      </trkpt>
      <trkpt lat="43.63687" lon="2.03284">
        <ele>155.39</ele>
        <time>2017-08-14T07:33:56Z</time>
      </trkpt>
      <trkpt lat="43.63666" lon="2.03277">
        <ele>153.95</ele>
        <time>2017-08-14T07:34:16Z</time>
      </trkpt>
      <trkpt lat="43.63644" lon="2.03281">
        <ele>155.39</ele>
        <time>2017-08-14T07:34:38Z</time>
      </trkpt>
      <trkpt lat="43.63642" lon="2.03288">
        <ele>154.91</ele>
        <time>2017-08-14T07:34:56Z</time>
      </trkpt>
      <trkpt lat="43.63645" lon="2.03288">
        <ele>154.91</ele>
        <time>2017-08-14T07:35:16Z</time>
      </trkpt>
      <trkpt lat="43.63647" lon="2.03285">
        <ele>156.35</ele>
        <time>2017-08-14T07:35:29Z</time>
      </trkpt>
      <trkpt lat="43.63639" lon="2.03305">
        <ele>156.83</ele>
        <time>2017-08-14T07:35:46Z</time>
      </trkpt>
      <trkpt lat="43.6363" lon="2.03321">
        <ele>158.27</ele>
        <time>2017-08-14T07:36:00Z</time>
      </trkpt>
      <trkpt lat="43.63629" lon="2.03323">
        <ele>158.75</ele>
        <time>2017-08-14T07:36:02Z</time>
      </trkpt>
      <trkpt lat="43.63614" lon="2.03332">
        <ele>160.2</ele>
        <time>2017-08-14T07:36:19Z</time>
      </trkpt>
      <trkpt lat="43.63605" lon="2.0334">
        <ele>162.6</ele>
        <time>2017-08-14T07:36:35Z</time>
      </trkpt>
      <trkpt lat="43.63607" lon="2.03361">
        <ele>164.52</ele>
        <time>2017-08-14T07:36:51Z</time>
      </trkpt>
      <trkpt lat="43.63601" lon="2.03372">
        <ele>165</ele>
        <time>2017-08-14T07:37:17Z</time>
      </trkpt>
      <trkpt lat="43.63596" lon="2.03369">
        <ele>166.45</ele>
        <time>2017-08-14T07:37:36Z</time>
      </trkpt>
      <trkpt lat="43.63576" lon="2.03378">
        <ele>168.85</ele>
        <time>2017-08-14T07:38:00Z</time>
      </trkpt>
      <trkpt lat="43.63559" lon="2.03395">
        <ele>172.21</ele>
        <time>2017-08-14T07:38:24Z</time>
      </trkpt>
      <trkpt lat="43.63553" lon="2.03407">
        <ele>173.66</ele>
        <time>2017-08-14T07:38:36Z</time>
      </trkpt>
      <trkpt lat="43.63549" lon="2.03427">
        <ele>176.54</ele>
        <time>2017-08-14T07:38:55Z</time>
      </trkpt>
      <trkpt lat="43.63543" lon="2.03439">
        <ele>179.9</ele>
        <time>2017-08-14T07:39:12Z</time>
      </trkpt>
      <trkpt lat="43.6354" lon="2.03455">
        <ele>181.83</ele>
        <time>2017-08-14T07:39:31Z</time>
      </trkpt>
      <trkpt lat="43.63528" lon="2.03468">
        <ele>184.71</ele>
        <time>2017-08-14T07:39:52Z</time>
      </trkpt>
      <trkpt lat="43.63522" lon="2.03482">
        <ele>188.08</ele>
        <time>2017-08-14T07:40:13Z</time>
      </trkpt>
      <trkpt lat="43.63513" lon="2.03498">
        <ele>190.96</ele>
        <time>2017-08-14T07:40:38Z</time>
      </trkpt>
      <trkpt lat="43.63501" lon="2.03513">
        <ele>193.84</ele>
        <time>2017-08-14T07:41:03Z</time>
      </trkpt>
      <trkpt lat="43.63488" lon="2.03527">
        <ele>196.25</ele>
        <time>2017-08-14T07:41:23Z</time>
      </trkpt>
      <trkpt lat="43.63479" lon="2.03539">
        <ele>198.17</ele>
        <time>2017-08-14T07:41:42Z</time>
      </trkpt>
      <trkpt lat="43.63465" lon="2.03549">
        <ele>199.13</ele>
        <time>2017-08-14T07:41:58Z</time>
      </trkpt>
      <trkpt lat="43.63448" lon="2.03571">
        <ele>200.57</ele>
        <time>2017-08-14T07:42:18Z</time>
      </trkpt>
      <trkpt lat="43.63431" lon="2.03588">
        <ele>202.49</ele>
        <time>2017-08-14T07:42:40Z</time>
      </trkpt>
      <trkpt lat="43.63417" lon="2.03606">
        <ele>204.42</ele>
        <time>2017-08-14T07:42:58Z</time>
      </trkpt>
      <trkpt lat="43.63412" lon="2.03616">
        <ele>205.86</ele>
        <time>2017-08-14T07:43:09Z</time>
      </trkpt>
      <trkpt lat="43.63401" lon="2.03636">
        <ele>208.26</ele>
        <time>2017-08-14T07:43:33Z</time>
      </trkpt>
      <trkpt lat="43.63384" lon="2.0365">
        <ele>210.67</ele>
        <time>2017-08-14T07:43:53Z</time>
      </trkpt>
      <trkpt lat="43.63374" lon="2.03656">
        <ele>212.59</ele>
        <time>2017-08-14T07:44:10Z</time>
      </trkpt>
      <trkpt lat="43.63372" lon="2.03653">
        <ele>214.03</ele>
        <time>2017-08-14T07:44:18Z</time>
      </trkpt>
      <trkpt lat="43.63367" lon="2.03648">
        <ele>214.99</ele>
        <time>2017-08-14T07:44:26Z</time>
      </trkpt>
      <trkpt lat="43.63357" lon="2.03647">
        <ele>218.36</ele>
        <time>2017-08-14T07:44:40Z</time>
      </trkpt>
      <trkpt lat="43.63343" lon="2.03641">
        <ele>221.24</ele>
        <time>2017-08-14T07:44:59Z</time>
      </trkpt>
      <trkpt lat="43.63341" lon="2.03641">
        <ele>219.8</ele>
        <time>2017-08-14T07:45:01Z</time>
      </trkpt>
      <trkpt lat="43.63335" lon="2.03645">
        <ele>222.2</ele>
        <time>2017-08-14T07:45:07Z</time>
      </trkpt>
      <trkpt lat="43.63323" lon="2.03667">
        <ele>222.68</ele>
        <time>2017-08-14T07:45:27Z</time>
      </trkpt>
      <trkpt lat="43.63309" lon="2.03681">
        <ele>224.12</ele>
        <time>2017-08-14T07:45:49Z</time>
      </trkpt>
      <trkpt lat="43.63294" lon="2.03693">
        <ele>227.01</ele>
        <time>2017-08-14T07:46:11Z</time>
      </trkpt>
      <trkpt lat="43.63272" lon="2.0371">
        <ele>227.49</ele>
        <time>2017-08-14T07:46:33Z</time>
      </trkpt>
      <trkpt lat="43.6325" lon="2.03724">
        <ele>226.05</ele>
        <time>2017-08-14T07:46:56Z</time>
      </trkpt>
      <trkpt lat="43.63232" lon="2.03738">
        <ele>227.01</ele>
        <time>2017-08-14T07:47:15Z</time>
      </trkpt>
      <trkpt lat="43.63234" lon="2.03743">
        <ele>227.01</ele>
        <time>2017-08-14T07:47:32Z</time>
      </trkpt>
      <trkpt lat="43.63232" lon="2.03742">
        <ele>227.01</ele>
        <time>2017-08-14T07:48:01Z</time>
      </trkpt>
      <trkpt lat="43.63221" lon="2.03756">
        <ele>227.01</ele>
        <time>2017-08-14T07:48:19Z</time>
      </trkpt>
      <trkpt lat="43.63214" lon="2.03771">
        <ele>225.57</ele>
        <time>2017-08-14T07:48:34Z</time>
      </trkpt>
      <trkpt lat="43.63204" lon="2.03789">
        <ele>224.12</ele>
        <time>2017-08-14T07:48:53Z</time>
      </trkpt>
      <trkpt lat="43.63194" lon="2.03805">
        <ele>223.16</ele>
        <time>2017-08-14T07:49:13Z</time>
      </trkpt>
      <trkpt lat="43.63178" lon="2.03824">
        <ele>220.76</ele>
        <time>2017-08-14T07:49:33Z</time>
      </trkpt>
      <trkpt lat="43.63166" lon="2.03841">
        <ele>219.32</ele>
        <time>2017-08-14T07:49:52Z</time>
      </trkpt>
      <trkpt lat="43.63151" lon="2.0386">
        <ele>219.8</ele>
        <time>2017-08-14T07:50:11Z</time>
      </trkpt>
      <trkpt lat="43.63149" lon="2.03865">
        <ele>221.72</ele>
        <time>2017-08-14T07:50:15Z</time>
      </trkpt>
      <trkpt lat="43.63147" lon="2.03868">
        <ele>220.28</ele>
        <time>2017-08-14T07:50:18Z</time>
      </trkpt>
      <trkpt lat="43.63146" lon="2.0387">
        <ele>221.24</ele>
        <time>2017-08-14T07:50:20Z</time>
      </trkpt>
      <trkpt lat="43.6313" lon="2.03882">
        <ele>223.16</ele>
        <time>2017-08-14T07:50:40Z</time>
      </trkpt>
      <trkpt lat="43.63119" lon="2.03898">
        <ele>225.57</ele>
        <time>2017-08-14T07:51:03Z</time>
      </trkpt>
      <trkpt lat="43.63117" lon="2.039">
        <ele>227.01</ele>
        <time>2017-08-14T07:51:06Z</time>
      </trkpt>
      <trkpt lat="43.63113" lon="2.03904">
        <ele>226.05</ele>
        <time>2017-08-14T07:51:12Z</time>
      </trkpt>
      <trkpt lat="43.63103" lon="2.03931">
        <ele>226.05</ele>
        <time>2017-08-14T07:51:33Z</time>
      </trkpt>
      <trkpt lat="43.631" lon="2.03938">
        <ele>226.05</ele>
        <time>2017-08-14T07:51:38Z</time>
      </trkpt>
      <trkpt lat="43.63091" lon="2.03961">
        <ele>224.12</ele>
        <time>2017-08-14T07:51:58Z</time>
      </trkpt>
      <trkpt lat="43.63083" lon="2.03982">
        <ele>223.16</ele>
        <time>2017-08-14T07:52:15Z</time>
      </trkpt>
      <trkpt lat="43.63074" lon="2.04007">
        <ele>222.2</ele>
        <time>2017-08-14T07:52:34Z</time>
      </trkpt>
      <trkpt lat="43.63064" lon="2.04031">
        <ele>222.68</ele>
        <time>2017-08-14T07:52:54Z</time>
      </trkpt>
      <trkpt lat="43.63062" lon="2.04037">
        <ele>223.64</ele>
        <time>2017-08-14T07:52:59Z</time>
      </trkpt>
      <trkpt lat="43.6306" lon="2.04046">
        <ele>223.64</ele>
        <time>2017-08-14T07:53:06Z</time>
      </trkpt>
      <trkpt lat="43.6305" lon="2.04073">
        <ele>224.61</ele>
        <time>2017-08-14T07:53:29Z</time>
      </trkpt>
      <trkpt lat="43.63042" lon="2.04094">
        <ele>226.53</ele>
        <time>2017-08-14T07:53:46Z</time>
      </trkpt>
      <trkpt lat="43.63034" lon="2.04109">
        <ele>227.49</ele>
        <time>2017-08-14T07:54:01Z</time>
      </trkpt>
      <trkpt lat="43.63022" lon="2.04126">
        <ele>228.93</ele>
        <time>2017-08-14T07:54:22Z</time>
      </trkpt>
      <trkpt lat="43.63014" lon="2.04137">
        <ele>232.3</ele>
        <time>2017-08-14T07:54:37Z</time>
      </trkpt>
      <trkpt lat="43.63008" lon="2.04149">
        <ele>232.78</ele>
        <time>2017-08-14T07:54:49Z</time>
      </trkpt>
      <trkpt lat="43.62993" lon="2.04169">
        <ele>235.66</ele>
        <time>2017-08-14T07:55:12Z</time>
      </trkpt>
      <trkpt lat="43.62993" lon="2.0417">
        <ele>236.14</ele>
        <time>2017-08-14T07:55:13Z</time>
      </trkpt>
      <trkpt lat="43.62991" lon="2.04172">
        <ele>236.62</ele>
        <time>2017-08-14T07:55:17Z</time>
      </trkpt>
      <trkpt lat="43.62979" lon="2.04186">
        <ele>239.51</ele>
        <time>2017-08-14T07:55:37Z</time>
      </trkpt>
      <trkpt lat="43.62969" lon="2.04195">
        <ele>239.51</ele>
        <time>2017-08-14T07:55:50Z</time>
      </trkpt>
      <trkpt lat="43.62951" lon="2.04209">
        <ele>239.51</ele>
        <time>2017-08-14T07:56:10Z</time>
      </trkpt>
      <trkpt lat="43.62937" lon="2.04228">
        <ele>239.99</ele>
        <time>2017-08-14T07:56:28Z</time>
      </trkpt>
      <trkpt lat="43.62932" lon="2.04234">
        <ele>238.54</ele>
        <time>2017-08-14T07:56:35Z</time>
      </trkpt>
      <trkpt lat="43.62918" lon="2.04251">
        <ele>237.1</ele>
        <time>2017-08-14T07:56:54Z</time>
      </trkpt>
      <trkpt lat="43.62908" lon="2.04278">
        <ele>235.66</ele>
        <time>2017-08-14T07:57:12Z</time>
      </trkpt>
      <trkpt lat="43.62901" lon="2.04306">
        <ele>234.7</ele>
        <time>2017-08-14T07:57:32Z</time>
      </trkpt>
      <trkpt lat="43.62889" lon="2.04329">
        <ele>236.14</ele>
        <time>2017-08-14T07:57:51Z</time>
      </trkpt>
      <trkpt lat="43.62875" lon="2.04342">
        <ele>238.54</ele>
        <time>2017-08-14T07:58:09Z</time>
      </trkpt>
      <trkpt lat="43.62867" lon="2.0435">
        <ele>238.06</ele>
        <time>2017-08-14T07:58:22Z</time>
      </trkpt>
      <trkpt lat="43.62863" lon="2.04351">
        <ele>239.99</ele>
        <time>2017-08-14T07:58:26Z</time>
      </trkpt>
      <trkpt lat="43.62862" lon="2.04351">
        <ele>239.99</ele>
        <time>2017-08-14T07:58:27Z</time>
      </trkpt>
      <trkpt lat="43.62843" lon="2.04358">
        <ele>241.43</ele>
        <time>2017-08-14T07:58:49Z</time>
      </trkpt>
      <trkpt lat="43.62825" lon="2.04374">
        <ele>241.91</ele>
        <time>2017-08-14T07:59:11Z</time>
      </trkpt>
      <trkpt lat="43.62804" lon="2.04397">
        <ele>240.47</ele>
        <time>2017-08-14T07:59:36Z</time>
      </trkpt>
      <trkpt lat="43.62798" lon="2.04401">
        <ele>239.99</ele>
        <time>2017-08-14T07:59:43Z</time>
      </trkpt>
      <trkpt lat="43.62772" lon="2.04418">
        <ele>239.51</ele>
        <time>2017-08-14T08:00:11Z</time>
      </trkpt>
      <trkpt lat="43.62768" lon="2.0442">
        <ele>241.43</ele>
        <time>2017-08-14T08:00:15Z</time>
      </trkpt>
      <trkpt lat="43.62754" lon="2.04435">
        <ele>243.83</ele>
        <time>2017-08-14T08:00:34Z</time>
      </trkpt>
      <trkpt lat="43.62752" lon="2.04441">
        <ele>245.27</ele>
        <time>2017-08-14T08:00:40Z</time>
      </trkpt>
      <trkpt lat="43.6275" lon="2.04447">
        <ele>244.31</ele>
        <time>2017-08-14T08:00:46Z</time>
      </trkpt>
      <trkpt lat="43.62748" lon="2.0445">
        <ele>245.75</ele>
        <time>2017-08-14T08:00:48Z</time>
      </trkpt>
      <trkpt lat="43.62735" lon="2.0447">
        <ele>246.72</ele>
        <time>2017-08-14T08:01:10Z</time>
      </trkpt>
      <trkpt lat="43.62735" lon="2.0447">
        <ele>246.72</ele>
        <time>2017-08-14T08:01:11Z</time>
      </trkpt>
      <trkpt lat="43.62733" lon="2.04472">
        <ele>246.72</ele>
        <time>2017-08-14T08:01:13Z</time>
      </trkpt>
      <trkpt lat="43.62725" lon="2.04487">
        <ele>245.27</ele>
        <time>2017-08-14T08:01:28Z</time>
      </trkpt>
      <trkpt lat="43.62714" lon="2.04511">
        <ele>242.87</ele>
        <time>2017-08-14T08:01:50Z</time>
      </trkpt>
      <trkpt lat="43.62702" lon="2.04536">
        <ele>241.43</ele>
        <time>2017-08-14T08:02:11Z</time>
      </trkpt>
      <trkpt lat="43.62692" lon="2.04559">
        <ele>242.39</ele>
        <time>2017-08-14T08:02:31Z</time>
      </trkpt>
      <trkpt lat="43.6268" lon="2.0458">
        <ele>246.23</ele>
        <time>2017-08-14T08:02:52Z</time>
      </trkpt>
      <trkpt lat="43.62674" lon="2.04598">
        <ele>247.68</ele>
        <time>2017-08-14T08:03:08Z</time>
      </trkpt>
      <trkpt lat="43.62665" lon="2.0462">
        <ele>248.16</ele>
        <time>2017-08-14T08:03:28Z</time>
      </trkpt>
      <trkpt lat="43.62658" lon="2.04645">
        <ele>248.16</ele>
        <time>2017-08-14T08:03:47Z</time>
      </trkpt>
      <trkpt lat="43.62651" lon="2.04663">
        <ele>248.16</ele>
        <time>2017-08-14T08:04:06Z</time>
      </trkpt>
      <trkpt lat="43.6265" lon="2.04661">
        <ele>248.64</ele>
        <time>2017-08-14T08:04:16Z</time>
      </trkpt>
      <trkpt lat="43.62649" lon="2.04661">
        <ele>246.72</ele>
        <time>2017-08-14T08:04:18Z</time>
      </trkpt>
      <trkpt lat="43.62649" lon="2.04662">
        <ele>247.2</ele>
        <time>2017-08-14T08:04:24Z</time>
      </trkpt>
      <trkpt lat="43.62651" lon="2.0466">
        <ele>245.27</ele>
        <time>2017-08-14T08:04:37Z</time>
      </trkpt>
      <trkpt lat="43.62649" lon="2.04667">
        <ele>247.2</ele>
        <time>2017-08-14T08:05:09Z</time>
      </trkpt>
      <trkpt lat="43.6265" lon="2.04664">
        <ele>247.2</ele>
        <time>2017-08-14T08:05:49Z</time>
      </trkpt>
      <trkpt lat="43.62651" lon="2.04664">
        <ele>248.16</ele>
        <time>2017-08-14T08:06:13Z</time>
      </trkpt>
      <trkpt lat="43.62652" lon="2.04664">
        <ele>247.2</ele>
        <time>2017-08-14T08:06:21Z</time>
      </trkpt>
      <trkpt lat="43.62652" lon="2.04665">
        <ele>249.12</ele>
        <time>2017-08-14T08:06:26Z</time>
      </trkpt>
      <trkpt lat="43.62653" lon="2.04666">
        <ele>247.2</ele>
        <time>2017-08-14T08:06:29Z</time>
      </trkpt>
      <trkpt lat="43.62652" lon="2.04667">
        <ele>248.16</ele>
        <time>2017-08-14T08:06:58Z</time>
      </trkpt>
      <trkpt lat="43.62652" lon="2.04667">
        <ele>248.64</ele>
        <time>2017-08-14T08:07:04Z</time>
      </trkpt>
      <trkpt lat="43.62655" lon="2.0467">
        <ele>248.16</ele>
        <time>2017-08-14T08:07:27Z</time>
      </trkpt>
      <trkpt lat="43.62655" lon="2.04669">
        <ele>246.23</ele>
        <time>2017-08-14T08:07:31Z</time>
      </trkpt>
      <trkpt lat="43.62655" lon="2.04669">
        <ele>247.68</ele>
        <time>2017-08-14T08:07:33Z</time>
      </trkpt>
      <trkpt lat="43.62655" lon="2.04669">
        <ele>251.04</ele>
        <time>2017-08-14T08:07:37Z</time>
      </trkpt>
      <trkpt lat="43.62655" lon="2.04669">
        <ele>246.23</ele>
        <time>2017-08-14T08:07:40Z</time>
      </trkpt>
      <trkpt lat="43.62655" lon="2.04669">
        <ele>246.23</ele>
        <time>2017-08-14T08:07:41Z</time>
      </trkpt>
      <trkpt lat="43.62656" lon="2.04669">
        <ele>247.68</ele>
        <time>2017-08-14T08:07:44Z</time>
      </trkpt>
      <trkpt lat="43.62656" lon="2.04669">
        <ele>249.12</ele>
        <time>2017-08-14T08:07:50Z</time>
      </trkpt>
      <trkpt lat="43.62656" lon="2.04668">
        <ele>243.35</ele>
        <time>2017-08-14T08:08:08Z</time>
      </trkpt>
      <trkpt lat="43.62656" lon="2.04668">
        <ele>252</ele>
        <time>2017-08-14T08:08:09Z</time>
      </trkpt>
      <trkpt lat="43.62656" lon="2.04668">
        <ele>248.16</ele>
        <time>2017-08-14T08:08:10Z</time>
      </trkpt>
      <trkpt lat="43.62652" lon="2.0467">
        <ele>248.16</ele>
        <time>2017-08-14T08:08:33Z</time>
      </trkpt>
      <trkpt lat="43.62643" lon="2.04693">
        <ele>247.2</ele>
        <time>2017-08-14T08:08:55Z</time>
      </trkpt>
      <trkpt lat="43.62641" lon="2.047">
        <ele>248.64</ele>
        <time>2017-08-14T08:09:01Z</time>
      </trkpt>
      <trkpt lat="43.62636" lon="2.04722">
        <ele>249.12</ele>
        <time>2017-08-14T08:09:21Z</time>
      </trkpt>
      <trkpt lat="43.62634" lon="2.04731">
        <ele>249.6</ele>
        <time>2017-08-14T08:09:29Z</time>
      </trkpt>
      <trkpt lat="43.62633" lon="2.04732">
        <ele>251.04</ele>
        <time>2017-08-14T08:09:31Z</time>
      </trkpt>
      <trkpt lat="43.62629" lon="2.04753">
        <ele>252.48</ele>
        <time>2017-08-14T08:09:50Z</time>
      </trkpt>
      <trkpt lat="43.62624" lon="2.0477">
        <ele>253.93</ele>
        <time>2017-08-14T08:10:06Z</time>
      </trkpt>
      <trkpt lat="43.62609" lon="2.04782">
        <ele>253.93</ele>
        <time>2017-08-14T08:10:26Z</time>
      </trkpt>
      <trkpt lat="43.62592" lon="2.0479">
        <ele>252.96</ele>
        <time>2017-08-14T08:10:45Z</time>
      </trkpt>
      <trkpt lat="43.62587" lon="2.04794">
        <ele>252.96</ele>
        <time>2017-08-14T08:10:52Z</time>
      </trkpt>
      <trkpt lat="43.62582" lon="2.048">
        <ele>252.96</ele>
        <time>2017-08-14T08:10:58Z</time>
      </trkpt>
      <trkpt lat="43.62569" lon="2.04817">
        <ele>252.96</ele>
        <time>2017-08-14T08:11:17Z</time>
      </trkpt>
      <trkpt lat="43.62554" lon="2.04836">
        <ele>254.41</ele>
        <time>2017-08-14T08:11:38Z</time>
      </trkpt>
      <trkpt lat="43.62542" lon="2.04851">
        <ele>255.85</ele>
        <time>2017-08-14T08:11:55Z</time>
      </trkpt>
      <trkpt lat="43.62529" lon="2.04868">
        <ele>256.33</ele>
        <time>2017-08-14T08:12:14Z</time>
      </trkpt>
      <trkpt lat="43.62514" lon="2.0488">
        <ele>254.89</ele>
        <time>2017-08-14T08:12:31Z</time>
      </trkpt>
      <trkpt lat="43.62513" lon="2.0488">
        <ele>254.89</ele>
        <time>2017-08-14T08:12:32Z</time>
      </trkpt>
      <trkpt lat="43.62494" lon="2.04889">
        <ele>254.89</ele>
        <time>2017-08-14T08:12:51Z</time>
      </trkpt>
      <trkpt lat="43.62477" lon="2.04897">
        <ele>254.41</ele>
        <time>2017-08-14T08:13:09Z</time>
      </trkpt>
      <trkpt lat="43.6247" lon="2.04901">
        <ele>256.33</ele>
        <time>2017-08-14T08:13:18Z</time>
      </trkpt>
      <trkpt lat="43.62462" lon="2.04905">
        <ele>257.29</ele>
        <time>2017-08-14T08:13:26Z</time>
      </trkpt>
      <trkpt lat="43.6245" lon="2.04919">
        <ele>258.25</ele>
        <time>2017-08-14T08:13:46Z</time>
      </trkpt>
      <trkpt lat="43.62441" lon="2.04936">
        <ele>258.73</ele>
        <time>2017-08-14T08:14:03Z</time>
      </trkpt>
      <trkpt lat="43.62427" lon="2.04964">
        <ele>258.73</ele>
        <time>2017-08-14T08:14:25Z</time>
      </trkpt>
      <trkpt lat="43.62423" lon="2.04974">
        <ele>258.73</ele>
        <time>2017-08-14T08:14:34Z</time>
      </trkpt>
      <trkpt lat="43.6242" lon="2.05">
        <ele>260.17</ele>
        <time>2017-08-14T08:14:54Z</time>
      </trkpt>
      <trkpt lat="43.62418" lon="2.0502">
        <ele>261.14</ele>
        <time>2017-08-14T08:15:12Z</time>
      </trkpt>
      <trkpt lat="43.62421" lon="2.05041">
        <ele>259.69</ele>
        <time>2017-08-14T08:15:31Z</time>
      </trkpt>
      <trkpt lat="43.62424" lon="2.05063">
        <ele>257.77</ele>
        <time>2017-08-14T08:15:54Z</time>
      </trkpt>
      <trkpt lat="43.62431" lon="2.05091">
        <ele>256.81</ele>
        <time>2017-08-14T08:16:15Z</time>
      </trkpt>
      <trkpt lat="43.62438" lon="2.05115">
        <ele>256.33</ele>
        <time>2017-08-14T08:16:33Z</time>
      </trkpt>
      <trkpt lat="43.62441" lon="2.05133">
        <ele>255.85</ele>
        <time>2017-08-14T08:16:55Z</time>
      </trkpt>
      <trkpt lat="43.62451" lon="2.05155">
        <ele>256.81</ele>
        <time>2017-08-14T08:17:13Z</time>
      </trkpt>
      <trkpt lat="43.62451" lon="2.05174">
        <ele>257.77</ele>
        <time>2017-08-14T08:17:25Z</time>
      </trkpt>
      <trkpt lat="43.62451" lon="2.05196">
        <ele>258.73</ele>
        <time>2017-08-14T08:17:45Z</time>
      </trkpt>
      <trkpt lat="43.6245" lon="2.05217">
        <ele>258.73</ele>
        <time>2017-08-14T08:18:04Z</time>
      </trkpt>
      <trkpt lat="43.62449" lon="2.0523">
        <ele>257.29</ele>
        <time>2017-08-14T08:18:22Z</time>
      </trkpt>
      <trkpt lat="43.62446" lon="2.05237">
        <ele>256.81</ele>
        <time>2017-08-14T08:18:43Z</time>
      </trkpt>
      <trkpt lat="43.62441" lon="2.05252">
        <ele>256.33</ele>
        <time>2017-08-14T08:19:02Z</time>
      </trkpt>
      <trkpt lat="43.62431" lon="2.05265">
        <ele>255.37</ele>
        <time>2017-08-14T08:19:23Z</time>
      </trkpt>
      <trkpt lat="43.62424" lon="2.05281">
        <ele>253.93</ele>
        <time>2017-08-14T08:19:42Z</time>
      </trkpt>
      <trkpt lat="43.62418" lon="2.05304">
        <ele>253.44</ele>
        <time>2017-08-14T08:20:02Z</time>
      </trkpt>
      <trkpt lat="43.62413" lon="2.0531">
        <ele>252.96</ele>
        <time>2017-08-14T08:20:08Z</time>
      </trkpt>
      <trkpt lat="43.62411" lon="2.05315">
        <ele>254.41</ele>
        <time>2017-08-14T08:20:13Z</time>
      </trkpt>
      <trkpt lat="43.62405" lon="2.05329">
        <ele>256.33</ele>
        <time>2017-08-14T08:20:35Z</time>
      </trkpt>
      <trkpt lat="43.624" lon="2.05358">
        <ele>256.81</ele>
        <time>2017-08-14T08:20:56Z</time>
      </trkpt>
      <trkpt lat="43.62401" lon="2.0536">
        <ele>255.37</ele>
        <time>2017-08-14T08:20:58Z</time>
      </trkpt>
      <trkpt lat="43.6241" lon="2.05373">
        <ele>254.41</ele>
        <time>2017-08-14T08:21:15Z</time>
      </trkpt>
      <trkpt lat="43.62413" lon="2.05394">
        <ele>253.93</ele>
        <time>2017-08-14T08:21:32Z</time>
      </trkpt>
      <trkpt lat="43.62421" lon="2.05418">
        <ele>253.93</ele>
        <time>2017-08-14T08:21:50Z</time>
      </trkpt>
      <trkpt lat="43.62435" lon="2.05434">
        <ele>253.93</ele>
        <time>2017-08-14T08:22:09Z</time>
      </trkpt>
      <trkpt lat="43.62447" lon="2.05445">
        <ele>252</ele>
        <time>2017-08-14T08:22:28Z</time>
      </trkpt>
      <trkpt lat="43.62457" lon="2.05464">
        <ele>249.12</ele>
        <time>2017-08-14T08:22:46Z</time>
      </trkpt>
      <trkpt lat="43.62476" lon="2.05477">
        <ele>246.23</ele>
        <time>2017-08-14T08:23:10Z</time>
      </trkpt>
      <trkpt lat="43.62484" lon="2.05486">
        <ele>246.23</ele>
        <time>2017-08-14T08:23:32Z</time>
      </trkpt>
      <trkpt lat="43.62482" lon="2.05491">
        <ele>244.79</ele>
        <time>2017-08-14T08:23:38Z</time>
      </trkpt>
      <trkpt lat="43.6248" lon="2.05491">
        <ele>244.79</ele>
        <time>2017-08-14T08:24:00Z</time>
      </trkpt>
      <trkpt lat="43.62468" lon="2.05488">
        <ele>243.35</ele>
        <time>2017-08-14T08:24:19Z</time>
      </trkpt>
      <trkpt lat="43.62451" lon="2.0549">
        <ele>242.39</ele>
        <time>2017-08-14T08:24:40Z</time>
      </trkpt>
      <trkpt lat="43.6244" lon="2.05498">
        <ele>240.95</ele>
        <time>2017-08-14T08:24:58Z</time>
      </trkpt>
      <trkpt lat="43.6242" lon="2.05503">
        <ele>239.51</ele>
        <time>2017-08-14T08:25:17Z</time>
      </trkpt>
      <trkpt lat="43.62404" lon="2.05506">
        <ele>238.54</ele>
        <time>2017-08-14T08:25:35Z</time>
      </trkpt>
      <trkpt lat="43.62389" lon="2.05496">
        <ele>237.1</ele>
        <time>2017-08-14T08:25:57Z</time>
      </trkpt>
      <trkpt lat="43.62377" lon="2.05484">
        <ele>235.18</ele>
        <time>2017-08-14T08:26:16Z</time>
      </trkpt>
      <trkpt lat="43.62361" lon="2.05482">
        <ele>234.7</ele>
        <time>2017-08-14T08:26:36Z</time>
      </trkpt>
      <trkpt lat="43.62351" lon="2.05499">
        <ele>233.26</ele>
        <time>2017-08-14T08:26:57Z</time>
      </trkpt>
      <trkpt lat="43.62332" lon="2.05528">
        <ele>231.33</ele>
        <time>2017-08-14T08:27:20Z</time>
      </trkpt>
      <trkpt lat="43.62324" lon="2.05545">
        <ele>229.89</ele>
        <time>2017-08-14T08:27:36Z</time>
      </trkpt>
      <trkpt lat="43.6232" lon="2.05582">
        <ele>227.49</ele>
        <time>2017-08-14T08:27:59Z</time>
      </trkpt>
      <trkpt lat="43.62322" lon="2.05601">
        <ele>225.09</ele>
        <time>2017-08-14T08:28:15Z</time>
      </trkpt>
      <trkpt lat="43.62318" lon="2.0563">
        <ele>223.64</ele>
        <time>2017-08-14T08:28:35Z</time>
      </trkpt>
      <trkpt lat="43.62309" lon="2.05647">
        <ele>220.28</ele>
        <time>2017-08-14T08:28:54Z</time>
      </trkpt>
      <trkpt lat="43.62309" lon="2.05657">
        <ele>219.8</ele>
        <time>2017-08-14T08:29:02Z</time>
      </trkpt>
      <trkpt lat="43.62309" lon="2.05676">
        <ele>218.36</ele>
        <time>2017-08-14T08:29:20Z</time>
      </trkpt>
      <trkpt lat="43.62307" lon="2.05701">
        <ele>216.43</ele>
        <time>2017-08-14T08:29:39Z</time>
      </trkpt>
      <trkpt lat="43.62304" lon="2.05713">
        <ele>215.95</ele>
        <time>2017-08-14T08:29:50Z</time>
      </trkpt>
      <trkpt lat="43.62299" lon="2.0574">
        <ele>213.55</ele>
        <time>2017-08-14T08:30:10Z</time>
      </trkpt>
      <trkpt lat="43.62295" lon="2.05764">
        <ele>210.67</ele>
        <time>2017-08-14T08:30:29Z</time>
      </trkpt>
      <trkpt lat="43.62297" lon="2.05779">
        <ele>209.22</ele>
        <time>2017-08-14T08:30:46Z</time>
      </trkpt>
      <trkpt lat="43.62296" lon="2.05779">
        <ele>209.22</ele>
        <time>2017-08-14T08:31:11Z</time>
      </trkpt>
      <trkpt lat="43.62306" lon="2.05789">
        <ele>207.3</ele>
        <time>2017-08-14T08:31:25Z</time>
      </trkpt>
      <trkpt lat="43.62321" lon="2.05809">
        <ele>205.86</ele>
        <time>2017-08-14T08:31:45Z</time>
      </trkpt>
      <trkpt lat="43.62332" lon="2.05827">
        <ele>205.86</ele>
        <time>2017-08-14T08:32:01Z</time>
      </trkpt>
      <trkpt lat="43.62339" lon="2.05837">
        <ele>207.3</ele>
        <time>2017-08-14T08:32:10Z</time>
      </trkpt>
      <trkpt lat="43.62343" lon="2.05841">
        <ele>207.3</ele>
        <time>2017-08-14T08:32:14Z</time>
      </trkpt>
      <trkpt lat="43.62357" lon="2.05856">
        <ele>207.78</ele>
        <time>2017-08-14T08:32:30Z</time>
      </trkpt>
      <trkpt lat="43.62375" lon="2.05869">
        <ele>208.74</ele>
        <time>2017-08-14T08:32:49Z</time>
      </trkpt>
      <trkpt lat="43.62388" lon="2.0588">
        <ele>208.74</ele>
        <time>2017-08-14T08:33:05Z</time>
      </trkpt>
      <trkpt lat="43.62395" lon="2.05883">
        <ele>208.74</ele>
        <time>2017-08-14T08:33:12Z</time>
      </trkpt>
      <trkpt lat="43.62411" lon="2.05897">
        <ele>209.7</ele>
        <time>2017-08-14T08:33:31Z</time>
      </trkpt>
      <trkpt lat="43.62417" lon="2.05904">
        <ele>210.19</ele>
        <time>2017-08-14T08:33:38Z</time>
      </trkpt>
      <trkpt lat="43.62432" lon="2.0592">
        <ele>210.19</ele>
        <time>2017-08-14T08:33:56Z</time>
      </trkpt>
      <trkpt lat="43.62434" lon="2.05924">
        <ele>208.26</ele>
        <time>2017-08-14T08:33:59Z</time>
      </trkpt>
      <trkpt lat="43.62446" lon="2.05939">
        <ele>207.78</ele>
        <time>2017-08-14T08:34:13Z</time>
      </trkpt>
      <trkpt lat="43.6245" lon="2.05947">
        <ele>208.74</ele>
        <time>2017-08-14T08:34:31Z</time>
      </trkpt>
      <trkpt lat="43.6245" lon="2.05945">
        <ele>205.38</ele>
        <time>2017-08-14T08:34:46Z</time>
      </trkpt>
      <trkpt lat="43.6245" lon="2.05945">
        <ele>206.82</ele>
        <time>2017-08-14T08:34:47Z</time>
      </trkpt>
      <trkpt lat="43.62452" lon="2.05943">
        <ele>207.3</ele>
        <time>2017-08-14T08:35:07Z</time>
      </trkpt>
      <trkpt lat="43.62452" lon="2.05942">
        <ele>208.26</ele>
        <time>2017-08-14T08:35:11Z</time>
      </trkpt>
      <trkpt lat="43.62453" lon="2.0594">
        <ele>206.82</ele>
        <time>2017-08-14T08:35:19Z</time>
      </trkpt>
      <trkpt lat="43.6245" lon="2.05937">
        <ele>206.82</ele>
        <time>2017-08-14T08:35:44Z</time>
      </trkpt>
      <trkpt lat="43.6245" lon="2.05934">
        <ele>208.26</ele>
        <time>2017-08-14T08:35:53Z</time>
      </trkpt>
      <trkpt lat="43.62448" lon="2.05937">
        <ele>208.26</ele>
        <time>2017-08-14T08:36:19Z</time>
      </trkpt>
      <trkpt lat="43.62444" lon="2.05942">
        <ele>208.26</ele>
        <time>2017-08-14T08:36:45Z</time>
      </trkpt>
      <trkpt lat="43.62459" lon="2.05948">
        <ele>208.26</ele>
        <time>2017-08-14T08:37:12Z</time>
      </trkpt>
      <trkpt lat="43.62456" lon="2.05946">
        <ele>206.82</ele>
        <time>2017-08-14T08:37:18Z</time>
      </trkpt>
      <trkpt lat="43.62455" lon="2.05946">
        <ele>208.26</ele>
        <time>2017-08-14T08:37:21Z</time>
      </trkpt>
      <trkpt lat="43.62458" lon="2.05946">
        <ele>206.34</ele>
        <time>2017-08-14T08:37:33Z</time>
      </trkpt>
      <trkpt lat="43.62458" lon="2.05946">
        <ele>207.78</ele>
        <time>2017-08-14T08:37:35Z</time>
      </trkpt>
      <trkpt lat="43.62461" lon="2.05946">
        <ele>210.19</ele>
        <time>2017-08-14T08:38:02Z</time>
      </trkpt>
      <trkpt lat="43.62455" lon="2.05943">
        <ele>202.01</ele>
        <time>2017-08-14T08:38:09Z</time>
      </trkpt>
      <trkpt lat="43.62455" lon="2.05943">
        <ele>209.7</ele>
        <time>2017-08-14T08:38:10Z</time>
      </trkpt>
      <trkpt lat="43.62451" lon="2.05939">
        <ele>208.26</ele>
        <time>2017-08-14T08:38:36Z</time>
      </trkpt>
      <trkpt lat="43.62456" lon="2.05944">
        <ele>208.26</ele>
        <time>2017-08-14T08:39:05Z</time>
      </trkpt>
      <trkpt lat="43.62453" lon="2.05944">
        <ele>208.26</ele>
        <time>2017-08-14T08:39:34Z</time>
      </trkpt>
      <trkpt lat="43.62451" lon="2.0594">
        <ele>207.3</ele>
        <time>2017-08-14T08:40:00Z</time>
      </trkpt>
      <trkpt lat="43.62449" lon="2.05938">
        <ele>208.74</ele>
        <time>2017-08-14T08:40:09Z</time>
      </trkpt>
      <trkpt lat="43.62449" lon="2.05938">
        <ele>207.3</ele>
        <time>2017-08-14T08:40:11Z</time>
      </trkpt>
      <trkpt lat="43.62449" lon="2.05938">
        <ele>208.74</ele>
        <time>2017-08-14T08:40:14Z</time>
      </trkpt>
      <trkpt lat="43.62451" lon="2.05938">
        <ele>208.74</ele>
        <time>2017-08-14T08:40:47Z</time>
      </trkpt>
      <trkpt lat="43.62446" lon="2.05939">
        <ele>208.74</ele>
        <time>2017-08-14T08:41:13Z</time>
      </trkpt>
      <trkpt lat="43.62447" lon="2.05939">
        <ele>207.3</ele>
        <time>2017-08-14T08:41:17Z</time>
      </trkpt>
      <trkpt lat="43.62447" lon="2.05942">
        <ele>206.34</ele>
        <time>2017-08-14T08:41:22Z</time>
      </trkpt>
      <trkpt lat="43.62449" lon="2.05943">
        <ele>209.7</ele>
        <time>2017-08-14T08:41:24Z</time>
      </trkpt>
      <trkpt lat="43.62449" lon="2.0594">
        <ele>209.7</ele>
        <time>2017-08-14T08:41:25Z</time>
      </trkpt>
      <trkpt lat="43.62455" lon="2.05939">
        <ele>209.22</ele>
        <time>2017-08-14T08:41:52Z</time>
      </trkpt>
      <trkpt lat="43.62455" lon="2.05941">
        <ele>209.22</ele>
        <time>2017-08-14T08:42:17Z</time>
      </trkpt>
      <trkpt lat="43.62451" lon="2.05941">
        <ele>209.22</ele>
        <time>2017-08-14T08:42:54Z</time>
      </trkpt>
      <trkpt lat="43.62454" lon="2.05946">
        <ele>209.22</ele>
        <time>2017-08-14T08:43:11Z</time>
      </trkpt>
      <trkpt lat="43.62452" lon="2.05946">
        <ele>205.86</ele>
        <time>2017-08-14T08:43:25Z</time>
      </trkpt>
      <trkpt lat="43.62452" lon="2.05946">
        <ele>210.19</ele>
        <time>2017-08-14T08:43:26Z</time>
      </trkpt>
      <trkpt lat="43.62452" lon="2.05948">
        <ele>207.78</ele>
        <time>2017-08-14T08:43:29Z</time>
      </trkpt>
      <trkpt lat="43.62452" lon="2.05965">
        <ele>206.34</ele>
        <time>2017-08-14T08:43:44Z</time>
      </trkpt>
      <trkpt lat="43.62452" lon="2.05967">
        <ele>206.34</ele>
        <time>2017-08-14T08:43:45Z</time>
      </trkpt>
      <trkpt lat="43.62453" lon="2.05989">
        <ele>206.34</ele>
        <time>2017-08-14T08:44:02Z</time>
      </trkpt>
      <trkpt lat="43.62455" lon="2.06007">
        <ele>205.38</ele>
        <time>2017-08-14T08:44:19Z</time>
      </trkpt>
      <trkpt lat="43.62456" lon="2.06034">
        <ele>203.94</ele>
        <time>2017-08-14T08:44:38Z</time>
      </trkpt>
      <trkpt lat="43.62454" lon="2.06039">
        <ele>203.94</ele>
        <time>2017-08-14T08:44:42Z</time>
      </trkpt>
      <trkpt lat="43.62447" lon="2.06059">
        <ele>201.05</ele>
        <time>2017-08-14T08:44:56Z</time>
      </trkpt>
      <trkpt lat="43.62438" lon="2.06079">
        <ele>200.09</ele>
        <time>2017-08-14T08:45:12Z</time>
      </trkpt>
      <trkpt lat="43.62437" lon="2.06081">
        <ele>200.09</ele>
        <time>2017-08-14T08:45:14Z</time>
      </trkpt>
      <trkpt lat="43.62433" lon="2.06087">
        <ele>199.13</ele>
        <time>2017-08-14T08:45:18Z</time>
      </trkpt>
      <trkpt lat="43.62423" lon="2.06111">
        <ele>198.17</ele>
        <time>2017-08-14T08:45:35Z</time>
      </trkpt>
      <trkpt lat="43.62418" lon="2.06122">
        <ele>195.28</ele>
        <time>2017-08-14T08:45:45Z</time>
      </trkpt>
      <trkpt lat="43.62406" lon="2.06135">
        <ele>192.4</ele>
        <time>2017-08-14T08:46:04Z</time>
      </trkpt>
      <trkpt lat="43.62404" lon="2.06137">
        <ele>191.92</ele>
        <time>2017-08-14T08:46:06Z</time>
      </trkpt>
      <trkpt lat="43.62403" lon="2.06137">
        <ele>191.92</ele>
        <time>2017-08-14T08:46:07Z</time>
      </trkpt>
      <trkpt lat="43.62394" lon="2.06145">
        <ele>189.52</ele>
        <time>2017-08-14T08:46:18Z</time>
      </trkpt>
      <trkpt lat="43.62378" lon="2.0616">
        <ele>186.15</ele>
        <time>2017-08-14T08:46:36Z</time>
      </trkpt>
      <trkpt lat="43.62364" lon="2.06173">
        <ele>183.27</ele>
        <time>2017-08-14T08:46:56Z</time>
      </trkpt>
      <trkpt lat="43.62358" lon="2.06193">
        <ele>179.42</ele>
        <time>2017-08-14T08:47:14Z</time>
      </trkpt>
      <trkpt lat="43.62359" lon="2.06194">
        <ele>179.42</ele>
        <time>2017-08-14T08:47:15Z</time>
      </trkpt>
      <trkpt lat="43.62364" lon="2.06208">
        <ele>176.06</ele>
        <time>2017-08-14T08:47:29Z</time>
      </trkpt>
      <trkpt lat="43.62365" lon="2.06212">
        <ele>176.06</ele>
        <time>2017-08-14T08:47:32Z</time>
      </trkpt>
      <trkpt lat="43.62372" lon="2.0623">
        <ele>172.21</ele>
        <time>2017-08-14T08:47:50Z</time>
      </trkpt>
      <trkpt lat="43.62385" lon="2.06248">
        <ele>170.77</ele>
        <time>2017-08-14T08:48:11Z</time>
      </trkpt>
      <trkpt lat="43.62388" lon="2.06259">
        <ele>170.77</ele>
        <time>2017-08-14T08:48:28Z</time>
      </trkpt>
      <trkpt lat="43.62387" lon="2.06263">
        <ele>171.25</ele>
        <time>2017-08-14T08:48:46Z</time>
      </trkpt>
      <trkpt lat="43.62376" lon="2.06259">
        <ele>172.69</ele>
        <time>2017-08-14T08:49:05Z</time>
      </trkpt>
      <trkpt lat="43.62372" lon="2.06256">
        <ele>173.17</ele>
        <time>2017-08-14T08:49:23Z</time>
      </trkpt>
      <trkpt lat="43.62355" lon="2.06257">
        <ele>174.62</ele>
        <time>2017-08-14T08:49:42Z</time>
      </trkpt>
      <trkpt lat="43.62334" lon="2.06259">
        <ele>175.58</ele>
        <time>2017-08-14T08:50:03Z</time>
      </trkpt>
      <trkpt lat="43.62312" lon="2.06253">
        <ele>177.02</ele>
        <time>2017-08-14T08:50:21Z</time>
      </trkpt>
      <trkpt lat="43.6229" lon="2.06248">
        <ele>178.94</ele>
        <time>2017-08-14T08:50:44Z</time>
      </trkpt>
      <trkpt lat="43.62286" lon="2.06249">
        <ele>178.46</ele>
        <time>2017-08-14T08:50:49Z</time>
      </trkpt>
      <trkpt lat="43.62283" lon="2.06248">
        <ele>179.9</ele>
        <time>2017-08-14T08:50:59Z</time>
      </trkpt>
      <trkpt lat="43.62269" lon="2.06248">
        <ele>180.38</ele>
        <time>2017-08-14T08:51:17Z</time>
      </trkpt>
      <trkpt lat="43.62267" lon="2.06248">
        <ele>182.31</ele>
        <time>2017-08-14T08:51:19Z</time>
      </trkpt>
      <trkpt lat="43.62249" lon="2.06243">
        <ele>184.23</ele>
        <time>2017-08-14T08:51:40Z</time>
      </trkpt>
      <trkpt lat="43.62235" lon="2.06239">
        <ele>186.15</ele>
        <time>2017-08-14T08:51:58Z</time>
      </trkpt>
      <trkpt lat="43.62225" lon="2.06237">
        <ele>187.11</ele>
        <time>2017-08-14T08:52:13Z</time>
      </trkpt>
      <trkpt lat="43.62211" lon="2.06232">
        <ele>189.04</ele>
        <time>2017-08-14T08:52:29Z</time>
      </trkpt>
      <trkpt lat="43.62198" lon="2.06227">
        <ele>190</ele>
        <time>2017-08-14T08:52:47Z</time>
      </trkpt>
      <trkpt lat="43.62189" lon="2.06224">
        <ele>190</ele>
        <time>2017-08-14T08:52:57Z</time>
      </trkpt>
      <trkpt lat="43.62187" lon="2.06223">
        <ele>191.44</ele>
        <time>2017-08-14T08:52:59Z</time>
      </trkpt>
      <trkpt lat="43.62172" lon="2.06217">
        <ele>192.88</ele>
        <time>2017-08-14T08:53:14Z</time>
      </trkpt>
      <trkpt lat="43.62154" lon="2.06216">
        <ele>194.32</ele>
        <time>2017-08-14T08:53:33Z</time>
      </trkpt>
      <trkpt lat="43.62153" lon="2.06216">
        <ele>194.32</ele>
        <time>2017-08-14T08:53:34Z</time>
      </trkpt>
      <trkpt lat="43.62135" lon="2.06235">
        <ele>194.8</ele>
        <time>2017-08-14T08:53:54Z</time>
      </trkpt>
      <trkpt lat="43.62134" lon="2.06241">
        <ele>194.8</ele>
        <time>2017-08-14T08:54:11Z</time>
      </trkpt>
      <trkpt lat="43.62131" lon="2.06243">
        <ele>194.8</ele>
        <time>2017-08-14T08:54:48Z</time>
      </trkpt>
      <trkpt lat="43.62124" lon="2.06249">
        <ele>194.8</ele>
        <time>2017-08-14T08:55:15Z</time>
      </trkpt>
      <trkpt lat="43.62121" lon="2.0626">
        <ele>194.32</ele>
        <time>2017-08-14T08:55:23Z</time>
      </trkpt>
      <trkpt lat="43.62119" lon="2.06268">
        <ele>195.28</ele>
        <time>2017-08-14T08:55:27Z</time>
      </trkpt>
      <trkpt lat="43.6211" lon="2.06293">
        <ele>196.73</ele>
        <time>2017-08-14T08:55:44Z</time>
      </trkpt>
      <trkpt lat="43.62107" lon="2.063">
        <ele>195.28</ele>
        <time>2017-08-14T08:55:48Z</time>
      </trkpt>
      <trkpt lat="43.62103" lon="2.06309">
        <ele>196.73</ele>
        <time>2017-08-14T08:55:55Z</time>
      </trkpt>
      <trkpt lat="43.62089" lon="2.06333">
        <ele>196.73</ele>
        <time>2017-08-14T08:56:12Z</time>
      </trkpt>
      <trkpt lat="43.62079" lon="2.06358">
        <ele>195.77</ele>
        <time>2017-08-14T08:56:30Z</time>
      </trkpt>
      <trkpt lat="43.62069" lon="2.0637">
        <ele>197.21</ele>
        <time>2017-08-14T08:56:44Z</time>
      </trkpt>
      <trkpt lat="43.62067" lon="2.0637">
        <ele>196.25</ele>
        <time>2017-08-14T08:56:46Z</time>
      </trkpt>
      <trkpt lat="43.62058" lon="2.06378">
        <ele>195.77</ele>
        <time>2017-08-14T08:57:01Z</time>
      </trkpt>
      <trkpt lat="43.62046" lon="2.06381">
        <ele>195.77</ele>
        <time>2017-08-14T08:57:17Z</time>
      </trkpt>
      <trkpt lat="43.6203" lon="2.0639">
        <ele>196.73</ele>
        <time>2017-08-14T08:57:34Z</time>
      </trkpt>
      <trkpt lat="43.62025" lon="2.06398">
        <ele>195.77</ele>
        <time>2017-08-14T08:57:41Z</time>
      </trkpt>
      <trkpt lat="43.62016" lon="2.06429">
        <ele>193.36</ele>
        <time>2017-08-14T08:58:00Z</time>
      </trkpt>
      <trkpt lat="43.62012" lon="2.0645">
        <ele>192.88</ele>
        <time>2017-08-14T08:58:13Z</time>
      </trkpt>
      <trkpt lat="43.62009" lon="2.06455">
        <ele>191.92</ele>
        <time>2017-08-14T08:58:17Z</time>
      </trkpt>
      <trkpt lat="43.61998" lon="2.06482">
        <ele>190</ele>
        <time>2017-08-14T08:58:37Z</time>
      </trkpt>
      <trkpt lat="43.61997" lon="2.06482">
        <ele>191.44</ele>
        <time>2017-08-14T08:58:38Z</time>
      </trkpt>
      <trkpt lat="43.61981" lon="2.06481">
        <ele>193.36</ele>
        <time>2017-08-14T08:58:53Z</time>
      </trkpt>
      <trkpt lat="43.61978" lon="2.06482">
        <ele>192.88</ele>
        <time>2017-08-14T08:59:06Z</time>
      </trkpt>
      <trkpt lat="43.61969" lon="2.06479">
        <ele>194.32</ele>
        <time>2017-08-14T08:59:21Z</time>
      </trkpt>
      <trkpt lat="43.61962" lon="2.06477">
        <ele>193.36</ele>
        <time>2017-08-14T08:59:28Z</time>
      </trkpt>
      <trkpt lat="43.61959" lon="2.06476">
        <ele>194.8</ele>
        <time>2017-08-14T08:59:31Z</time>
      </trkpt>
      <trkpt lat="43.6195" lon="2.06474">
        <ele>195.28</ele>
        <time>2017-08-14T08:59:39Z</time>
      </trkpt>
      <trkpt lat="43.61931" lon="2.06472">
        <ele>197.21</ele>
        <time>2017-08-14T08:59:57Z</time>
      </trkpt>
      <trkpt lat="43.61924" lon="2.06472">
        <ele>198.65</ele>
        <time>2017-08-14T09:00:02Z</time>
      </trkpt>
      <trkpt lat="43.61911" lon="2.06476">
        <ele>198.17</ele>
        <time>2017-08-14T09:00:16Z</time>
      </trkpt>
      <trkpt lat="43.61909" lon="2.06476">
        <ele>200.09</ele>
        <time>2017-08-14T09:00:18Z</time>
      </trkpt>
      <trkpt lat="43.619" lon="2.06481">
        <ele>201.53</ele>
        <time>2017-08-14T09:00:30Z</time>
      </trkpt>
      <trkpt lat="43.61899" lon="2.06483">
        <ele>201.53</ele>
        <time>2017-08-14T09:00:31Z</time>
      </trkpt>
      <trkpt lat="43.61896" lon="2.0649">
        <ele>201.53</ele>
        <time>2017-08-14T09:00:44Z</time>
      </trkpt>
      <trkpt lat="43.61895" lon="2.06492">
        <ele>200.09</ele>
        <time>2017-08-14T09:00:46Z</time>
      </trkpt>
      <trkpt lat="43.61887" lon="2.06514">
        <ele>199.61</ele>
        <time>2017-08-14T09:01:04Z</time>
      </trkpt>
      <trkpt lat="43.61883" lon="2.06523">
        <ele>199.13</ele>
        <time>2017-08-14T09:01:12Z</time>
      </trkpt>
      <trkpt lat="43.61874" lon="2.0655">
        <ele>197.21</ele>
        <time>2017-08-14T09:01:33Z</time>
      </trkpt>
      <trkpt lat="43.61863" lon="2.06576">
        <ele>195.28</ele>
        <time>2017-08-14T09:01:52Z</time>
      </trkpt>
      <trkpt lat="43.61856" lon="2.06602">
        <ele>195.28</ele>
        <time>2017-08-14T09:02:09Z</time>
      </trkpt>
      <trkpt lat="43.61847" lon="2.0663">
        <ele>193.84</ele>
        <time>2017-08-14T09:02:28Z</time>
      </trkpt>
      <trkpt lat="43.61846" lon="2.06634">
        <ele>195.28</ele>
        <time>2017-08-14T09:02:31Z</time>
      </trkpt>
      <trkpt lat="43.61843" lon="2.06642">
        <ele>193.84</ele>
        <time>2017-08-14T09:02:38Z</time>
      </trkpt>
      <trkpt lat="43.61835" lon="2.06668">
        <ele>193.84</ele>
        <time>2017-08-14T09:02:56Z</time>
      </trkpt>
      <trkpt lat="43.61828" lon="2.06697">
        <ele>193.36</ele>
        <time>2017-08-14T09:03:17Z</time>
      </trkpt>
      <trkpt lat="43.61819" lon="2.06722">
        <ele>191.92</ele>
        <time>2017-08-14T09:03:34Z</time>
      </trkpt>
      <trkpt lat="43.61813" lon="2.06748">
        <ele>190.96</ele>
        <time>2017-08-14T09:03:52Z</time>
      </trkpt>
      <trkpt lat="43.61806" lon="2.06772">
        <ele>189.04</ele>
        <time>2017-08-14T09:04:09Z</time>
      </trkpt>
      <trkpt lat="43.61805" lon="2.06783">
        <ele>188.56</ele>
        <time>2017-08-14T09:04:17Z</time>
      </trkpt>
      <trkpt lat="43.61797" lon="2.0681">
        <ele>187.59</ele>
        <time>2017-08-14T09:04:35Z</time>
      </trkpt>
      <trkpt lat="43.6179" lon="2.06833">
        <ele>187.11</ele>
        <time>2017-08-14T09:04:52Z</time>
      </trkpt>
      <trkpt lat="43.61781" lon="2.06838">
        <ele>186.63</ele>
        <time>2017-08-14T09:05:00Z</time>
      </trkpt>
      <trkpt lat="43.61762" lon="2.06827">
        <ele>185.19</ele>
        <time>2017-08-14T09:05:21Z</time>
      </trkpt>
      <trkpt lat="43.61747" lon="2.06807">
        <ele>184.23</ele>
        <time>2017-08-14T09:05:41Z</time>
      </trkpt>
      <trkpt lat="43.61737" lon="2.0679">
        <ele>182.79</ele>
        <time>2017-08-14T09:05:56Z</time>
      </trkpt>
      <trkpt lat="43.61721" lon="2.06768">
        <ele>181.83</ele>
        <time>2017-08-14T09:06:15Z</time>
      </trkpt>
      <trkpt lat="43.61708" lon="2.06751">
        <ele>181.35</ele>
        <time>2017-08-14T09:06:31Z</time>
      </trkpt>
      <trkpt lat="43.61688" lon="2.06733">
        <ele>181.83</ele>
        <time>2017-08-14T09:06:52Z</time>
      </trkpt>
      <trkpt lat="43.61684" lon="2.06728">
        <ele>182.79</ele>
        <time>2017-08-14T09:06:57Z</time>
      </trkpt>
      <trkpt lat="43.61677" lon="2.06723">
        <ele>183.27</ele>
        <time>2017-08-14T09:07:03Z</time>
      </trkpt>
      <trkpt lat="43.6166" lon="2.06706">
        <ele>182.31</ele>
        <time>2017-08-14T09:07:23Z</time>
      </trkpt>
      <trkpt lat="43.61644" lon="2.0669">
        <ele>183.27</ele>
        <time>2017-08-14T09:07:40Z</time>
      </trkpt>
      <trkpt lat="43.61635" lon="2.06674">
        <ele>181.83</ele>
        <time>2017-08-14T09:07:51Z</time>
      </trkpt>
      <trkpt lat="43.61617" lon="2.06654">
        <ele>181.83</ele>
        <time>2017-08-14T09:08:10Z</time>
      </trkpt>
      <trkpt lat="43.6161" lon="2.06651">
        <ele>182.31</ele>
        <time>2017-08-14T09:08:16Z</time>
      </trkpt>
      <trkpt lat="43.61589" lon="2.06647">
        <ele>183.27</ele>
        <time>2017-08-14T09:08:34Z</time>
      </trkpt>
      <trkpt lat="43.61582" lon="2.06646">
        <ele>183.27</ele>
        <time>2017-08-14T09:08:42Z</time>
      </trkpt>
      <trkpt lat="43.61567" lon="2.06641">
        <ele>183.27</ele>
        <time>2017-08-14T09:08:55Z</time>
      </trkpt>
      <trkpt lat="43.61542" lon="2.06629">
        <ele>183.27</ele>
        <time>2017-08-14T09:09:16Z</time>
      </trkpt>
      <trkpt lat="43.61526" lon="2.06619">
        <ele>183.27</ele>
        <time>2017-08-14T09:09:32Z</time>
      </trkpt>
      <trkpt lat="43.61508" lon="2.06606">
        <ele>183.75</ele>
        <time>2017-08-14T09:09:50Z</time>
      </trkpt>
      <trkpt lat="43.61501" lon="2.06603">
        <ele>181.83</ele>
        <time>2017-08-14T09:09:57Z</time>
      </trkpt>
      <trkpt lat="43.61488" lon="2.06596">
        <ele>180.87</ele>
        <time>2017-08-14T09:10:09Z</time>
      </trkpt>
      <trkpt lat="43.61477" lon="2.06588">
        <ele>180.87</ele>
        <time>2017-08-14T09:10:23Z</time>
      </trkpt>
      <trkpt lat="43.61458" lon="2.06578">
        <ele>179.42</ele>
        <time>2017-08-14T09:10:40Z</time>
      </trkpt>
      <trkpt lat="43.61443" lon="2.06579">
        <ele>177.98</ele>
        <time>2017-08-14T09:10:57Z</time>
      </trkpt>
      <trkpt lat="43.61435" lon="2.06587">
        <ele>177.5</ele>
        <time>2017-08-14T09:11:18Z</time>
      </trkpt>
      <trkpt lat="43.61429" lon="2.06591">
        <ele>178.46</ele>
        <time>2017-08-14T09:11:33Z</time>
      </trkpt>
      <trkpt lat="43.61422" lon="2.06589">
        <ele>177.5</ele>
        <time>2017-08-14T09:11:41Z</time>
      </trkpt>
      <trkpt lat="43.61404" lon="2.06613">
        <ele>180.38</ele>
        <time>2017-08-14T09:12:01Z</time>
      </trkpt>
      <trkpt lat="43.61401" lon="2.06616">
        <ele>178.94</ele>
        <time>2017-08-14T09:12:03Z</time>
      </trkpt>
      <trkpt lat="43.61397" lon="2.0662">
        <ele>181.35</ele>
        <time>2017-08-14T09:12:09Z</time>
      </trkpt>
      <trkpt lat="43.61382" lon="2.06636">
        <ele>182.79</ele>
        <time>2017-08-14T09:12:30Z</time>
      </trkpt>
      <trkpt lat="43.61382" lon="2.0666">
        <ele>182.79</ele>
        <time>2017-08-14T09:12:50Z</time>
      </trkpt>
      <trkpt lat="43.61389" lon="2.06668">
        <ele>187.11</ele>
        <time>2017-08-14T09:12:59Z</time>
      </trkpt>
      <trkpt lat="43.61392" lon="2.0667">
        <ele>187.11</ele>
        <time>2017-08-14T09:13:03Z</time>
      </trkpt>
      <trkpt lat="43.61406" lon="2.06683">
        <ele>189.04</ele>
        <time>2017-08-14T09:13:25Z</time>
      </trkpt>
      <trkpt lat="43.6141" lon="2.0669">
        <ele>190.48</ele>
        <time>2017-08-14T09:13:37Z</time>
      </trkpt>
      <trkpt lat="43.61417" lon="2.067">
        <ele>191.92</ele>
        <time>2017-08-14T09:13:56Z</time>
      </trkpt>
      <trkpt lat="43.61419" lon="2.06705">
        <ele>193.84</ele>
        <time>2017-08-14T09:14:02Z</time>
      </trkpt>
      <trkpt lat="43.61426" lon="2.06719">
        <ele>195.28</ele>
        <time>2017-08-14T09:14:21Z</time>
      </trkpt>
      <trkpt lat="43.61434" lon="2.06732">
        <ele>198.65</ele>
        <time>2017-08-14T09:14:39Z</time>
      </trkpt>
      <trkpt lat="43.61439" lon="2.06733">
        <ele>199.13</ele>
        <time>2017-08-14T09:14:46Z</time>
      </trkpt>
      <trkpt lat="43.61451" lon="2.06748">
        <ele>200.57</ele>
        <time>2017-08-14T09:15:04Z</time>
      </trkpt>
      <trkpt lat="43.61455" lon="2.06753">
        <ele>199.13</ele>
        <time>2017-08-14T09:15:10Z</time>
      </trkpt>
      <trkpt lat="43.6146" lon="2.0676">
        <ele>200.57</ele>
        <time>2017-08-14T09:15:17Z</time>
      </trkpt>
      <trkpt lat="43.61465" lon="2.0677">
        <ele>202.01</ele>
        <time>2017-08-14T09:15:28Z</time>
      </trkpt>
      <trkpt lat="43.61471" lon="2.06786">
        <ele>203.94</ele>
        <time>2017-08-14T09:15:47Z</time>
      </trkpt>
      <trkpt lat="43.61475" lon="2.068">
        <ele>205.86</ele>
        <time>2017-08-14T09:16:00Z</time>
      </trkpt>
      <trkpt lat="43.61476" lon="2.06804">
        <ele>205.86</ele>
        <time>2017-08-14T09:16:08Z</time>
      </trkpt>
      <trkpt lat="43.61479" lon="2.06809">
        <ele>207.3</ele>
        <time>2017-08-14T09:16:11Z</time>
      </trkpt>
      <trkpt lat="43.61488" lon="2.06831">
        <ele>208.26</ele>
        <time>2017-08-14T09:16:30Z</time>
      </trkpt>
      <trkpt lat="43.61494" lon="2.06854">
        <ele>209.22</ele>
        <time>2017-08-14T09:16:48Z</time>
      </trkpt>
      <trkpt lat="43.61506" lon="2.06873">
        <ele>210.67</ele>
        <time>2017-08-14T09:17:07Z</time>
      </trkpt>
      <trkpt lat="43.61519" lon="2.06891">
        <ele>212.59</ele>
        <time>2017-08-14T09:17:26Z</time>
      </trkpt>
      <trkpt lat="43.61524" lon="2.069">
        <ele>213.07</ele>
        <time>2017-08-14T09:17:34Z</time>
      </trkpt>
      <trkpt lat="43.61529" lon="2.06922">
        <ele>213.55</ele>
        <time>2017-08-14T09:17:53Z</time>
      </trkpt>
      <trkpt lat="43.61534" lon="2.06936">
        <ele>214.51</ele>
        <time>2017-08-14T09:18:02Z</time>
      </trkpt>
      <trkpt lat="43.61537" lon="2.06945">
        <ele>215.47</ele>
        <time>2017-08-14T09:18:09Z</time>
      </trkpt>
      <trkpt lat="43.61545" lon="2.06954">
        <ele>215.47</ele>
        <time>2017-08-14T09:18:18Z</time>
      </trkpt>
      <trkpt lat="43.61552" lon="2.06969">
        <ele>216.43</ele>
        <time>2017-08-14T09:18:31Z</time>
      </trkpt>
      <trkpt lat="43.61558" lon="2.0699">
        <ele>216.91</ele>
        <time>2017-08-14T09:18:50Z</time>
      </trkpt>
      <trkpt lat="43.6156" lon="2.07005">
        <ele>217.4</ele>
        <time>2017-08-14T09:19:01Z</time>
      </trkpt>
      <trkpt lat="43.61568" lon="2.07033">
        <ele>219.32</ele>
        <time>2017-08-14T09:19:20Z</time>
      </trkpt>
      <trkpt lat="43.61575" lon="2.07058">
        <ele>220.28</ele>
        <time>2017-08-14T09:19:39Z</time>
      </trkpt>
      <trkpt lat="43.61572" lon="2.07084">
        <ele>222.2</ele>
        <time>2017-08-14T09:19:59Z</time>
      </trkpt>
      <trkpt lat="43.61572" lon="2.07096">
        <ele>223.64</ele>
        <time>2017-08-14T09:20:10Z</time>
      </trkpt>
      <trkpt lat="43.61569" lon="2.07121">
        <ele>226.05</ele>
        <time>2017-08-14T09:20:28Z</time>
      </trkpt>
      <trkpt lat="43.61569" lon="2.07126">
        <ele>224.61</ele>
        <time>2017-08-14T09:20:31Z</time>
      </trkpt>
      <trkpt lat="43.61569" lon="2.07136">
        <ele>227.97</ele>
        <time>2017-08-14T09:20:39Z</time>
      </trkpt>
      <trkpt lat="43.61569" lon="2.0714">
        <ele>227.97</ele>
        <time>2017-08-14T09:20:44Z</time>
      </trkpt>
      <trkpt lat="43.61567" lon="2.07144">
        <ele>228.45</ele>
        <time>2017-08-14T09:20:48Z</time>
      </trkpt>
      <trkpt lat="43.6157" lon="2.07164">
        <ele>231.81</ele>
        <time>2017-08-14T09:21:08Z</time>
      </trkpt>
      <trkpt lat="43.6157" lon="2.07165">
        <ele>231.81</ele>
        <time>2017-08-14T09:21:09Z</time>
      </trkpt>
      <trkpt lat="43.61569" lon="2.07184">
        <ele>234.7</ele>
        <time>2017-08-14T09:21:30Z</time>
      </trkpt>
      <trkpt lat="43.61569" lon="2.07188">
        <ele>234.7</ele>
        <time>2017-08-14T09:21:37Z</time>
      </trkpt>
      <trkpt lat="43.6158" lon="2.07206">
        <ele>235.66</ele>
        <time>2017-08-14T09:21:56Z</time>
      </trkpt>
      <trkpt lat="43.61581" lon="2.0721">
        <ele>237.58</ele>
        <time>2017-08-14T09:22:01Z</time>
      </trkpt>
      <trkpt lat="43.61583" lon="2.07224">
        <ele>238.54</ele>
        <time>2017-08-14T09:22:12Z</time>
      </trkpt>
      <trkpt lat="43.61583" lon="2.07229">
        <ele>240.47</ele>
        <time>2017-08-14T09:22:21Z</time>
      </trkpt>
      <trkpt lat="43.6159" lon="2.07242">
        <ele>242.39</ele>
        <time>2017-08-14T09:22:37Z</time>
      </trkpt>
      <trkpt lat="43.61597" lon="2.0726">
        <ele>242.87</ele>
        <time>2017-08-14T09:22:56Z</time>
      </trkpt>
      <trkpt lat="43.61601" lon="2.07264">
        <ele>244.31</ele>
        <time>2017-08-14T09:23:02Z</time>
      </trkpt>
      <trkpt lat="43.61604" lon="2.07265">
        <ele>244.31</ele>
        <time>2017-08-14T09:23:05Z</time>
      </trkpt>
      <trkpt lat="43.61606" lon="2.07268">
        <ele>242.87</ele>
        <time>2017-08-14T09:23:07Z</time>
      </trkpt>
      <trkpt lat="43.61618" lon="2.07275">
        <ele>242.39</ele>
        <time>2017-08-14T09:23:21Z</time>
      </trkpt>
      <trkpt lat="43.61622" lon="2.07278">
        <ele>241.91</ele>
        <time>2017-08-14T09:23:26Z</time>
      </trkpt>
      <trkpt lat="43.61627" lon="2.07302">
        <ele>241.91</ele>
        <time>2017-08-14T09:23:44Z</time>
      </trkpt>
      <trkpt lat="43.61622" lon="2.07336">
        <ele>241.91</ele>
        <time>2017-08-14T09:24:06Z</time>
      </trkpt>
      <trkpt lat="43.61617" lon="2.07361">
        <ele>240.95</ele>
        <time>2017-08-14T09:24:23Z</time>
      </trkpt>
      <trkpt lat="43.61625" lon="2.0739">
        <ele>238.54</ele>
        <time>2017-08-14T09:24:43Z</time>
      </trkpt>
      <trkpt lat="43.61616" lon="2.07396">
        <ele>238.06</ele>
        <time>2017-08-14T09:24:58Z</time>
      </trkpt>
      <trkpt lat="43.61612" lon="2.07422">
        <ele>235.66</ele>
        <time>2017-08-14T09:25:16Z</time>
      </trkpt>
      <trkpt lat="43.61609" lon="2.07435">
        <ele>232.78</ele>
        <time>2017-08-14T09:25:26Z</time>
      </trkpt>
      <trkpt lat="43.61609" lon="2.07459">
        <ele>230.37</ele>
        <time>2017-08-14T09:25:45Z</time>
      </trkpt>
      <trkpt lat="43.61608" lon="2.07477">
        <ele>227.97</ele>
        <time>2017-08-14T09:25:58Z</time>
      </trkpt>
      <trkpt lat="43.61612" lon="2.07496">
        <ele>226.53</ele>
        <time>2017-08-14T09:26:16Z</time>
      </trkpt>
      <trkpt lat="43.61619" lon="2.07519">
        <ele>224.61</ele>
        <time>2017-08-14T09:26:34Z</time>
      </trkpt>
      <trkpt lat="43.61629" lon="2.07537">
        <ele>221.24</ele>
        <time>2017-08-14T09:26:50Z</time>
      </trkpt>
      <trkpt lat="43.6163" lon="2.07538">
        <ele>221.24</ele>
        <time>2017-08-14T09:26:51Z</time>
      </trkpt>
      <trkpt lat="43.61634" lon="2.07544">
        <ele>221.24</ele>
        <time>2017-08-14T09:26:57Z</time>
      </trkpt>
      <trkpt lat="43.61631" lon="2.07548">
        <ele>219.32</ele>
        <time>2017-08-14T09:27:03Z</time>
      </trkpt>
      <trkpt lat="43.61616" lon="2.0754">
        <ele>216.91</ele>
        <time>2017-08-14T09:27:23Z</time>
      </trkpt>
      <trkpt lat="43.61603" lon="2.0754">
        <ele>213.55</ele>
        <time>2017-08-14T09:27:41Z</time>
      </trkpt>
      <trkpt lat="43.61585" lon="2.07537">
        <ele>212.11</ele>
        <time>2017-08-14T09:28:01Z</time>
      </trkpt>
      <trkpt lat="43.61583" lon="2.0754">
        <ele>212.11</ele>
        <time>2017-08-14T09:28:04Z</time>
      </trkpt>
      <trkpt lat="43.61579" lon="2.07575">
        <ele>213.07</ele>
        <time>2017-08-14T09:28:23Z</time>
      </trkpt>
      <trkpt lat="43.61584" lon="2.07605">
        <ele>213.07</ele>
        <time>2017-08-14T09:28:43Z</time>
      </trkpt>
      <trkpt lat="43.61587" lon="2.0763">
        <ele>213.07</ele>
        <time>2017-08-14T09:29:03Z</time>
      </trkpt>
      <trkpt lat="43.61586" lon="2.07657">
        <ele>212.11</ele>
        <time>2017-08-14T09:29:22Z</time>
      </trkpt>
      <trkpt lat="43.61586" lon="2.07681">
        <ele>213.55</ele>
        <time>2017-08-14T09:29:39Z</time>
      </trkpt>
      <trkpt lat="43.61587" lon="2.07704">
        <ele>213.55</ele>
        <time>2017-08-14T09:29:56Z</time>
      </trkpt>
      <trkpt lat="43.6159" lon="2.07736">
        <ele>214.51</ele>
        <time>2017-08-14T09:30:16Z</time>
      </trkpt>
      <trkpt lat="43.61592" lon="2.07753">
        <ele>214.03</ele>
        <time>2017-08-14T09:30:27Z</time>
      </trkpt>
      <trkpt lat="43.61594" lon="2.07776">
        <ele>214.03</ele>
        <time>2017-08-14T09:30:41Z</time>
      </trkpt>
      <trkpt lat="43.61596" lon="2.0781">
        <ele>214.03</ele>
        <time>2017-08-14T09:31:03Z</time>
      </trkpt>
      <trkpt lat="43.61596" lon="2.07814">
        <ele>214.03</ele>
        <time>2017-08-14T09:31:05Z</time>
      </trkpt>
      <trkpt lat="43.61597" lon="2.07843">
        <ele>213.07</ele>
        <time>2017-08-14T09:31:24Z</time>
      </trkpt>
      <trkpt lat="43.61597" lon="2.07844">
        <ele>213.07</ele>
        <time>2017-08-14T09:31:25Z</time>
      </trkpt>
      <trkpt lat="43.616" lon="2.07852">
        <ele>213.07</ele>
        <time>2017-08-14T09:31:30Z</time>
      </trkpt>
      <trkpt lat="43.61606" lon="2.07878">
        <ele>213.07</ele>
        <time>2017-08-14T09:31:48Z</time>
      </trkpt>
      <trkpt lat="43.61604" lon="2.07896">
        <ele>213.55</ele>
        <time>2017-08-14T09:31:59Z</time>
      </trkpt>
      <trkpt lat="43.61601" lon="2.07923">
        <ele>214.51</ele>
        <time>2017-08-14T09:32:17Z</time>
      </trkpt>
      <trkpt lat="43.61597" lon="2.07947">
        <ele>215.95</ele>
        <time>2017-08-14T09:32:34Z</time>
      </trkpt>
      <trkpt lat="43.61593" lon="2.07967">
        <ele>216.43</ele>
        <time>2017-08-14T09:32:51Z</time>
      </trkpt>
      <trkpt lat="43.61583" lon="2.08">
        <ele>215.47</ele>
        <time>2017-08-14T09:33:16Z</time>
      </trkpt>
      <trkpt lat="43.6158" lon="2.08012">
        <ele>214.99</ele>
        <time>2017-08-14T09:33:24Z</time>
      </trkpt>
      <trkpt lat="43.61579" lon="2.08016">
        <ele>214.99</ele>
        <time>2017-08-14T09:33:27Z</time>
      </trkpt>
      <trkpt lat="43.61573" lon="2.08025">
        <ele>214.99</ele>
        <time>2017-08-14T09:33:45Z</time>
      </trkpt>
      <trkpt lat="43.61574" lon="2.08034">
        <ele>214.51</ele>
        <time>2017-08-14T09:33:54Z</time>
      </trkpt>
      <trkpt lat="43.61583" lon="2.08058">
        <ele>213.07</ele>
        <time>2017-08-14T09:34:13Z</time>
      </trkpt>
      <trkpt lat="43.61589" lon="2.08083">
        <ele>211.63</ele>
        <time>2017-08-14T09:34:28Z</time>
      </trkpt>
      <trkpt lat="43.61594" lon="2.08099">
        <ele>209.22</ele>
        <time>2017-08-14T09:34:41Z</time>
      </trkpt>
      <trkpt lat="43.61604" lon="2.08124">
        <ele>209.22</ele>
        <time>2017-08-14T09:34:57Z</time>
      </trkpt>
      <trkpt lat="43.61611" lon="2.08155">
        <ele>209.22</ele>
        <time>2017-08-14T09:35:18Z</time>
      </trkpt>
      <trkpt lat="43.61613" lon="2.0816">
        <ele>207.78</ele>
        <time>2017-08-14T09:35:21Z</time>
      </trkpt>
      <trkpt lat="43.6162" lon="2.08179">
        <ele>209.22</ele>
        <time>2017-08-14T09:35:35Z</time>
      </trkpt>
      <trkpt lat="43.61622" lon="2.08189">
        <ele>208.26</ele>
        <time>2017-08-14T09:35:41Z</time>
      </trkpt>
      <trkpt lat="43.6163" lon="2.0821">
        <ele>209.7</ele>
        <time>2017-08-14T09:35:56Z</time>
      </trkpt>
      <trkpt lat="43.61637" lon="2.08237">
        <ele>211.15</ele>
        <time>2017-08-14T09:36:14Z</time>
      </trkpt>
      <trkpt lat="43.61637" lon="2.08265">
        <ele>209.7</ele>
        <time>2017-08-14T09:36:31Z</time>
      </trkpt>
      <trkpt lat="43.61636" lon="2.08284">
        <ele>207.78</ele>
        <time>2017-08-14T09:36:44Z</time>
      </trkpt>
      <trkpt lat="43.61629" lon="2.08316">
        <ele>206.82</ele>
        <time>2017-08-14T09:37:05Z</time>
      </trkpt>
      <trkpt lat="43.61627" lon="2.08339">
        <ele>205.86</ele>
        <time>2017-08-14T09:37:21Z</time>
      </trkpt>
      <trkpt lat="43.61625" lon="2.08366">
        <ele>205.38</ele>
        <time>2017-08-14T09:37:41Z</time>
      </trkpt>
      <trkpt lat="43.61617" lon="2.08402">
        <ele>203.94</ele>
        <time>2017-08-14T09:38:05Z</time>
      </trkpt>
      <trkpt lat="43.61616" lon="2.08416">
        <ele>203.46</ele>
        <time>2017-08-14T09:38:15Z</time>
      </trkpt>
      <trkpt lat="43.61613" lon="2.08456">
        <ele>202.01</ele>
        <time>2017-08-14T09:38:36Z</time>
      </trkpt>
      <trkpt lat="43.61614" lon="2.08485">
        <ele>200.09</ele>
        <time>2017-08-14T09:38:56Z</time>
      </trkpt>
      <trkpt lat="43.61607" lon="2.08505">
        <ele>200.09</ele>
        <time>2017-08-14T09:39:13Z</time>
      </trkpt>
      <trkpt lat="43.61603" lon="2.08528">
        <ele>199.61</ele>
        <time>2017-08-14T09:39:27Z</time>
      </trkpt>
      <trkpt lat="43.61604" lon="2.08556">
        <ele>199.61</ele>
        <time>2017-08-14T09:39:45Z</time>
      </trkpt>
      <trkpt lat="43.61608" lon="2.08571">
        <ele>199.13</ele>
        <time>2017-08-14T09:39:54Z</time>
      </trkpt>
      <trkpt lat="43.61616" lon="2.08592">
        <ele>199.13</ele>
        <time>2017-08-14T09:40:10Z</time>
      </trkpt>
      <trkpt lat="43.61623" lon="2.08613">
        <ele>198.65</ele>
        <time>2017-08-14T09:40:23Z</time>
      </trkpt>
      <trkpt lat="43.61626" lon="2.08644">
        <ele>198.17</ele>
        <time>2017-08-14T09:40:42Z</time>
      </trkpt>
      <trkpt lat="43.61626" lon="2.0866">
        <ele>197.21</ele>
        <time>2017-08-14T09:40:53Z</time>
      </trkpt>
      <trkpt lat="43.61622" lon="2.0869">
        <ele>197.69</ele>
        <time>2017-08-14T09:41:10Z</time>
      </trkpt>
      <trkpt lat="43.61621" lon="2.087">
        <ele>196.25</ele>
        <time>2017-08-14T09:41:17Z</time>
      </trkpt>
      <trkpt lat="43.61613" lon="2.08728">
        <ele>195.28</ele>
        <time>2017-08-14T09:41:37Z</time>
      </trkpt>
      <trkpt lat="43.61612" lon="2.0873">
        <ele>196.25</ele>
        <time>2017-08-14T09:41:39Z</time>
      </trkpt>
      <trkpt lat="43.61609" lon="2.08737">
        <ele>194.8</ele>
        <time>2017-08-14T09:41:44Z</time>
      </trkpt>
      <trkpt lat="43.616" lon="2.08766">
        <ele>193.84</ele>
        <time>2017-08-14T09:42:05Z</time>
      </trkpt>
      <trkpt lat="43.61586" lon="2.08789">
        <ele>192.4</ele>
        <time>2017-08-14T09:42:24Z</time>
      </trkpt>
      <trkpt lat="43.61584" lon="2.08792">
        <ele>193.84</ele>
        <time>2017-08-14T09:42:26Z</time>
      </trkpt>
      <trkpt lat="43.6158" lon="2.08793">
        <ele>192.88</ele>
        <time>2017-08-14T09:42:29Z</time>
      </trkpt>
      <trkpt lat="43.61582" lon="2.08796">
        <ele>192.4</ele>
        <time>2017-08-14T09:42:48Z</time>
      </trkpt>
      <trkpt lat="43.61581" lon="2.08794">
        <ele>191.92</ele>
        <time>2017-08-14T09:43:06Z</time>
      </trkpt>
      <trkpt lat="43.61581" lon="2.08794">
        <ele>188.08</ele>
        <time>2017-08-14T09:43:19Z</time>
      </trkpt>
      <trkpt lat="43.61581" lon="2.08795">
        <ele>195.28</ele>
        <time>2017-08-14T09:43:20Z</time>
      </trkpt>
      <trkpt lat="43.61581" lon="2.08795">
        <ele>192.4</ele>
        <time>2017-08-14T09:43:21Z</time>
      </trkpt>
      <trkpt lat="43.61579" lon="2.08795">
        <ele>192.4</ele>
        <time>2017-08-14T09:43:24Z</time>
      </trkpt>
      <trkpt lat="43.61566" lon="2.08785">
        <ele>192.4</ele>
        <time>2017-08-14T09:43:43Z</time>
      </trkpt>
      <trkpt lat="43.61563" lon="2.08781">
        <ele>194.32</ele>
        <time>2017-08-14T09:43:49Z</time>
      </trkpt>
      <trkpt lat="43.61558" lon="2.08776">
        <ele>193.84</ele>
        <time>2017-08-14T09:43:55Z</time>
      </trkpt>
      <trkpt lat="43.61557" lon="2.08776">
        <ele>193.84</ele>
        <time>2017-08-14T09:43:56Z</time>
      </trkpt>
      <trkpt lat="43.61549" lon="2.0877">
        <ele>194.32</ele>
        <time>2017-08-14T09:44:05Z</time>
      </trkpt>
      <trkpt lat="43.61547" lon="2.08767">
        <ele>195.28</ele>
        <time>2017-08-14T09:44:08Z</time>
      </trkpt>
      <trkpt lat="43.61542" lon="2.08764">
        <ele>194.32</ele>
        <time>2017-08-14T09:44:13Z</time>
      </trkpt>
      <trkpt lat="43.6154" lon="2.08763">
        <ele>195.77</ele>
        <time>2017-08-14T09:44:15Z</time>
      </trkpt>
      <trkpt lat="43.61538" lon="2.08761">
        <ele>194.32</ele>
        <time>2017-08-14T09:44:18Z</time>
      </trkpt>
      <trkpt lat="43.61527" lon="2.0875">
        <ele>196.25</ele>
        <time>2017-08-14T09:44:34Z</time>
      </trkpt>
      <trkpt lat="43.6152" lon="2.08743">
        <ele>197.21</ele>
        <time>2017-08-14T09:44:44Z</time>
      </trkpt>
      <trkpt lat="43.61506" lon="2.08733">
        <ele>200.57</ele>
        <time>2017-08-14T09:45:01Z</time>
      </trkpt>
      <trkpt lat="43.61505" lon="2.08732">
        <ele>200.57</ele>
        <time>2017-08-14T09:45:02Z</time>
      </trkpt>
      <trkpt lat="43.61493" lon="2.08719">
        <ele>202.98</ele>
        <time>2017-08-14T09:45:19Z</time>
      </trkpt>
      <trkpt lat="43.61496" lon="2.08702">
        <ele>205.38</ele>
        <time>2017-08-14T09:45:36Z</time>
      </trkpt>
      <trkpt lat="43.61504" lon="2.08688">
        <ele>206.34</ele>
        <time>2017-08-14T09:45:54Z</time>
      </trkpt>
      <trkpt lat="43.61513" lon="2.08674">
        <ele>209.7</ele>
        <time>2017-08-14T09:46:13Z</time>
      </trkpt>
      <trkpt lat="43.61518" lon="2.08659">
        <ele>209.7</ele>
        <time>2017-08-14T09:46:25Z</time>
      </trkpt>
      <trkpt lat="43.61523" lon="2.08639">
        <ele>212.11</ele>
        <time>2017-08-14T09:46:39Z</time>
      </trkpt>
      <trkpt lat="43.61526" lon="2.08621">
        <ele>213.55</ele>
        <time>2017-08-14T09:46:53Z</time>
      </trkpt>
      <trkpt lat="43.61525" lon="2.08603">
        <ele>215.47</ele>
        <time>2017-08-14T09:47:07Z</time>
      </trkpt>
      <trkpt lat="43.61524" lon="2.08588">
        <ele>216.91</ele>
        <time>2017-08-14T09:47:18Z</time>
      </trkpt>
      <trkpt lat="43.61523" lon="2.08586">
        <ele>217.88</ele>
        <time>2017-08-14T09:47:21Z</time>
      </trkpt>
      <trkpt lat="43.61523" lon="2.08584">
        <ele>216.43</ele>
        <time>2017-08-14T09:47:23Z</time>
      </trkpt>
      <trkpt lat="43.6152" lon="2.08577">
        <ele>219.32</ele>
        <time>2017-08-14T09:47:43Z</time>
      </trkpt>
      <trkpt lat="43.61512" lon="2.08558">
        <ele>220.76</ele>
        <time>2017-08-14T09:48:01Z</time>
      </trkpt>
      <trkpt lat="43.61503" lon="2.0854">
        <ele>220.76</ele>
        <time>2017-08-14T09:48:19Z</time>
      </trkpt>
      <trkpt lat="43.61499" lon="2.08537">
        <ele>224.61</ele>
        <time>2017-08-14T09:48:24Z</time>
      </trkpt>
      <trkpt lat="43.61496" lon="2.08535">
        <ele>223.16</ele>
        <time>2017-08-14T09:48:27Z</time>
      </trkpt>
      <trkpt lat="43.6148" lon="2.08528">
        <ele>225.57</ele>
        <time>2017-08-14T09:48:44Z</time>
      </trkpt>
      <trkpt lat="43.61474" lon="2.08526">
        <ele>227.49</ele>
        <time>2017-08-14T09:48:49Z</time>
      </trkpt>
      <trkpt lat="43.6147" lon="2.08526">
        <ele>227.49</ele>
        <time>2017-08-14T09:48:54Z</time>
      </trkpt>
      <trkpt lat="43.61465" lon="2.08524">
        <ele>227.97</ele>
        <time>2017-08-14T09:49:00Z</time>
      </trkpt>
      <trkpt lat="43.61458" lon="2.08522">
        <ele>227.49</ele>
        <time>2017-08-14T09:49:07Z</time>
      </trkpt>
      <trkpt lat="43.61457" lon="2.08522">
        <ele>229.41</ele>
        <time>2017-08-14T09:49:09Z</time>
      </trkpt>
      <trkpt lat="43.61454" lon="2.08522">
        <ele>227.49</ele>
        <time>2017-08-14T09:49:11Z</time>
      </trkpt>
      <trkpt lat="43.61452" lon="2.08521">
        <ele>229.41</ele>
        <time>2017-08-14T09:49:13Z</time>
      </trkpt>
      <trkpt lat="43.61446" lon="2.08512">
        <ele>230.85</ele>
        <time>2017-08-14T09:49:28Z</time>
      </trkpt>
      <trkpt lat="43.61445" lon="2.08502">
        <ele>230.85</ele>
        <time>2017-08-14T09:49:36Z</time>
      </trkpt>
      <trkpt lat="43.61443" lon="2.0849">
        <ele>230.85</ele>
        <time>2017-08-14T09:49:45Z</time>
      </trkpt>
      <trkpt lat="43.6144" lon="2.08478">
        <ele>232.3</ele>
        <time>2017-08-14T09:49:54Z</time>
      </trkpt>
      <trkpt lat="43.61437" lon="2.08472">
        <ele>232.78</ele>
        <time>2017-08-14T09:49:59Z</time>
      </trkpt>
      <trkpt lat="43.61435" lon="2.08466">
        <ele>231.33</ele>
        <time>2017-08-14T09:50:03Z</time>
      </trkpt>
      <trkpt lat="43.61434" lon="2.0846">
        <ele>233.74</ele>
        <time>2017-08-14T09:50:07Z</time>
      </trkpt>
      <trkpt lat="43.61433" lon="2.08457">
        <ele>232.3</ele>
        <time>2017-08-14T09:50:09Z</time>
      </trkpt>
      <trkpt lat="43.61425" lon="2.08441">
        <ele>234.22</ele>
        <time>2017-08-14T09:50:23Z</time>
      </trkpt>
      <trkpt lat="43.61414" lon="2.08422">
        <ele>235.18</ele>
        <time>2017-08-14T09:50:41Z</time>
      </trkpt>
      <trkpt lat="43.61403" lon="2.08404">
        <ele>234.7</ele>
        <time>2017-08-14T09:50:57Z</time>
      </trkpt>
      <trkpt lat="43.61396" lon="2.08382">
        <ele>233.74</ele>
        <time>2017-08-14T09:51:13Z</time>
      </trkpt>
      <trkpt lat="43.61393" lon="2.08366">
        <ele>235.66</ele>
        <time>2017-08-14T09:51:23Z</time>
      </trkpt>
      <trkpt lat="43.6139" lon="2.08356">
        <ele>236.14</ele>
        <time>2017-08-14T09:51:29Z</time>
      </trkpt>
      <trkpt lat="43.61389" lon="2.08333">
        <ele>235.66</ele>
        <time>2017-08-14T09:51:45Z</time>
      </trkpt>
      <trkpt lat="43.6139" lon="2.08306">
        <ele>237.1</ele>
        <time>2017-08-14T09:52:04Z</time>
      </trkpt>
      <trkpt lat="43.61389" lon="2.08299">
        <ele>234.22</ele>
        <time>2017-08-14T09:52:12Z</time>
      </trkpt>
      <trkpt lat="43.61389" lon="2.08298">
        <ele>240.47</ele>
        <time>2017-08-14T09:52:13Z</time>
      </trkpt>
      <trkpt lat="43.6139" lon="2.08296">
        <ele>237.1</ele>
        <time>2017-08-14T09:52:18Z</time>
      </trkpt>
      <trkpt lat="43.6139" lon="2.08295">
        <ele>235.66</ele>
        <time>2017-08-14T09:52:20Z</time>
      </trkpt>
      <trkpt lat="43.61391" lon="2.08294">
        <ele>237.1</ele>
        <time>2017-08-14T09:52:23Z</time>
      </trkpt>
      <trkpt lat="43.61392" lon="2.08295">
        <ele>232.78</ele>
        <time>2017-08-14T09:52:32Z</time>
      </trkpt>
      <trkpt lat="43.61392" lon="2.08295">
        <ele>237.58</ele>
        <time>2017-08-14T09:52:33Z</time>
      </trkpt>
      <trkpt lat="43.61391" lon="2.08295">
        <ele>237.58</ele>
        <time>2017-08-14T09:52:34Z</time>
      </trkpt>
      <trkpt lat="43.6139" lon="2.08295">
        <ele>235.66</ele>
        <time>2017-08-14T09:52:36Z</time>
      </trkpt>
      <trkpt lat="43.61386" lon="2.08288">
        <ele>238.06</ele>
        <time>2017-08-14T09:52:50Z</time>
      </trkpt>
      <trkpt lat="43.61389" lon="2.08292">
        <ele>237.58</ele>
        <time>2017-08-14T09:53:01Z</time>
      </trkpt>
      <trkpt lat="43.61389" lon="2.08294">
        <ele>236.62</ele>
        <time>2017-08-14T09:53:27Z</time>
      </trkpt>
      <trkpt lat="43.61387" lon="2.08293">
        <ele>237.1</ele>
        <time>2017-08-14T09:53:52Z</time>
      </trkpt>
      <trkpt lat="43.61388" lon="2.0829">
        <ele>237.1</ele>
        <time>2017-08-14T09:54:20Z</time>
      </trkpt>
      <trkpt lat="43.61388" lon="2.08294">
        <ele>233.26</ele>
        <time>2017-08-14T09:54:39Z</time>
      </trkpt>
      <trkpt lat="43.61388" lon="2.08295">
        <ele>238.54</ele>
        <time>2017-08-14T09:54:40Z</time>
      </trkpt>
      <trkpt lat="43.61389" lon="2.08294">
        <ele>234.7</ele>
        <time>2017-08-14T09:54:52Z</time>
      </trkpt>
      <trkpt lat="43.6139" lon="2.08294">
        <ele>241.43</ele>
        <time>2017-08-14T09:54:53Z</time>
      </trkpt>
      <trkpt lat="43.6139" lon="2.08294">
        <ele>237.58</ele>
        <time>2017-08-14T09:54:54Z</time>
      </trkpt>
      <trkpt lat="43.61391" lon="2.08296">
        <ele>236.14</ele>
        <time>2017-08-14T09:54:57Z</time>
      </trkpt>
      <trkpt lat="43.61392" lon="2.08298">
        <ele>239.51</ele>
        <time>2017-08-14T09:55:19Z</time>
      </trkpt>
      <trkpt lat="43.6139" lon="2.08296">
        <ele>236.14</ele>
        <time>2017-08-14T09:55:31Z</time>
      </trkpt>
      <trkpt lat="43.61392" lon="2.08297">
        <ele>237.1</ele>
        <time>2017-08-14T09:55:56Z</time>
      </trkpt>
      <trkpt lat="43.61394" lon="2.08281">
        <ele>237.1</ele>
        <time>2017-08-14T09:56:19Z</time>
      </trkpt>
      <trkpt lat="43.61394" lon="2.08258">
        <ele>238.06</ele>
        <time>2017-08-14T09:56:36Z</time>
      </trkpt>
      <trkpt lat="43.61394" lon="2.08237">
        <ele>238.06</ele>
        <time>2017-08-14T09:56:52Z</time>
      </trkpt>
      <trkpt lat="43.61393" lon="2.08225">
        <ele>240.95</ele>
        <time>2017-08-14T09:57:01Z</time>
      </trkpt>
      <trkpt lat="43.61394" lon="2.08218">
        <ele>241.43</ele>
        <time>2017-08-14T09:57:07Z</time>
      </trkpt>
      <trkpt lat="43.61394" lon="2.08215">
        <ele>239.51</ele>
        <time>2017-08-14T09:57:09Z</time>
      </trkpt>
      <trkpt lat="43.61395" lon="2.08212">
        <ele>240.95</ele>
        <time>2017-08-14T09:57:12Z</time>
      </trkpt>
      <trkpt lat="43.61391" lon="2.08197">
        <ele>242.87</ele>
        <time>2017-08-14T09:57:25Z</time>
      </trkpt>
      <trkpt lat="43.61384" lon="2.08176">
        <ele>243.83</ele>
        <time>2017-08-14T09:57:44Z</time>
      </trkpt>
      <trkpt lat="43.61377" lon="2.08154">
        <ele>244.31</ele>
        <time>2017-08-14T09:58:02Z</time>
      </trkpt>
      <trkpt lat="43.61368" lon="2.0813">
        <ele>245.75</ele>
        <time>2017-08-14T09:58:20Z</time>
      </trkpt>
      <trkpt lat="43.61366" lon="2.08101">
        <ele>245.75</ele>
        <time>2017-08-14T09:58:39Z</time>
      </trkpt>
      <trkpt lat="43.61367" lon="2.08081">
        <ele>245.27</ele>
        <time>2017-08-14T09:58:52Z</time>
      </trkpt>
      <trkpt lat="43.61368" lon="2.08054">
        <ele>246.72</ele>
        <time>2017-08-14T09:59:11Z</time>
      </trkpt>
      <trkpt lat="43.6137" lon="2.08026">
        <ele>246.72</ele>
        <time>2017-08-14T09:59:30Z</time>
      </trkpt>
      <trkpt lat="43.61373" lon="2.07995">
        <ele>246.72</ele>
        <time>2017-08-14T09:59:50Z</time>
      </trkpt>
      <trkpt lat="43.61379" lon="2.07967">
        <ele>246.72</ele>
        <time>2017-08-14T10:00:11Z</time>
      </trkpt>
      <trkpt lat="43.6138" lon="2.07959">
        <ele>246.72</ele>
        <time>2017-08-14T10:00:16Z</time>
      </trkpt>
      <trkpt lat="43.61383" lon="2.07938">
        <ele>244.79</ele>
        <time>2017-08-14T10:00:29Z</time>
      </trkpt>
      <trkpt lat="43.61385" lon="2.07908">
        <ele>242.87</ele>
        <time>2017-08-14T10:00:47Z</time>
      </trkpt>
      <trkpt lat="43.61382" lon="2.07884">
        <ele>242.39</ele>
        <time>2017-08-14T10:01:03Z</time>
      </trkpt>
      <trkpt lat="43.6138" lon="2.07851">
        <ele>241.91</ele>
        <time>2017-08-14T10:01:22Z</time>
      </trkpt>
      <trkpt lat="43.6138" lon="2.07818">
        <ele>241.43</ele>
        <time>2017-08-14T10:01:43Z</time>
      </trkpt>
      <trkpt lat="43.61379" lon="2.07792">
        <ele>242.39</ele>
        <time>2017-08-14T10:02:00Z</time>
      </trkpt>
      <trkpt lat="43.61378" lon="2.07763">
        <ele>242.87</ele>
        <time>2017-08-14T10:02:19Z</time>
      </trkpt>
      <trkpt lat="43.61378" lon="2.07754">
        <ele>242.39</ele>
        <time>2017-08-14T10:02:25Z</time>
      </trkpt>
      <trkpt lat="43.61378" lon="2.07736">
        <ele>243.83</ele>
        <time>2017-08-14T10:02:37Z</time>
      </trkpt>
      <trkpt lat="43.61374" lon="2.07707">
        <ele>246.23</ele>
        <time>2017-08-14T10:02:56Z</time>
      </trkpt>
      <trkpt lat="43.61364" lon="2.0768">
        <ele>247.2</ele>
        <time>2017-08-14T10:03:16Z</time>
      </trkpt>
      <trkpt lat="43.61354" lon="2.07659">
        <ele>249.6</ele>
        <time>2017-08-14T10:03:34Z</time>
      </trkpt>
      <trkpt lat="43.6134" lon="2.07652">
        <ele>252.48</ele>
        <time>2017-08-14T10:03:50Z</time>
      </trkpt>
      <trkpt lat="43.61337" lon="2.07649">
        <ele>251.04</ele>
        <time>2017-08-14T10:03:53Z</time>
      </trkpt>
      <trkpt lat="43.61319" lon="2.0764">
        <ele>253.44</ele>
        <time>2017-08-14T10:04:11Z</time>
      </trkpt>
      <trkpt lat="43.61303" lon="2.07629">
        <ele>253.44</ele>
        <time>2017-08-14T10:04:30Z</time>
      </trkpt>
      <trkpt lat="43.61292" lon="2.07608">
        <ele>252</ele>
        <time>2017-08-14T10:04:45Z</time>
      </trkpt>
      <trkpt lat="43.61284" lon="2.07586">
        <ele>252.96</ele>
        <time>2017-08-14T10:05:01Z</time>
      </trkpt>
      <trkpt lat="43.61279" lon="2.07577">
        <ele>251.52</ele>
        <time>2017-08-14T10:05:07Z</time>
      </trkpt>
      <trkpt lat="43.61268" lon="2.07573">
        <ele>251.04</ele>
        <time>2017-08-14T10:05:22Z</time>
      </trkpt>
      <trkpt lat="43.61271" lon="2.07576">
        <ele>251.04</ele>
        <time>2017-08-14T10:05:48Z</time>
      </trkpt>
      <trkpt lat="43.61274" lon="2.07573">
        <ele>252.48</ele>
        <time>2017-08-14T10:05:53Z</time>
      </trkpt>
      <trkpt lat="43.61268" lon="2.07556">
        <ele>251.04</ele>
        <time>2017-08-14T10:06:05Z</time>
      </trkpt>
      <trkpt lat="43.61258" lon="2.07526">
        <ele>250.56</ele>
        <time>2017-08-14T10:06:26Z</time>
      </trkpt>
      <trkpt lat="43.61247" lon="2.07506">
        <ele>250.08</ele>
        <time>2017-08-14T10:06:41Z</time>
      </trkpt>
      <trkpt lat="43.61233" lon="2.07482">
        <ele>251.52</ele>
        <time>2017-08-14T10:07:00Z</time>
      </trkpt>
      <trkpt lat="43.61218" lon="2.07456">
        <ele>252.48</ele>
        <time>2017-08-14T10:07:22Z</time>
      </trkpt>
      <trkpt lat="43.61216" lon="2.07451">
        <ele>251.52</ele>
        <time>2017-08-14T10:07:26Z</time>
      </trkpt>
      <trkpt lat="43.61214" lon="2.07448">
        <ele>252.48</ele>
        <time>2017-08-14T10:07:28Z</time>
      </trkpt>
      <trkpt lat="43.61202" lon="2.07425">
        <ele>254.41</ele>
        <time>2017-08-14T10:07:48Z</time>
      </trkpt>
      <trkpt lat="43.6119" lon="2.074">
        <ele>257.77</ele>
        <time>2017-08-14T10:08:09Z</time>
      </trkpt>
      <trkpt lat="43.61176" lon="2.07386">
        <ele>258.25</ele>
        <time>2017-08-14T10:08:25Z</time>
      </trkpt>
      <trkpt lat="43.61169" lon="2.07381">
        <ele>256.81</ele>
        <time>2017-08-14T10:08:32Z</time>
      </trkpt>
      <trkpt lat="43.6116" lon="2.07376">
        <ele>258.25</ele>
        <time>2017-08-14T10:08:42Z</time>
      </trkpt>
      <trkpt lat="43.61143" lon="2.07367">
        <ele>256.81</ele>
        <time>2017-08-14T10:08:58Z</time>
      </trkpt>
      <trkpt lat="43.61139" lon="2.07363">
        <ele>256.81</ele>
        <time>2017-08-14T10:09:03Z</time>
      </trkpt>
      <trkpt lat="43.61131" lon="2.07335">
        <ele>255.85</ele>
        <time>2017-08-14T10:09:24Z</time>
      </trkpt>
      <trkpt lat="43.61124" lon="2.07308">
        <ele>255.37</ele>
        <time>2017-08-14T10:09:41Z</time>
      </trkpt>
      <trkpt lat="43.61121" lon="2.07287">
        <ele>255.37</ele>
        <time>2017-08-14T10:09:57Z</time>
      </trkpt>
      <trkpt lat="43.61119" lon="2.07255">
        <ele>255.37</ele>
        <time>2017-08-14T10:10:17Z</time>
      </trkpt>
      <trkpt lat="43.61119" lon="2.07252">
        <ele>256.81</ele>
        <time>2017-08-14T10:10:19Z</time>
      </trkpt>
      <trkpt lat="43.61119" lon="2.07227">
        <ele>257.29</ele>
        <time>2017-08-14T10:10:36Z</time>
      </trkpt>
      <trkpt lat="43.61122" lon="2.072">
        <ele>258.73</ele>
        <time>2017-08-14T10:10:53Z</time>
      </trkpt>
      <trkpt lat="43.61121" lon="2.07172">
        <ele>259.21</ele>
        <time>2017-08-14T10:11:14Z</time>
      </trkpt>
      <trkpt lat="43.6112" lon="2.07152">
        <ele>260.17</ele>
        <time>2017-08-14T10:11:27Z</time>
      </trkpt>
      <trkpt lat="43.61112" lon="2.07128">
        <ele>262.1</ele>
        <time>2017-08-14T10:11:48Z</time>
      </trkpt>
      <trkpt lat="43.61111" lon="2.07123">
        <ele>262.58</ele>
        <time>2017-08-14T10:11:51Z</time>
      </trkpt>
      <trkpt lat="43.61096" lon="2.07099">
        <ele>264.02</ele>
        <time>2017-08-14T10:12:12Z</time>
      </trkpt>
      <trkpt lat="43.61091" lon="2.07096">
        <ele>264.5</ele>
        <time>2017-08-14T10:12:17Z</time>
      </trkpt>
      <trkpt lat="43.61088" lon="2.07095">
        <ele>264.5</ele>
        <time>2017-08-14T10:12:20Z</time>
      </trkpt>
      <trkpt lat="43.61085" lon="2.07093">
        <ele>264.5</ele>
        <time>2017-08-14T10:12:23Z</time>
      </trkpt>
      <trkpt lat="43.61079" lon="2.07088">
        <ele>263.06</ele>
        <time>2017-08-14T10:12:29Z</time>
      </trkpt>
      <trkpt lat="43.6106" lon="2.07083">
        <ele>262.1</ele>
        <time>2017-08-14T10:12:49Z</time>
      </trkpt>
      <trkpt lat="43.61041" lon="2.07076">
        <ele>260.65</ele>
        <time>2017-08-14T10:13:08Z</time>
      </trkpt>
      <trkpt lat="43.61021" lon="2.07068">
        <ele>261.14</ele>
        <time>2017-08-14T10:13:26Z</time>
      </trkpt>
      <trkpt lat="43.61001" lon="2.07065">
        <ele>259.21</ele>
        <time>2017-08-14T10:13:44Z</time>
      </trkpt>
      <trkpt lat="43.6098" lon="2.07069">
        <ele>258.25</ele>
        <time>2017-08-14T10:14:03Z</time>
      </trkpt>
      <trkpt lat="43.60979" lon="2.0707">
        <ele>257.29</ele>
        <time>2017-08-14T10:14:04Z</time>
      </trkpt>
      <trkpt lat="43.60964" lon="2.07088">
        <ele>257.29</ele>
        <time>2017-08-14T10:14:21Z</time>
      </trkpt>
      <trkpt lat="43.60961" lon="2.07091">
        <ele>259.21</ele>
        <time>2017-08-14T10:14:24Z</time>
      </trkpt>
      <trkpt lat="43.60951" lon="2.07094">
        <ele>259.21</ele>
        <time>2017-08-14T10:14:34Z</time>
      </trkpt>
      <trkpt lat="43.60926" lon="2.07096">
        <ele>259.69</ele>
        <time>2017-08-14T10:14:54Z</time>
      </trkpt>
      <trkpt lat="43.60915" lon="2.07094">
        <ele>259.69</ele>
        <time>2017-08-14T10:15:09Z</time>
      </trkpt>
      <trkpt lat="43.60915" lon="2.07097">
        <ele>259.69</ele>
        <time>2017-08-14T10:15:15Z</time>
      </trkpt>
      <trkpt lat="43.60905" lon="2.07087">
        <ele>259.69</ele>
        <time>2017-08-14T10:15:32Z</time>
      </trkpt>
      <trkpt lat="43.60899" lon="2.07078">
        <ele>257.77</ele>
        <time>2017-08-14T10:15:45Z</time>
      </trkpt>
      <trkpt lat="43.60891" lon="2.07062">
        <ele>255.85</ele>
        <time>2017-08-14T10:15:58Z</time>
      </trkpt>
      <trkpt lat="43.60884" lon="2.07055">
        <ele>254.89</ele>
        <time>2017-08-14T10:16:17Z</time>
      </trkpt>
      <trkpt lat="43.60883" lon="2.07052">
        <ele>254.41</ele>
        <time>2017-08-14T10:16:40Z</time>
      </trkpt>
      <trkpt lat="43.60873" lon="2.07039">
        <ele>253.44</ele>
        <time>2017-08-14T10:16:58Z</time>
      </trkpt>
      <trkpt lat="43.60872" lon="2.07039">
        <ele>253.44</ele>
        <time>2017-08-14T10:16:59Z</time>
      </trkpt>
      <trkpt lat="43.6087" lon="2.07041">
        <ele>252</ele>
        <time>2017-08-14T10:17:06Z</time>
      </trkpt>
      <trkpt lat="43.60854" lon="2.07033">
        <ele>249.12</ele>
        <time>2017-08-14T10:17:26Z</time>
      </trkpt>
      <trkpt lat="43.60835" lon="2.07018">
        <ele>246.23</ele>
        <time>2017-08-14T10:17:46Z</time>
      </trkpt>
      <trkpt lat="43.60819" lon="2.07005">
        <ele>243.83</ele>
        <time>2017-08-14T10:18:07Z</time>
      </trkpt>
      <trkpt lat="43.60808" lon="2.06988">
        <ele>242.39</ele>
        <time>2017-08-14T10:18:24Z</time>
      </trkpt>
      <trkpt lat="43.60805" lon="2.06976">
        <ele>242.39</ele>
        <time>2017-08-14T10:18:33Z</time>
      </trkpt>
      <trkpt lat="43.60801" lon="2.06955">
        <ele>239.99</ele>
        <time>2017-08-14T10:18:49Z</time>
      </trkpt>
      <trkpt lat="43.60802" lon="2.06937">
        <ele>239.02</ele>
        <time>2017-08-14T10:19:07Z</time>
      </trkpt>
      <trkpt lat="43.60793" lon="2.06934">
        <ele>238.54</ele>
        <time>2017-08-14T10:19:18Z</time>
      </trkpt>
      <trkpt lat="43.60775" lon="2.06919">
        <ele>237.1</ele>
        <time>2017-08-14T10:19:35Z</time>
      </trkpt>
      <trkpt lat="43.60767" lon="2.06918">
        <ele>236.14</ele>
        <time>2017-08-14T10:19:51Z</time>
      </trkpt>
      <trkpt lat="43.60749" lon="2.06904">
        <ele>234.22</ele>
        <time>2017-08-14T10:20:10Z</time>
      </trkpt>
      <trkpt lat="43.60728" lon="2.06892">
        <ele>234.22</ele>
        <time>2017-08-14T10:20:28Z</time>
      </trkpt>
      <trkpt lat="43.60711" lon="2.06875">
        <ele>233.74</ele>
        <time>2017-08-14T10:20:49Z</time>
      </trkpt>
      <trkpt lat="43.60709" lon="2.06871">
        <ele>233.74</ele>
        <time>2017-08-14T10:20:52Z</time>
      </trkpt>
      <trkpt lat="43.60704" lon="2.06838">
        <ele>233.74</ele>
        <time>2017-08-14T10:21:13Z</time>
      </trkpt>
      <trkpt lat="43.60703" lon="2.06812">
        <ele>233.74</ele>
        <time>2017-08-14T10:21:29Z</time>
      </trkpt>
      <trkpt lat="43.60701" lon="2.06807">
        <ele>233.74</ele>
        <time>2017-08-14T10:21:32Z</time>
      </trkpt>
      <trkpt lat="43.6069" lon="2.06789">
        <ele>232.3</ele>
        <time>2017-08-14T10:21:48Z</time>
      </trkpt>
      <trkpt lat="43.6067" lon="2.06783">
        <ele>229.41</ele>
        <time>2017-08-14T10:22:06Z</time>
      </trkpt>
      <trkpt lat="43.60643" lon="2.06779">
        <ele>226.05</ele>
        <time>2017-08-14T10:22:29Z</time>
      </trkpt>
      <trkpt lat="43.60613" lon="2.06757">
        <ele>224.61</ele>
        <time>2017-08-14T10:22:53Z</time>
      </trkpt>
      <trkpt lat="43.6059" lon="2.06727">
        <ele>222.68</ele>
        <time>2017-08-14T10:23:18Z</time>
      </trkpt>
      <trkpt lat="43.60568" lon="2.06698">
        <ele>220.76</ele>
        <time>2017-08-14T10:23:43Z</time>
      </trkpt>
      <trkpt lat="43.60551" lon="2.06668">
        <ele>219.32</ele>
        <time>2017-08-14T10:24:08Z</time>
      </trkpt>
      <trkpt lat="43.6055" lon="2.06665">
        <ele>219.32</ele>
        <time>2017-08-14T10:24:30Z</time>
      </trkpt>
      <trkpt lat="43.60555" lon="2.06662">
        <ele>219.32</ele>
        <time>2017-08-14T10:24:48Z</time>
      </trkpt>
      <trkpt lat="43.60571" lon="2.06637">
        <ele>220.76</ele>
        <time>2017-08-14T10:25:09Z</time>
      </trkpt>
      <trkpt lat="43.60599" lon="2.06618">
        <ele>219.8</ele>
        <time>2017-08-14T10:25:31Z</time>
      </trkpt>
      <trkpt lat="43.60609" lon="2.06608">
        <ele>217.4</ele>
        <time>2017-08-14T10:25:53Z</time>
      </trkpt>
      <trkpt lat="43.60624" lon="2.06594">
        <ele>215.95</ele>
        <time>2017-08-14T10:26:14Z</time>
      </trkpt>
      <trkpt lat="43.60632" lon="2.06583">
        <ele>215.47</ele>
        <time>2017-08-14T10:26:40Z</time>
      </trkpt>
      <trkpt lat="43.60649" lon="2.0659">
        <ele>213.55</ele>
        <time>2017-08-14T10:27:06Z</time>
      </trkpt>
      <trkpt lat="43.60648" lon="2.06588">
        <ele>208.26</ele>
        <time>2017-08-14T10:27:27Z</time>
      </trkpt>
      <trkpt lat="43.60648" lon="2.06589">
        <ele>218.84</ele>
        <time>2017-08-14T10:27:28Z</time>
      </trkpt>
      <trkpt lat="43.60647" lon="2.06589">
        <ele>213.55</ele>
        <time>2017-08-14T10:27:29Z</time>
      </trkpt>
      <trkpt lat="43.60634" lon="2.06587">
        <ele>213.07</ele>
        <time>2017-08-14T10:27:51Z</time>
      </trkpt>
      <trkpt lat="43.60647" lon="2.06588">
        <ele>211.15</ele>
        <time>2017-08-14T10:28:14Z</time>
      </trkpt>
      <trkpt lat="43.60647" lon="2.06589">
        <ele>213.07</ele>
        <time>2017-08-14T10:28:16Z</time>
      </trkpt>
      <trkpt lat="43.60643" lon="2.066">
        <ele>210.67</ele>
        <time>2017-08-14T10:28:49Z</time>
      </trkpt>
      <trkpt lat="43.60643" lon="2.066">
        <ele>209.22</ele>
        <time>2017-08-14T10:29:15Z</time>
      </trkpt>
      <trkpt lat="43.60639" lon="2.06598">
        <ele>210.67</ele>
        <time>2017-08-14T10:29:23Z</time>
      </trkpt>
      <trkpt lat="43.60668" lon="2.06607">
        <ele>211.15</ele>
        <time>2017-08-14T10:29:47Z</time>
      </trkpt>
      <trkpt lat="43.60671" lon="2.06602">
        <ele>211.15</ele>
        <time>2017-08-14T10:30:14Z</time>
      </trkpt>
      <trkpt lat="43.60671" lon="2.06593">
        <ele>211.15</ele>
        <time>2017-08-14T10:30:44Z</time>
      </trkpt>
      <trkpt lat="43.60664" lon="2.06592">
        <ele>211.63</ele>
        <time>2017-08-14T10:31:02Z</time>
      </trkpt>
      <trkpt lat="43.60646" lon="2.06595">
        <ele>212.59</ele>
        <time>2017-08-14T10:31:28Z</time>
      </trkpt>
      <trkpt lat="43.6065" lon="2.06597">
        <ele>214.51</ele>
        <time>2017-08-14T10:31:53Z</time>
      </trkpt>
      <trkpt lat="43.60651" lon="2.06592">
        <ele>213.07</ele>
        <time>2017-08-14T10:32:01Z</time>
      </trkpt>
      <trkpt lat="43.6065" lon="2.06591">
        <ele>214.51</ele>
        <time>2017-08-14T10:32:03Z</time>
      </trkpt>
      <trkpt lat="43.60648" lon="2.066">
        <ele>214.99</ele>
        <time>2017-08-14T10:32:29Z</time>
      </trkpt>
      <trkpt lat="43.60651" lon="2.06594">
        <ele>213.55</ele>
        <time>2017-08-14T10:32:47Z</time>
      </trkpt>
      <trkpt lat="43.60647" lon="2.06601">
        <ele>214.03</ele>
        <time>2017-08-14T10:33:14Z</time>
      </trkpt>
      <trkpt lat="43.60643" lon="2.06602">
        <ele>214.03</ele>
        <time>2017-08-14T10:33:50Z</time>
      </trkpt>
      <trkpt lat="43.60647" lon="2.06598">
        <ele>214.51</ele>
        <time>2017-08-14T10:34:25Z</time>
      </trkpt>
      <trkpt lat="43.60647" lon="2.06595">
        <ele>214.51</ele>
        <time>2017-08-14T10:34:57Z</time>
      </trkpt>
      <trkpt lat="43.60644" lon="2.06595">
        <ele>214.51</ele>
        <time>2017-08-14T10:35:25Z</time>
      </trkpt>
      <trkpt lat="43.60659" lon="2.06594">
        <ele>214.51</ele>
        <time>2017-08-14T10:35:53Z</time>
      </trkpt>
      <trkpt lat="43.60658" lon="2.06587">
        <ele>217.88</ele>
        <time>2017-08-14T10:36:16Z</time>
      </trkpt>
      <trkpt lat="43.60651" lon="2.06591">
        <ele>214.51</ele>
        <time>2017-08-14T10:36:21Z</time>
      </trkpt>
      <trkpt lat="43.60643" lon="2.06596">
        <ele>215.47</ele>
        <time>2017-08-14T10:36:35Z</time>
      </trkpt>
      <trkpt lat="43.60646" lon="2.06598">
        <ele>214.99</ele>
        <time>2017-08-14T10:37:05Z</time>
      </trkpt>
      <trkpt lat="43.60644" lon="2.06596">
        <ele>214.99</ele>
        <time>2017-08-14T10:37:37Z</time>
      </trkpt>
      <trkpt lat="43.60645" lon="2.06597">
        <ele>214.03</ele>
        <time>2017-08-14T10:38:02Z</time>
      </trkpt>
      <trkpt lat="43.60644" lon="2.06602">
        <ele>214.51</ele>
        <time>2017-08-14T10:38:15Z</time>
      </trkpt>
      <trkpt lat="43.60643" lon="2.06601">
        <ele>215.95</ele>
        <time>2017-08-14T10:38:19Z</time>
      </trkpt>
      <trkpt lat="43.60646" lon="2.066">
        <ele>215.95</ele>
        <time>2017-08-14T10:38:50Z</time>
      </trkpt>
      <trkpt lat="43.60647" lon="2.06602">
        <ele>214.51</ele>
        <time>2017-08-14T10:38:53Z</time>
      </trkpt>
      <trkpt lat="43.60645" lon="2.06609">
        <ele>215.95</ele>
        <time>2017-08-14T10:39:24Z</time>
      </trkpt>
      <trkpt lat="43.60652" lon="2.06608">
        <ele>214.99</ele>
        <time>2017-08-14T10:39:48Z</time>
      </trkpt>
      <trkpt lat="43.60654" lon="2.06603">
        <ele>216.43</ele>
        <time>2017-08-14T10:39:52Z</time>
      </trkpt>
      <trkpt lat="43.60654" lon="2.06598">
        <ele>216.43</ele>
        <time>2017-08-14T10:40:14Z</time>
      </trkpt>
      <trkpt lat="43.60657" lon="2.066">
        <ele>215.47</ele>
        <time>2017-08-14T10:40:37Z</time>
      </trkpt>
      <trkpt lat="43.60664" lon="2.06607">
        <ele>215.47</ele>
        <time>2017-08-14T10:40:47Z</time>
      </trkpt>
      <trkpt lat="43.60663" lon="2.066">
        <ele>215.47</ele>
        <time>2017-08-14T10:41:03Z</time>
      </trkpt>
      <trkpt lat="43.60654" lon="2.06585">
        <ele>215.47</ele>
        <time>2017-08-14T10:41:36Z</time>
      </trkpt>
      <trkpt lat="43.6065" lon="2.06596">
        <ele>215.47</ele>
        <time>2017-08-14T10:42:00Z</time>
      </trkpt>
      <trkpt lat="43.60646" lon="2.06598">
        <ele>214.99</ele>
        <time>2017-08-14T10:42:26Z</time>
      </trkpt>
      <trkpt lat="43.60649" lon="2.06596">
        <ele>216.43</ele>
        <time>2017-08-14T10:42:34Z</time>
      </trkpt>
      <trkpt lat="43.60658" lon="2.06586">
        <ele>215.47</ele>
        <time>2017-08-14T10:42:56Z</time>
      </trkpt>
      <trkpt lat="43.60655" lon="2.06583">
        <ele>216.43</ele>
        <time>2017-08-14T10:42:58Z</time>
      </trkpt>
      <trkpt lat="43.60644" lon="2.06603">
        <ele>216.43</ele>
        <time>2017-08-14T10:43:16Z</time>
      </trkpt>
      <trkpt lat="43.60647" lon="2.06604">
        <ele>216.43</ele>
        <time>2017-08-14T10:43:23Z</time>
      </trkpt>
      <trkpt lat="43.60648" lon="2.06599">
        <ele>215.95</ele>
        <time>2017-08-14T10:43:52Z</time>
      </trkpt>
      <trkpt lat="43.60645" lon="2.06599">
        <ele>214.51</ele>
        <time>2017-08-14T10:44:04Z</time>
      </trkpt>
      <trkpt lat="43.60647" lon="2.06599">
        <ele>215.95</ele>
        <time>2017-08-14T10:44:07Z</time>
      </trkpt>
      <trkpt lat="43.60648" lon="2.06591">
        <ele>215.95</ele>
        <time>2017-08-14T10:44:28Z</time>
      </trkpt>
      <trkpt lat="43.6065" lon="2.06591">
        <ele>214.99</ele>
        <time>2017-08-14T10:44:36Z</time>
      </trkpt>
      <trkpt lat="43.60648" lon="2.06594">
        <ele>214.51</ele>
        <time>2017-08-14T10:45:04Z</time>
      </trkpt>
      <trkpt lat="43.60642" lon="2.06601">
        <ele>215.95</ele>
        <time>2017-08-14T10:45:29Z</time>
      </trkpt>
      <trkpt lat="43.60643" lon="2.06604">
        <ele>214.51</ele>
        <time>2017-08-14T10:45:37Z</time>
      </trkpt>
      <trkpt lat="43.60643" lon="2.06602">
        <ele>213.55</ele>
        <time>2017-08-14T10:46:02Z</time>
      </trkpt>
      <trkpt lat="43.60642" lon="2.06599">
        <ele>214.99</ele>
        <time>2017-08-14T10:46:13Z</time>
      </trkpt>
      <trkpt lat="43.60643" lon="2.06592">
        <ele>213.55</ele>
        <time>2017-08-14T10:46:45Z</time>
      </trkpt>
      <trkpt lat="43.60643" lon="2.06592">
        <ele>214.99</ele>
        <time>2017-08-14T10:46:46Z</time>
      </trkpt>
      <trkpt lat="43.60643" lon="2.06591">
        <ele>214.03</ele>
        <time>2017-08-14T10:46:54Z</time>
      </trkpt>
      <trkpt lat="43.60645" lon="2.06595">
        <ele>215.47</ele>
        <time>2017-08-14T10:47:22Z</time>
      </trkpt>
      <trkpt lat="43.60642" lon="2.06594">
        <ele>214.99</ele>
        <time>2017-08-14T10:48:08Z</time>
      </trkpt>
      <trkpt lat="43.60647" lon="2.06594">
        <ele>214.99</ele>
        <time>2017-08-14T10:48:34Z</time>
      </trkpt>
      <trkpt lat="43.60648" lon="2.06593">
        <ele>213.55</ele>
        <time>2017-08-14T10:48:41Z</time>
      </trkpt>
      <trkpt lat="43.60648" lon="2.06593">
        <ele>214.99</ele>
        <time>2017-08-14T10:48:43Z</time>
      </trkpt>
      <trkpt lat="43.60644" lon="2.06592">
        <ele>214.99</ele>
        <time>2017-08-14T10:49:09Z</time>
      </trkpt>
      <trkpt lat="43.60639" lon="2.06593">
        <ele>213.07</ele>
        <time>2017-08-14T10:49:23Z</time>
      </trkpt>
      <trkpt lat="43.60639" lon="2.06594">
        <ele>214.99</ele>
        <time>2017-08-14T10:49:25Z</time>
      </trkpt>
      <trkpt lat="43.6064" lon="2.06612">
        <ele>213.55</ele>
        <time>2017-08-14T10:49:45Z</time>
      </trkpt>
      <trkpt lat="43.60645" lon="2.06596">
        <ele>213.55</ele>
        <time>2017-08-14T10:50:12Z</time>
      </trkpt>
      <trkpt lat="43.60645" lon="2.066">
        <ele>213.55</ele>
        <time>2017-08-14T10:50:34Z</time>
      </trkpt>
      <trkpt lat="43.60643" lon="2.06601">
        <ele>214.99</ele>
        <time>2017-08-14T10:50:38Z</time>
      </trkpt>
      <trkpt lat="43.60643" lon="2.06605">
        <ele>214.99</ele>
        <time>2017-08-14T10:51:12Z</time>
      </trkpt>
      <trkpt lat="43.60642" lon="2.06604">
        <ele>214.51</ele>
        <time>2017-08-14T10:51:43Z</time>
      </trkpt>
      <trkpt lat="43.60643" lon="2.06593">
        <ele>215.47</ele>
        <time>2017-08-14T10:52:15Z</time>
      </trkpt>
      <trkpt lat="43.60637" lon="2.06598">
        <ele>215.47</ele>
        <time>2017-08-14T10:52:46Z</time>
      </trkpt>
      <trkpt lat="43.60643" lon="2.06596">
        <ele>214.03</ele>
        <time>2017-08-14T10:53:12Z</time>
      </trkpt>
      <trkpt lat="43.60644" lon="2.06606">
        <ele>215.47</ele>
        <time>2017-08-14T10:53:31Z</time>
      </trkpt>
      <trkpt lat="43.60647" lon="2.06596">
        <ele>214.51</ele>
        <time>2017-08-14T10:54:06Z</time>
      </trkpt>
      <trkpt lat="43.6064" lon="2.06592">
        <ele>214.99</ele>
        <time>2017-08-14T10:54:36Z</time>
      </trkpt>
      <trkpt lat="43.60647" lon="2.06595">
        <ele>214.03</ele>
        <time>2017-08-14T10:54:50Z</time>
      </trkpt>
      <trkpt lat="43.60647" lon="2.066">
        <ele>215.47</ele>
        <time>2017-08-14T10:55:21Z</time>
      </trkpt>
      <trkpt lat="43.60649" lon="2.06597">
        <ele>214.99</ele>
        <time>2017-08-14T10:55:48Z</time>
      </trkpt>
      <trkpt lat="43.60651" lon="2.06598">
        <ele>214.03</ele>
        <time>2017-08-14T10:56:17Z</time>
      </trkpt>
      <trkpt lat="43.6065" lon="2.06593">
        <ele>214.99</ele>
        <time>2017-08-14T10:56:44Z</time>
      </trkpt>
      <trkpt lat="43.6065" lon="2.06593">
        <ele>214.99</ele>
        <time>2017-08-14T10:56:45Z</time>
      </trkpt>
      <trkpt lat="43.60651" lon="2.06592">
        <ele>213.55</ele>
        <time>2017-08-14T10:56:47Z</time>
      </trkpt>
      <trkpt lat="43.60648" lon="2.06596">
        <ele>214.99</ele>
        <time>2017-08-14T10:57:11Z</time>
      </trkpt>
      <trkpt lat="43.60648" lon="2.06595">
        <ele>213.55</ele>
        <time>2017-08-14T10:57:17Z</time>
      </trkpt>
      <trkpt lat="43.60646" lon="2.06596">
        <ele>214.51</ele>
        <time>2017-08-14T10:57:56Z</time>
      </trkpt>
      <trkpt lat="43.60646" lon="2.06599">
        <ele>214.51</ele>
        <time>2017-08-14T10:58:31Z</time>
      </trkpt>
      <trkpt lat="43.60651" lon="2.06595">
        <ele>214.51</ele>
        <time>2017-08-14T10:58:55Z</time>
      </trkpt>
      <trkpt lat="43.60652" lon="2.06592">
        <ele>214.51</ele>
        <time>2017-08-14T10:59:23Z</time>
      </trkpt>
      <trkpt lat="43.60653" lon="2.06593">
        <ele>214.51</ele>
        <time>2017-08-14T10:59:55Z</time>
      </trkpt>
      <trkpt lat="43.60655" lon="2.06593">
        <ele>214.51</ele>
        <time>2017-08-14T11:00:17Z</time>
      </trkpt>
      <trkpt lat="43.60652" lon="2.06591">
        <ele>214.51</ele>
        <time>2017-08-14T11:00:45Z</time>
      </trkpt>
      <trkpt lat="43.60649" lon="2.06591">
        <ele>214.99</ele>
        <time>2017-08-14T11:01:18Z</time>
      </trkpt>
      <trkpt lat="43.60658" lon="2.06595">
        <ele>214.03</ele>
        <time>2017-08-14T11:01:46Z</time>
      </trkpt>
      <trkpt lat="43.60656" lon="2.06595">
        <ele>214.03</ele>
        <time>2017-08-14T11:02:11Z</time>
      </trkpt>
      <trkpt lat="43.60642" lon="2.06593">
        <ele>214.99</ele>
        <time>2017-08-14T11:02:36Z</time>
      </trkpt>
      <trkpt lat="43.60644" lon="2.06592">
        <ele>213.55</ele>
        <time>2017-08-14T11:02:40Z</time>
      </trkpt>
      <trkpt lat="43.60645" lon="2.0659">
        <ele>214.99</ele>
        <time>2017-08-14T11:02:43Z</time>
      </trkpt>
      <trkpt lat="43.60644" lon="2.06591">
        <ele>214.51</ele>
        <time>2017-08-14T11:02:54Z</time>
      </trkpt>
      <trkpt lat="43.60652" lon="2.06597">
        <ele>214.03</ele>
        <time>2017-08-14T11:03:24Z</time>
      </trkpt>
      <trkpt lat="43.60651" lon="2.06596">
        <ele>214.03</ele>
        <time>2017-08-14T11:03:53Z</time>
      </trkpt>
      <trkpt lat="43.60653" lon="2.06593">
        <ele>214.99</ele>
        <time>2017-08-14T11:04:16Z</time>
      </trkpt>
      <trkpt lat="43.60646" lon="2.06598">
        <ele>214.03</ele>
        <time>2017-08-14T11:04:41Z</time>
      </trkpt>
      <trkpt lat="43.60641" lon="2.06592">
        <ele>213.55</ele>
        <time>2017-08-14T11:05:07Z</time>
      </trkpt>
      <trkpt lat="43.60642" lon="2.06606">
        <ele>213.55</ele>
        <time>2017-08-14T11:05:33Z</time>
      </trkpt>
      <trkpt lat="43.60644" lon="2.06597">
        <ele>214.99</ele>
        <time>2017-08-14T11:06:05Z</time>
      </trkpt>
      <trkpt lat="43.60646" lon="2.06597">
        <ele>213.55</ele>
        <time>2017-08-14T11:06:38Z</time>
      </trkpt>
      <trkpt lat="43.60644" lon="2.06597">
        <ele>214.51</ele>
        <time>2017-08-14T11:07:10Z</time>
      </trkpt>
      <trkpt lat="43.6065" lon="2.06594">
        <ele>214.51</ele>
        <time>2017-08-14T11:07:47Z</time>
      </trkpt>
      <trkpt lat="43.60651" lon="2.06591">
        <ele>214.51</ele>
        <time>2017-08-14T11:08:12Z</time>
      </trkpt>
      <trkpt lat="43.60646" lon="2.06599">
        <ele>214.51</ele>
        <time>2017-08-14T11:08:39Z</time>
      </trkpt>
      <trkpt lat="43.6065" lon="2.06597">
        <ele>214.51</ele>
        <time>2017-08-14T11:09:10Z</time>
      </trkpt>
      <trkpt lat="43.6065" lon="2.06597">
        <ele>214.51</ele>
        <time>2017-08-14T11:09:42Z</time>
      </trkpt>
      <trkpt lat="43.60648" lon="2.06599">
        <ele>213.55</ele>
        <time>2017-08-14T11:10:15Z</time>
      </trkpt>
      <trkpt lat="43.60645" lon="2.06599">
        <ele>213.55</ele>
        <time>2017-08-14T11:10:44Z</time>
      </trkpt>
      <trkpt lat="43.60647" lon="2.06597">
        <ele>213.55</ele>
        <time>2017-08-14T11:11:15Z</time>
      </trkpt>
      <trkpt lat="43.60649" lon="2.06595">
        <ele>213.07</ele>
        <time>2017-08-14T11:11:44Z</time>
      </trkpt>
      <trkpt lat="43.60647" lon="2.066">
        <ele>213.07</ele>
        <time>2017-08-14T11:12:10Z</time>
      </trkpt>
      <trkpt lat="43.6065" lon="2.066">
        <ele>213.55</ele>
        <time>2017-08-14T11:12:48Z</time>
      </trkpt>
      <trkpt lat="43.60651" lon="2.06603">
        <ele>214.51</ele>
        <time>2017-08-14T11:13:22Z</time>
      </trkpt>
      <trkpt lat="43.60651" lon="2.066">
        <ele>214.99</ele>
        <time>2017-08-14T11:13:51Z</time>
      </trkpt>
      <trkpt lat="43.60652" lon="2.06594">
        <ele>214.03</ele>
        <time>2017-08-14T11:14:22Z</time>
      </trkpt>
      <trkpt lat="43.60654" lon="2.06586">
        <ele>213.55</ele>
        <time>2017-08-14T11:14:54Z</time>
      </trkpt>
      <trkpt lat="43.60666" lon="2.06591">
        <ele>214.03</ele>
        <time>2017-08-14T11:15:31Z</time>
      </trkpt>
      <trkpt lat="43.60662" lon="2.0659">
        <ele>214.03</ele>
        <time>2017-08-14T11:16:05Z</time>
      </trkpt>
      <trkpt lat="43.60654" lon="2.06592">
        <ele>214.03</ele>
        <time>2017-08-14T11:16:44Z</time>
      </trkpt>
      <trkpt lat="43.60643" lon="2.06595">
        <ele>214.03</ele>
        <time>2017-08-14T11:17:28Z</time>
      </trkpt>
      <trkpt lat="43.60644" lon="2.06598">
        <ele>214.03</ele>
        <time>2017-08-14T11:18:05Z</time>
      </trkpt>
      <trkpt lat="43.60651" lon="2.06598">
        <ele>214.03</ele>
        <time>2017-08-14T11:18:39Z</time>
      </trkpt>
      <trkpt lat="43.60651" lon="2.06598">
        <ele>214.03</ele>
        <time>2017-08-14T11:19:11Z</time>
      </trkpt>
      <trkpt lat="43.60654" lon="2.06593">
        <ele>214.03</ele>
        <time>2017-08-14T11:19:38Z</time>
      </trkpt>
      <trkpt lat="43.60653" lon="2.06593">
        <ele>214.99</ele>
        <time>2017-08-14T11:20:09Z</time>
      </trkpt>
      <trkpt lat="43.60655" lon="2.0659">
        <ele>214.03</ele>
        <time>2017-08-14T11:20:32Z</time>
      </trkpt>
      <trkpt lat="43.60658" lon="2.0659">
        <ele>214.03</ele>
        <time>2017-08-14T11:21:09Z</time>
      </trkpt>
      <trkpt lat="43.6065" lon="2.0659">
        <ele>214.03</ele>
        <time>2017-08-14T11:21:48Z</time>
      </trkpt>
      <trkpt lat="43.60665" lon="2.06588">
        <ele>214.03</ele>
        <time>2017-08-14T11:22:32Z</time>
      </trkpt>
      <trkpt lat="43.60661" lon="2.06593">
        <ele>213.55</ele>
        <time>2017-08-14T11:23:10Z</time>
      </trkpt>
      <trkpt lat="43.60661" lon="2.066">
        <ele>215.95</ele>
        <time>2017-08-14T11:23:28Z</time>
      </trkpt>
      <trkpt lat="43.6066" lon="2.06599">
        <ele>214.03</ele>
        <time>2017-08-14T11:23:30Z</time>
      </trkpt>
      <trkpt lat="43.6066" lon="2.06604">
        <ele>215.95</ele>
        <time>2017-08-14T11:23:41Z</time>
      </trkpt>
      <trkpt lat="43.6066" lon="2.06605">
        <ele>213.55</ele>
        <time>2017-08-14T11:23:42Z</time>
      </trkpt>
      <trkpt lat="43.60658" lon="2.06597">
        <ele>214.99</ele>
        <time>2017-08-14T11:23:45Z</time>
      </trkpt>
      <trkpt lat="43.60659" lon="2.06596">
        <ele>215.47</ele>
        <time>2017-08-14T11:24:11Z</time>
      </trkpt>
      <trkpt lat="43.60658" lon="2.06596">
        <ele>215.95</ele>
        <time>2017-08-14T11:24:36Z</time>
      </trkpt>
      <trkpt lat="43.60651" lon="2.06594">
        <ele>216.91</ele>
        <time>2017-08-14T11:25:03Z</time>
      </trkpt>
      <trkpt lat="43.6065" lon="2.06596">
        <ele>215.47</ele>
        <time>2017-08-14T11:25:11Z</time>
      </trkpt>
      <trkpt lat="43.60652" lon="2.06595">
        <ele>214.51</ele>
        <time>2017-08-14T11:25:32Z</time>
      </trkpt>
      <trkpt lat="43.60652" lon="2.06593">
        <ele>215.47</ele>
        <time>2017-08-14T11:25:58Z</time>
      </trkpt>
      <trkpt lat="43.60648" lon="2.06592">
        <ele>216.91</ele>
        <time>2017-08-14T11:26:19Z</time>
      </trkpt>
      <trkpt lat="43.60648" lon="2.06592">
        <ele>215.95</ele>
        <time>2017-08-14T11:26:21Z</time>
      </trkpt>
      <trkpt lat="43.60649" lon="2.06587">
        <ele>212.11</ele>
        <time>2017-08-14T11:26:45Z</time>
      </trkpt>
      <trkpt lat="43.60649" lon="2.06587">
        <ele>215.95</ele>
        <time>2017-08-14T11:26:46Z</time>
      </trkpt>
      <trkpt lat="43.6065" lon="2.06587">
        <ele>214.99</ele>
        <time>2017-08-14T11:26:51Z</time>
      </trkpt>
      <trkpt lat="43.60651" lon="2.0659">
        <ele>216.43</ele>
        <time>2017-08-14T11:27:15Z</time>
      </trkpt>
      <trkpt lat="43.60644" lon="2.06591">
        <ele>214.51</ele>
        <time>2017-08-14T11:27:42Z</time>
      </trkpt>
      <trkpt lat="43.60642" lon="2.0659">
        <ele>214.51</ele>
        <time>2017-08-14T11:28:11Z</time>
      </trkpt>
      <trkpt lat="43.60644" lon="2.06591">
        <ele>215.95</ele>
        <time>2017-08-14T11:28:15Z</time>
      </trkpt>
      <trkpt lat="43.60642" lon="2.06591">
        <ele>215.95</ele>
        <time>2017-08-14T11:28:49Z</time>
      </trkpt>
      <trkpt lat="43.6064" lon="2.06593">
        <ele>216.91</ele>
        <time>2017-08-14T11:29:06Z</time>
      </trkpt>
      <trkpt lat="43.60634" lon="2.06592">
        <ele>216.91</ele>
        <time>2017-08-14T11:29:27Z</time>
      </trkpt>
      <trkpt lat="43.60636" lon="2.06593">
        <ele>216.91</ele>
        <time>2017-08-14T11:29:55Z</time>
      </trkpt>
      <trkpt lat="43.60644" lon="2.06582">
        <ele>217.4</ele>
        <time>2017-08-14T11:30:12Z</time>
      </trkpt>
      <trkpt lat="43.60652" lon="2.06565">
        <ele>215.47</ele>
        <time>2017-08-14T11:30:32Z</time>
      </trkpt>
      <trkpt lat="43.60662" lon="2.0657">
        <ele>215.95</ele>
        <time>2017-08-14T11:30:55Z</time>
      </trkpt>
      <trkpt lat="43.60674" lon="2.06584">
        <ele>217.4</ele>
        <time>2017-08-14T11:31:17Z</time>
      </trkpt>
      <trkpt lat="43.60688" lon="2.06601">
        <ele>219.8</ele>
        <time>2017-08-14T11:31:39Z</time>
      </trkpt>
      <trkpt lat="43.60699" lon="2.06603">
        <ele>220.28</ele>
        <time>2017-08-14T11:31:59Z</time>
      </trkpt>
      <trkpt lat="43.60708" lon="2.06599">
        <ele>221.72</ele>
        <time>2017-08-14T11:32:20Z</time>
      </trkpt>
      <trkpt lat="43.6072" lon="2.06592">
        <ele>222.68</ele>
        <time>2017-08-14T11:32:37Z</time>
      </trkpt>
      <trkpt lat="43.6073" lon="2.06585">
        <ele>224.12</ele>
        <time>2017-08-14T11:32:52Z</time>
      </trkpt>
      <trkpt lat="43.6074" lon="2.06571">
        <ele>225.09</ele>
        <time>2017-08-14T11:33:10Z</time>
      </trkpt>
      <trkpt lat="43.6074" lon="2.06553">
        <ele>226.05</ele>
        <time>2017-08-14T11:33:26Z</time>
      </trkpt>
      <trkpt lat="43.60738" lon="2.06547">
        <ele>226.05</ele>
        <time>2017-08-14T11:33:31Z</time>
      </trkpt>
      <trkpt lat="43.60726" lon="2.06525">
        <ele>227.97</ele>
        <time>2017-08-14T11:33:50Z</time>
      </trkpt>
      <trkpt lat="43.60719" lon="2.06527">
        <ele>228.45</ele>
        <time>2017-08-14T11:34:07Z</time>
      </trkpt>
      <trkpt lat="43.6072" lon="2.06525">
        <ele>226.53</ele>
        <time>2017-08-14T11:34:30Z</time>
      </trkpt>
      <trkpt lat="43.60721" lon="2.06527">
        <ele>227.97</ele>
        <time>2017-08-14T11:34:34Z</time>
      </trkpt>
      <trkpt lat="43.60723" lon="2.06534">
        <ele>227.97</ele>
        <time>2017-08-14T11:34:51Z</time>
      </trkpt>
      <trkpt lat="43.6072" lon="2.06526">
        <ele>227.97</ele>
        <time>2017-08-14T11:35:17Z</time>
      </trkpt>
      <trkpt lat="43.60719" lon="2.06527">
        <ele>225.57</ele>
        <time>2017-08-14T11:35:29Z</time>
      </trkpt>
      <trkpt lat="43.6072" lon="2.06528">
        <ele>227.97</ele>
        <time>2017-08-14T11:35:31Z</time>
      </trkpt>
      <trkpt lat="43.60726" lon="2.06531">
        <ele>228.45</ele>
        <time>2017-08-14T11:35:51Z</time>
      </trkpt>
      <trkpt lat="43.60733" lon="2.06542">
        <ele>227.97</ele>
        <time>2017-08-14T11:36:10Z</time>
      </trkpt>
      <trkpt lat="43.60727" lon="2.06535">
        <ele>227.49</ele>
        <time>2017-08-14T11:36:34Z</time>
      </trkpt>
      <trkpt lat="43.60734" lon="2.06541">
        <ele>230.85</ele>
        <time>2017-08-14T11:36:48Z</time>
      </trkpt>
      <trkpt lat="43.60735" lon="2.06541">
        <ele>227.97</ele>
        <time>2017-08-14T11:36:49Z</time>
      </trkpt>
      <trkpt lat="43.60727" lon="2.06532">
        <ele>227.49</ele>
        <time>2017-08-14T11:37:07Z</time>
      </trkpt>
      <trkpt lat="43.60717" lon="2.06501">
        <ele>227.01</ele>
        <time>2017-08-14T11:37:26Z</time>
      </trkpt>
      <trkpt lat="43.60706" lon="2.06467">
        <ele>227.97</ele>
        <time>2017-08-14T11:37:49Z</time>
      </trkpt>
      <trkpt lat="43.60698" lon="2.06429">
        <ele>228.93</ele>
        <time>2017-08-14T11:38:14Z</time>
      </trkpt>
      <trkpt lat="43.60688" lon="2.06393">
        <ele>229.41</ele>
        <time>2017-08-14T11:38:37Z</time>
      </trkpt>
      <trkpt lat="43.60679" lon="2.06365">
        <ele>230.37</ele>
        <time>2017-08-14T11:38:57Z</time>
      </trkpt>
      <trkpt lat="43.60672" lon="2.06334">
        <ele>231.81</ele>
        <time>2017-08-14T11:39:20Z</time>
      </trkpt>
      <trkpt lat="43.60665" lon="2.06307">
        <ele>232.78</ele>
        <time>2017-08-14T11:39:42Z</time>
      </trkpt>
      <trkpt lat="43.60666" lon="2.06309">
        <ele>229.41</ele>
        <time>2017-08-14T11:40:06Z</time>
      </trkpt>
      <trkpt lat="43.60665" lon="2.06309">
        <ele>234.7</ele>
        <time>2017-08-14T11:40:07Z</time>
      </trkpt>
      <trkpt lat="43.60659" lon="2.06292">
        <ele>233.26</ele>
        <time>2017-08-14T11:40:21Z</time>
      </trkpt>
      <trkpt lat="43.60655" lon="2.06268">
        <ele>235.66</ele>
        <time>2017-08-14T11:40:42Z</time>
      </trkpt>
      <trkpt lat="43.60655" lon="2.06266">
        <ele>234.22</ele>
        <time>2017-08-14T11:40:44Z</time>
      </trkpt>
      <trkpt lat="43.60655" lon="2.06263">
        <ele>235.66</ele>
        <time>2017-08-14T11:40:46Z</time>
      </trkpt>
      <trkpt lat="43.60663" lon="2.0624">
        <ele>236.62</ele>
        <time>2017-08-14T11:41:08Z</time>
      </trkpt>
      <trkpt lat="43.60686" lon="2.0622">
        <ele>237.1</ele>
        <time>2017-08-14T11:41:33Z</time>
      </trkpt>
      <trkpt lat="43.60698" lon="2.0621">
        <ele>237.1</ele>
        <time>2017-08-14T11:41:45Z</time>
      </trkpt>
      <trkpt lat="43.60715" lon="2.06197">
        <ele>237.58</ele>
        <time>2017-08-14T11:42:04Z</time>
      </trkpt>
      <trkpt lat="43.6072" lon="2.06195">
        <ele>237.58</ele>
        <time>2017-08-14T11:42:21Z</time>
      </trkpt>
      <trkpt lat="43.60738" lon="2.06179">
        <ele>237.58</ele>
        <time>2017-08-14T11:42:42Z</time>
      </trkpt>
      <trkpt lat="43.60759" lon="2.06163">
        <ele>238.54</ele>
        <time>2017-08-14T11:43:05Z</time>
      </trkpt>
      <trkpt lat="43.60768" lon="2.06159">
        <ele>238.06</ele>
        <time>2017-08-14T11:43:24Z</time>
      </trkpt>
      <trkpt lat="43.60771" lon="2.06159">
        <ele>238.54</ele>
        <time>2017-08-14T11:43:47Z</time>
      </trkpt>
      <trkpt lat="43.60795" lon="2.06155">
        <ele>239.51</ele>
        <time>2017-08-14T11:44:08Z</time>
      </trkpt>
      <trkpt lat="43.60805" lon="2.06154">
        <ele>239.51</ele>
        <time>2017-08-14T11:44:16Z</time>
      </trkpt>
      <trkpt lat="43.60832" lon="2.0615">
        <ele>242.87</ele>
        <time>2017-08-14T11:44:41Z</time>
      </trkpt>
      <trkpt lat="43.60842" lon="2.06149">
        <ele>242.87</ele>
        <time>2017-08-14T11:44:50Z</time>
      </trkpt>
      <trkpt lat="43.60855" lon="2.06148">
        <ele>244.79</ele>
        <time>2017-08-14T11:45:02Z</time>
      </trkpt>
      <trkpt lat="43.60862" lon="2.06146">
        <ele>245.75</ele>
        <time>2017-08-14T11:45:10Z</time>
      </trkpt>
      <trkpt lat="43.60863" lon="2.06144">
        <ele>245.75</ele>
        <time>2017-08-14T11:45:12Z</time>
      </trkpt>
      <trkpt lat="43.60872" lon="2.06126">
        <ele>248.16</ele>
        <time>2017-08-14T11:45:28Z</time>
      </trkpt>
      <trkpt lat="43.60868" lon="2.06117">
        <ele>247.2</ele>
        <time>2017-08-14T11:45:36Z</time>
      </trkpt>
      <trkpt lat="43.60866" lon="2.06113">
        <ele>249.12</ele>
        <time>2017-08-14T11:45:41Z</time>
      </trkpt>
      <trkpt lat="43.60862" lon="2.06108">
        <ele>249.12</ele>
        <time>2017-08-14T11:45:47Z</time>
      </trkpt>
      <trkpt lat="43.60859" lon="2.06105">
        <ele>247.68</ele>
        <time>2017-08-14T11:45:51Z</time>
      </trkpt>
      <trkpt lat="43.60857" lon="2.06102">
        <ele>250.08</ele>
        <time>2017-08-14T11:45:54Z</time>
      </trkpt>
      <trkpt lat="43.60851" lon="2.06095">
        <ele>249.6</ele>
        <time>2017-08-14T11:46:02Z</time>
      </trkpt>
      <trkpt lat="43.60847" lon="2.06093">
        <ele>251.04</ele>
        <time>2017-08-14T11:46:07Z</time>
      </trkpt>
      <trkpt lat="43.60836" lon="2.06083">
        <ele>252.48</ele>
        <time>2017-08-14T11:46:20Z</time>
      </trkpt>
      <trkpt lat="43.60818" lon="2.06064">
        <ele>253.93</ele>
        <time>2017-08-14T11:46:43Z</time>
      </trkpt>
      <trkpt lat="43.60806" lon="2.06044">
        <ele>257.29</ele>
        <time>2017-08-14T11:47:01Z</time>
      </trkpt>
      <trkpt lat="43.608" lon="2.06038">
        <ele>258.73</ele>
        <time>2017-08-14T11:47:08Z</time>
      </trkpt>
      <trkpt lat="43.60791" lon="2.06033">
        <ele>259.69</ele>
        <time>2017-08-14T11:47:26Z</time>
      </trkpt>
      <trkpt lat="43.60789" lon="2.06033">
        <ele>258.25</ele>
        <time>2017-08-14T11:47:29Z</time>
      </trkpt>
      <trkpt lat="43.6078" lon="2.06032">
        <ele>259.69</ele>
        <time>2017-08-14T11:47:40Z</time>
      </trkpt>
      <trkpt lat="43.60768" lon="2.06034">
        <ele>259.69</ele>
        <time>2017-08-14T11:47:52Z</time>
      </trkpt>
      <trkpt lat="43.60761" lon="2.06038">
        <ele>260.65</ele>
        <time>2017-08-14T11:48:00Z</time>
      </trkpt>
      <trkpt lat="43.60745" lon="2.06047">
        <ele>260.65</ele>
        <time>2017-08-14T11:48:18Z</time>
      </trkpt>
      <trkpt lat="43.60737" lon="2.06053">
        <ele>261.62</ele>
        <time>2017-08-14T11:48:29Z</time>
      </trkpt>
      <trkpt lat="43.60731" lon="2.06058">
        <ele>261.62</ele>
        <time>2017-08-14T11:48:34Z</time>
      </trkpt>
      <trkpt lat="43.60725" lon="2.06061">
        <ele>261.62</ele>
        <time>2017-08-14T11:48:41Z</time>
      </trkpt>
      <trkpt lat="43.60723" lon="2.06062">
        <ele>261.62</ele>
        <time>2017-08-14T11:48:43Z</time>
      </trkpt>
      <trkpt lat="43.60714" lon="2.06066">
        <ele>262.1</ele>
        <time>2017-08-14T11:48:51Z</time>
      </trkpt>
      <trkpt lat="43.60691" lon="2.06074">
        <ele>262.58</ele>
        <time>2017-08-14T11:49:13Z</time>
      </trkpt>
      <trkpt lat="43.60678" lon="2.06074">
        <ele>265.94</ele>
        <time>2017-08-14T11:49:25Z</time>
      </trkpt>
      <trkpt lat="43.60662" lon="2.06074">
        <ele>265.94</ele>
        <time>2017-08-14T11:49:38Z</time>
      </trkpt>
      <trkpt lat="43.60642" lon="2.06067">
        <ele>265.46</ele>
        <time>2017-08-14T11:49:57Z</time>
      </trkpt>
      <trkpt lat="43.60632" lon="2.06064">
        <ele>267.38</ele>
        <time>2017-08-14T11:50:08Z</time>
      </trkpt>
      <trkpt lat="43.60623" lon="2.0606">
        <ele>267.38</ele>
        <time>2017-08-14T11:50:19Z</time>
      </trkpt>
      <trkpt lat="43.606" lon="2.06052">
        <ele>267.86</ele>
        <time>2017-08-14T11:50:41Z</time>
      </trkpt>
      <trkpt lat="43.6058" lon="2.06039">
        <ele>267.38</ele>
        <time>2017-08-14T11:51:00Z</time>
      </trkpt>
      <trkpt lat="43.60573" lon="2.06034">
        <ele>267.86</ele>
        <time>2017-08-14T11:51:09Z</time>
      </trkpt>
      <trkpt lat="43.60566" lon="2.06028">
        <ele>269.31</ele>
        <time>2017-08-14T11:51:16Z</time>
      </trkpt>
      <trkpt lat="43.60552" lon="2.06011">
        <ele>270.75</ele>
        <time>2017-08-14T11:51:37Z</time>
      </trkpt>
      <trkpt lat="43.60537" lon="2.05995">
        <ele>273.15</ele>
        <time>2017-08-14T11:52:00Z</time>
      </trkpt>
      <trkpt lat="43.60526" lon="2.05988">
        <ele>274.59</ele>
        <time>2017-08-14T11:52:18Z</time>
      </trkpt>
      <trkpt lat="43.60525" lon="2.05987">
        <ele>276.04</ele>
        <time>2017-08-14T11:52:20Z</time>
      </trkpt>
      <trkpt lat="43.60515" lon="2.05973">
        <ele>276.52</ele>
        <time>2017-08-14T11:52:37Z</time>
      </trkpt>
      <trkpt lat="43.60514" lon="2.0597">
        <ele>277.96</ele>
        <time>2017-08-14T11:52:40Z</time>
      </trkpt>
      <trkpt lat="43.60503" lon="2.0595">
        <ele>279.88</ele>
        <time>2017-08-14T11:53:04Z</time>
      </trkpt>
      <trkpt lat="43.60489" lon="2.05936">
        <ele>281.8</ele>
        <time>2017-08-14T11:53:18Z</time>
      </trkpt>
      <trkpt lat="43.60478" lon="2.05921">
        <ele>281.8</ele>
        <time>2017-08-14T11:53:34Z</time>
      </trkpt>
      <trkpt lat="43.60477" lon="2.05919">
        <ele>283.25</ele>
        <time>2017-08-14T11:53:36Z</time>
      </trkpt>
      <trkpt lat="43.60465" lon="2.05904">
        <ele>286.13</ele>
        <time>2017-08-14T11:53:54Z</time>
      </trkpt>
      <trkpt lat="43.60456" lon="2.05895">
        <ele>289.01</ele>
        <time>2017-08-14T11:54:13Z</time>
      </trkpt>
      <trkpt lat="43.60444" lon="2.05886">
        <ele>289.49</ele>
        <time>2017-08-14T11:54:34Z</time>
      </trkpt>
      <trkpt lat="43.60443" lon="2.05885">
        <ele>289.49</ele>
        <time>2017-08-14T11:54:35Z</time>
      </trkpt>
      <trkpt lat="43.60442" lon="2.05884">
        <ele>291.42</ele>
        <time>2017-08-14T11:54:38Z</time>
      </trkpt>
      <trkpt lat="43.60429" lon="2.05876">
        <ele>294.3</ele>
        <time>2017-08-14T11:54:57Z</time>
      </trkpt>
      <trkpt lat="43.6042" lon="2.0587">
        <ele>293.82</ele>
        <time>2017-08-14T11:55:10Z</time>
      </trkpt>
      <trkpt lat="43.60419" lon="2.05869">
        <ele>295.26</ele>
        <time>2017-08-14T11:55:12Z</time>
      </trkpt>
      <trkpt lat="43.60405" lon="2.05856">
        <ele>298.63</ele>
        <time>2017-08-14T11:55:34Z</time>
      </trkpt>
      <trkpt lat="43.60398" lon="2.05852">
        <ele>301.99</ele>
        <time>2017-08-14T11:55:49Z</time>
      </trkpt>
      <trkpt lat="43.60391" lon="2.05847">
        <ele>302.95</ele>
        <time>2017-08-14T11:55:59Z</time>
      </trkpt>
      <trkpt lat="43.60373" lon="2.05839">
        <ele>304.88</ele>
        <time>2017-08-14T11:56:23Z</time>
      </trkpt>
      <trkpt lat="43.60355" lon="2.05827">
        <ele>305.84</ele>
        <time>2017-08-14T11:56:40Z</time>
      </trkpt>
      <trkpt lat="43.60334" lon="2.05809">
        <ele>304.39</ele>
        <time>2017-08-14T11:57:01Z</time>
      </trkpt>
      <trkpt lat="43.60333" lon="2.05808">
        <ele>306.32</ele>
        <time>2017-08-14T11:57:03Z</time>
      </trkpt>
      <trkpt lat="43.60323" lon="2.05796">
        <ele>307.28</ele>
        <time>2017-08-14T11:57:17Z</time>
      </trkpt>
      <trkpt lat="43.60316" lon="2.05787">
        <ele>309.2</ele>
        <time>2017-08-14T11:57:27Z</time>
      </trkpt>
      <trkpt lat="43.60311" lon="2.05781">
        <ele>309.2</ele>
        <time>2017-08-14T11:57:36Z</time>
      </trkpt>
      <trkpt lat="43.60307" lon="2.05776">
        <ele>308.72</ele>
        <time>2017-08-14T11:57:43Z</time>
      </trkpt>
      <trkpt lat="43.60305" lon="2.05775">
        <ele>310.16</ele>
        <time>2017-08-14T11:57:45Z</time>
      </trkpt>
      <trkpt lat="43.60289" lon="2.05757">
        <ele>312.57</ele>
        <time>2017-08-14T11:58:05Z</time>
      </trkpt>
      <trkpt lat="43.60288" lon="2.05756">
        <ele>311.12</ele>
        <time>2017-08-14T11:58:07Z</time>
      </trkpt>
      <trkpt lat="43.60273" lon="2.05744">
        <ele>311.12</ele>
        <time>2017-08-14T11:58:27Z</time>
      </trkpt>
      <trkpt lat="43.60267" lon="2.05739">
        <ele>312.57</ele>
        <time>2017-08-14T11:58:34Z</time>
      </trkpt>
      <trkpt lat="43.60261" lon="2.05732">
        <ele>311.12</ele>
        <time>2017-08-14T11:58:43Z</time>
      </trkpt>
      <trkpt lat="43.60254" lon="2.05726">
        <ele>312.57</ele>
        <time>2017-08-14T11:58:52Z</time>
      </trkpt>
      <trkpt lat="43.60242" lon="2.05713">
        <ele>313.53</ele>
        <time>2017-08-14T11:59:09Z</time>
      </trkpt>
      <trkpt lat="43.60227" lon="2.05692">
        <ele>313.05</ele>
        <time>2017-08-14T11:59:30Z</time>
      </trkpt>
      <trkpt lat="43.60213" lon="2.05669">
        <ele>315.45</ele>
        <time>2017-08-14T11:59:50Z</time>
      </trkpt>
      <trkpt lat="43.60205" lon="2.05654">
        <ele>314.49</ele>
        <time>2017-08-14T12:00:05Z</time>
      </trkpt>
      <trkpt lat="43.60204" lon="2.05652">
        <ele>317.37</ele>
        <time>2017-08-14T12:00:08Z</time>
      </trkpt>
      <trkpt lat="43.60202" lon="2.05649">
        <ele>317.37</ele>
        <time>2017-08-14T12:00:13Z</time>
      </trkpt>
      <trkpt lat="43.60201" lon="2.0564">
        <ele>317.37</ele>
        <time>2017-08-14T12:00:30Z</time>
      </trkpt>
      <trkpt lat="43.60204" lon="2.05636">
        <ele>317.85</ele>
        <time>2017-08-14T12:00:35Z</time>
      </trkpt>
      <trkpt lat="43.60204" lon="2.05635">
        <ele>316.89</ele>
        <time>2017-08-14T12:00:37Z</time>
      </trkpt>
      <trkpt lat="43.60202" lon="2.05628">
        <ele>318.33</ele>
        <time>2017-08-14T12:00:42Z</time>
      </trkpt>
      <trkpt lat="43.60203" lon="2.05608">
        <ele>317.37</ele>
        <time>2017-08-14T12:00:57Z</time>
      </trkpt>
      <trkpt lat="43.60206" lon="2.05598">
        <ele>317.85</ele>
        <time>2017-08-14T12:01:05Z</time>
      </trkpt>
      <trkpt lat="43.6021" lon="2.05589">
        <ele>316.41</ele>
        <time>2017-08-14T12:01:13Z</time>
      </trkpt>
      <trkpt lat="43.60219" lon="2.05559">
        <ele>315.93</ele>
        <time>2017-08-14T12:01:37Z</time>
      </trkpt>
      <trkpt lat="43.6022" lon="2.05556">
        <ele>317.37</ele>
        <time>2017-08-14T12:01:39Z</time>
      </trkpt>
      <trkpt lat="43.60231" lon="2.05537">
        <ele>314.97</ele>
        <time>2017-08-14T12:01:58Z</time>
      </trkpt>
      <trkpt lat="43.60236" lon="2.05523">
        <ele>315.93</ele>
        <time>2017-08-14T12:02:15Z</time>
      </trkpt>
      <trkpt lat="43.60241" lon="2.05523">
        <ele>314.49</ele>
        <time>2017-08-14T12:02:28Z</time>
      </trkpt>
      <trkpt lat="43.60241" lon="2.05523">
        <ele>315.93</ele>
        <time>2017-08-14T12:02:33Z</time>
      </trkpt>
      <trkpt lat="43.60241" lon="2.05522">
        <ele>314.49</ele>
        <time>2017-08-14T12:02:35Z</time>
      </trkpt>
      <trkpt lat="43.60241" lon="2.0552">
        <ele>314.49</ele>
        <time>2017-08-14T12:03:06Z</time>
      </trkpt>
      <trkpt lat="43.6024" lon="2.05522">
        <ele>316.41</ele>
        <time>2017-08-14T12:03:37Z</time>
      </trkpt>
      <trkpt lat="43.6024" lon="2.05521">
        <ele>315.45</ele>
        <time>2017-08-14T12:03:55Z</time>
      </trkpt>
      <trkpt lat="43.60238" lon="2.0552">
        <ele>316.41</ele>
        <time>2017-08-14T12:04:09Z</time>
      </trkpt>
      <trkpt lat="43.6024" lon="2.05521">
        <ele>313.05</ele>
        <time>2017-08-14T12:04:21Z</time>
      </trkpt>
      <trkpt lat="43.6024" lon="2.0552">
        <ele>316.41</ele>
        <time>2017-08-14T12:04:25Z</time>
      </trkpt>
      <trkpt lat="43.60242" lon="2.05519">
        <ele>315.45</ele>
        <time>2017-08-14T12:04:51Z</time>
      </trkpt>
      <trkpt lat="43.60242" lon="2.05519">
        <ele>315.45</ele>
        <time>2017-08-14T12:05:18Z</time>
      </trkpt>
      <trkpt lat="43.60242" lon="2.05518">
        <ele>312.57</ele>
        <time>2017-08-14T12:05:34Z</time>
      </trkpt>
      <trkpt lat="43.60242" lon="2.05518">
        <ele>319.78</ele>
        <time>2017-08-14T12:05:35Z</time>
      </trkpt>
      <trkpt lat="43.60242" lon="2.05518">
        <ele>316.41</ele>
        <time>2017-08-14T12:05:36Z</time>
      </trkpt>
      <trkpt lat="43.60244" lon="2.05514">
        <ele>315.93</ele>
        <time>2017-08-14T12:06:04Z</time>
      </trkpt>
      <trkpt lat="43.60253" lon="2.05495">
        <ele>315.45</ele>
        <time>2017-08-14T12:06:24Z</time>
      </trkpt>
      <trkpt lat="43.60255" lon="2.05492">
        <ele>316.41</ele>
        <time>2017-08-14T12:06:28Z</time>
      </trkpt>
      <trkpt lat="43.60266" lon="2.05469">
        <ele>316.41</ele>
        <time>2017-08-14T12:06:50Z</time>
      </trkpt>
      <trkpt lat="43.60269" lon="2.05448">
        <ele>317.85</ele>
        <time>2017-08-14T12:07:09Z</time>
      </trkpt>
      <trkpt lat="43.60271" lon="2.0544">
        <ele>317.37</ele>
        <time>2017-08-14T12:07:17Z</time>
      </trkpt>
      <trkpt lat="43.60276" lon="2.0543">
        <ele>317.37</ele>
        <time>2017-08-14T12:07:26Z</time>
      </trkpt>
      <trkpt lat="43.60288" lon="2.05401">
        <ele>317.37</ele>
        <time>2017-08-14T12:07:48Z</time>
      </trkpt>
      <trkpt lat="43.60302" lon="2.05376">
        <ele>317.37</ele>
        <time>2017-08-14T12:08:09Z</time>
      </trkpt>
      <trkpt lat="43.60314" lon="2.0535">
        <ele>318.33</ele>
        <time>2017-08-14T12:08:28Z</time>
      </trkpt>
      <trkpt lat="43.60325" lon="2.05323">
        <ele>319.3</ele>
        <time>2017-08-14T12:08:47Z</time>
      </trkpt>
      <trkpt lat="43.60339" lon="2.05303">
        <ele>320.26</ele>
        <time>2017-08-14T12:09:04Z</time>
      </trkpt>
      <trkpt lat="43.60356" lon="2.05277">
        <ele>319.3</ele>
        <time>2017-08-14T12:09:25Z</time>
      </trkpt>
      <trkpt lat="43.60374" lon="2.0525">
        <ele>320.74</ele>
        <time>2017-08-14T12:09:47Z</time>
      </trkpt>
      <trkpt lat="43.60374" lon="2.05249">
        <ele>320.74</ele>
        <time>2017-08-14T12:09:48Z</time>
      </trkpt>
      <trkpt lat="43.6039" lon="2.05225">
        <ele>318.81</ele>
        <time>2017-08-14T12:10:10Z</time>
      </trkpt>
      <trkpt lat="43.60408" lon="2.05193">
        <ele>319.3</ele>
        <time>2017-08-14T12:10:32Z</time>
      </trkpt>
      <trkpt lat="43.60424" lon="2.0516">
        <ele>318.81</ele>
        <time>2017-08-14T12:10:56Z</time>
      </trkpt>
      <trkpt lat="43.60437" lon="2.05131">
        <ele>318.33</ele>
        <time>2017-08-14T12:11:18Z</time>
      </trkpt>
      <trkpt lat="43.60453" lon="2.05102">
        <ele>317.37</ele>
        <time>2017-08-14T12:11:40Z</time>
      </trkpt>
      <trkpt lat="43.60466" lon="2.05071">
        <ele>316.89</ele>
        <time>2017-08-14T12:12:05Z</time>
      </trkpt>
      <trkpt lat="43.60478" lon="2.05029">
        <ele>316.41</ele>
        <time>2017-08-14T12:12:29Z</time>
      </trkpt>
      <trkpt lat="43.60478" lon="2.05027">
        <ele>316.41</ele>
        <time>2017-08-14T12:12:30Z</time>
      </trkpt>
      <trkpt lat="43.6049" lon="2.04996">
        <ele>314.97</ele>
        <time>2017-08-14T12:12:53Z</time>
      </trkpt>
      <trkpt lat="43.60499" lon="2.04965">
        <ele>316.41</ele>
        <time>2017-08-14T12:13:13Z</time>
      </trkpt>
      <trkpt lat="43.60501" lon="2.04959">
        <ele>314.97</ele>
        <time>2017-08-14T12:13:17Z</time>
      </trkpt>
      <trkpt lat="43.60515" lon="2.04932">
        <ele>314.49</ele>
        <time>2017-08-14T12:13:37Z</time>
      </trkpt>
      <trkpt lat="43.60534" lon="2.04895">
        <ele>314.49</ele>
        <time>2017-08-14T12:13:58Z</time>
      </trkpt>
      <trkpt lat="43.60548" lon="2.0487">
        <ele>314.49</ele>
        <time>2017-08-14T12:14:18Z</time>
      </trkpt>
      <trkpt lat="43.60551" lon="2.04856">
        <ele>313.53</ele>
        <time>2017-08-14T12:14:29Z</time>
      </trkpt>
      <trkpt lat="43.60557" lon="2.04846">
        <ele>313.53</ele>
        <time>2017-08-14T12:14:38Z</time>
      </trkpt>
      <trkpt lat="43.60574" lon="2.04822">
        <ele>311.12</ele>
        <time>2017-08-14T12:15:01Z</time>
      </trkpt>
      <trkpt lat="43.60592" lon="2.04795">
        <ele>308.72</ele>
        <time>2017-08-14T12:15:22Z</time>
      </trkpt>
      <trkpt lat="43.60613" lon="2.04765">
        <ele>308.24</ele>
        <time>2017-08-14T12:15:46Z</time>
      </trkpt>
      <trkpt lat="43.60635" lon="2.04732">
        <ele>305.36</ele>
        <time>2017-08-14T12:16:10Z</time>
      </trkpt>
      <trkpt lat="43.60652" lon="2.0471">
        <ele>304.88</ele>
        <time>2017-08-14T12:16:29Z</time>
      </trkpt>
      <trkpt lat="43.60673" lon="2.0468">
        <ele>303.43</ele>
        <time>2017-08-14T12:16:53Z</time>
      </trkpt>
      <trkpt lat="43.60688" lon="2.04645">
        <ele>302.47</ele>
        <time>2017-08-14T12:17:17Z</time>
      </trkpt>
      <trkpt lat="43.607" lon="2.04618">
        <ele>299.11</ele>
        <time>2017-08-14T12:17:36Z</time>
      </trkpt>
      <trkpt lat="43.60706" lon="2.04604">
        <ele>299.59</ele>
        <time>2017-08-14T12:17:46Z</time>
      </trkpt>
      <trkpt lat="43.60716" lon="2.04572">
        <ele>299.11</ele>
        <time>2017-08-14T12:18:07Z</time>
      </trkpt>
      <trkpt lat="43.60726" lon="2.04543">
        <ele>297.67</ele>
        <time>2017-08-14T12:18:28Z</time>
      </trkpt>
      <trkpt lat="43.60734" lon="2.04519">
        <ele>298.15</ele>
        <time>2017-08-14T12:18:43Z</time>
      </trkpt>
      <trkpt lat="43.60738" lon="2.04509">
        <ele>298.15</ele>
        <time>2017-08-14T12:18:51Z</time>
      </trkpt>
      <trkpt lat="43.60761" lon="2.04503">
        <ele>296.7</ele>
        <time>2017-08-14T12:19:13Z</time>
      </trkpt>
      <trkpt lat="43.60767" lon="2.04503">
        <ele>298.15</ele>
        <time>2017-08-14T12:19:19Z</time>
      </trkpt>
      <trkpt lat="43.60771" lon="2.04503">
        <ele>296.7</ele>
        <time>2017-08-14T12:19:22Z</time>
      </trkpt>
      <trkpt lat="43.60776" lon="2.04504">
        <ele>298.15</ele>
        <time>2017-08-14T12:19:26Z</time>
      </trkpt>
      <trkpt lat="43.60779" lon="2.04504">
        <ele>296.7</ele>
        <time>2017-08-14T12:19:29Z</time>
      </trkpt>
      <trkpt lat="43.60783" lon="2.04503">
        <ele>296.7</ele>
        <time>2017-08-14T12:19:33Z</time>
      </trkpt>
      <trkpt lat="43.60789" lon="2.04503">
        <ele>298.63</ele>
        <time>2017-08-14T12:19:38Z</time>
      </trkpt>
      <trkpt lat="43.60816" lon="2.045">
        <ele>299.11</ele>
        <time>2017-08-14T12:20:02Z</time>
      </trkpt>
      <trkpt lat="43.60831" lon="2.04504">
        <ele>300.07</ele>
        <time>2017-08-14T12:20:21Z</time>
      </trkpt>
      <trkpt lat="43.6083" lon="2.04508">
        <ele>299.59</ele>
        <time>2017-08-14T12:20:35Z</time>
      </trkpt>
      <trkpt lat="43.60838" lon="2.04502">
        <ele>299.11</ele>
        <time>2017-08-14T12:20:48Z</time>
      </trkpt>
      <trkpt lat="43.60839" lon="2.04503">
        <ele>300.07</ele>
        <time>2017-08-14T12:20:50Z</time>
      </trkpt>
      <trkpt lat="43.60843" lon="2.04502">
        <ele>298.63</ele>
        <time>2017-08-14T12:20:54Z</time>
      </trkpt>
      <trkpt lat="43.60858" lon="2.04501">
        <ele>298.63</ele>
        <time>2017-08-14T12:21:08Z</time>
      </trkpt>
      <trkpt lat="43.60865" lon="2.045">
        <ele>298.63</ele>
        <time>2017-08-14T12:21:15Z</time>
      </trkpt>
      <trkpt lat="43.60878" lon="2.045">
        <ele>299.11</ele>
        <time>2017-08-14T12:21:28Z</time>
      </trkpt>
      <trkpt lat="43.60881" lon="2.04499">
        <ele>297.67</ele>
        <time>2017-08-14T12:21:31Z</time>
      </trkpt>
      <trkpt lat="43.60904" lon="2.04498">
        <ele>299.59</ele>
        <time>2017-08-14T12:21:51Z</time>
      </trkpt>
      <trkpt lat="43.60913" lon="2.04497">
        <ele>297.67</ele>
        <time>2017-08-14T12:21:58Z</time>
      </trkpt>
      <trkpt lat="43.60917" lon="2.04497">
        <ele>299.11</ele>
        <time>2017-08-14T12:22:01Z</time>
      </trkpt>
      <trkpt lat="43.60927" lon="2.04497">
        <ele>299.11</ele>
        <time>2017-08-14T12:22:09Z</time>
      </trkpt>
      <trkpt lat="43.60938" lon="2.04499">
        <ele>298.15</ele>
        <time>2017-08-14T12:22:23Z</time>
      </trkpt>
      <trkpt lat="43.60938" lon="2.04499">
        <ele>297.18</ele>
        <time>2017-08-14T12:22:26Z</time>
      </trkpt>
      <trkpt lat="43.60942" lon="2.04502">
        <ele>295.74</ele>
        <time>2017-08-14T12:22:34Z</time>
      </trkpt>
      <trkpt lat="43.60962" lon="2.04514">
        <ele>292.86</ele>
        <time>2017-08-14T12:22:55Z</time>
      </trkpt>
      <trkpt lat="43.60983" lon="2.0453">
        <ele>292.38</ele>
        <time>2017-08-14T12:23:15Z</time>
      </trkpt>
      <trkpt lat="43.60999" lon="2.04543">
        <ele>293.34</ele>
        <time>2017-08-14T12:23:32Z</time>
      </trkpt>
      <trkpt lat="43.6102" lon="2.0456">
        <ele>294.3</ele>
        <time>2017-08-14T12:23:52Z</time>
      </trkpt>
      <trkpt lat="43.61021" lon="2.04561">
        <ele>294.3</ele>
        <time>2017-08-14T12:23:53Z</time>
      </trkpt>
      <trkpt lat="43.61025" lon="2.04562">
        <ele>292.86</ele>
        <time>2017-08-14T12:23:58Z</time>
      </trkpt>
      <trkpt lat="43.6104" lon="2.04569">
        <ele>292.38</ele>
        <time>2017-08-14T12:24:11Z</time>
      </trkpt>
      <trkpt lat="43.61044" lon="2.0457">
        <ele>294.3</ele>
        <time>2017-08-14T12:24:14Z</time>
      </trkpt>
      <trkpt lat="43.61055" lon="2.04574">
        <ele>292.86</ele>
        <time>2017-08-14T12:24:23Z</time>
      </trkpt>
      <trkpt lat="43.61067" lon="2.04578">
        <ele>291.42</ele>
        <time>2017-08-14T12:24:33Z</time>
      </trkpt>
      <trkpt lat="43.61089" lon="2.04587">
        <ele>290.94</ele>
        <time>2017-08-14T12:24:52Z</time>
      </trkpt>
      <trkpt lat="43.6111" lon="2.04597">
        <ele>291.42</ele>
        <time>2017-08-14T12:25:11Z</time>
      </trkpt>
      <trkpt lat="43.61121" lon="2.04602">
        <ele>291.42</ele>
        <time>2017-08-14T12:25:22Z</time>
      </trkpt>
      <trkpt lat="43.61123" lon="2.04602">
        <ele>295.74</ele>
        <time>2017-08-14T12:25:24Z</time>
      </trkpt>
      <trkpt lat="43.61124" lon="2.04603">
        <ele>293.34</ele>
        <time>2017-08-14T12:25:25Z</time>
      </trkpt>
      <trkpt lat="43.61131" lon="2.04606">
        <ele>290.46</ele>
        <time>2017-08-14T12:25:33Z</time>
      </trkpt>
      <trkpt lat="43.61133" lon="2.04606">
        <ele>292.86</ele>
        <time>2017-08-14T12:25:35Z</time>
      </trkpt>
      <trkpt lat="43.61139" lon="2.04608">
        <ele>291.42</ele>
        <time>2017-08-14T12:25:40Z</time>
      </trkpt>
      <trkpt lat="43.61161" lon="2.04622">
        <ele>290.94</ele>
        <time>2017-08-14T12:26:00Z</time>
      </trkpt>
      <trkpt lat="43.61178" lon="2.04645">
        <ele>293.82</ele>
        <time>2017-08-14T12:26:21Z</time>
      </trkpt>
      <trkpt lat="43.61178" lon="2.04646">
        <ele>292.38</ele>
        <time>2017-08-14T12:26:28Z</time>
      </trkpt>
      <trkpt lat="43.61179" lon="2.04649">
        <ele>290.94</ele>
        <time>2017-08-14T12:26:33Z</time>
      </trkpt>
      <trkpt lat="43.61179" lon="2.0465">
        <ele>292.38</ele>
        <time>2017-08-14T12:26:35Z</time>
      </trkpt>
      <trkpt lat="43.61185" lon="2.04667">
        <ele>291.42</ele>
        <time>2017-08-14T12:26:52Z</time>
      </trkpt>
      <trkpt lat="43.61186" lon="2.0467">
        <ele>292.38</ele>
        <time>2017-08-14T12:26:54Z</time>
      </trkpt>
      <trkpt lat="43.61195" lon="2.04691">
        <ele>291.42</ele>
        <time>2017-08-14T12:27:12Z</time>
      </trkpt>
      <trkpt lat="43.61196" lon="2.04694">
        <ele>292.86</ele>
        <time>2017-08-14T12:27:14Z</time>
      </trkpt>
      <trkpt lat="43.61204" lon="2.04723">
        <ele>293.34</ele>
        <time>2017-08-14T12:27:35Z</time>
      </trkpt>
      <trkpt lat="43.61205" lon="2.04726">
        <ele>295.74</ele>
        <time>2017-08-14T12:27:37Z</time>
      </trkpt>
      <trkpt lat="43.61208" lon="2.04732">
        <ele>294.3</ele>
        <time>2017-08-14T12:27:43Z</time>
      </trkpt>
      <trkpt lat="43.61208" lon="2.04733">
        <ele>295.74</ele>
        <time>2017-08-14T12:27:45Z</time>
      </trkpt>
      <trkpt lat="43.61209" lon="2.04736">
        <ele>296.7</ele>
        <time>2017-08-14T12:28:10Z</time>
      </trkpt>
      <trkpt lat="43.6121" lon="2.04737">
        <ele>296.7</ele>
        <time>2017-08-14T12:28:11Z</time>
      </trkpt>
      <trkpt lat="43.61216" lon="2.04751">
        <ele>299.11</ele>
        <time>2017-08-14T12:28:27Z</time>
      </trkpt>
      <trkpt lat="43.61219" lon="2.04751">
        <ele>298.15</ele>
        <time>2017-08-14T12:28:33Z</time>
      </trkpt>
      <trkpt lat="43.61225" lon="2.04767">
        <ele>299.59</ele>
        <time>2017-08-14T12:28:54Z</time>
      </trkpt>
      <trkpt lat="43.61227" lon="2.0477">
        <ele>298.15</ele>
        <time>2017-08-14T12:28:56Z</time>
      </trkpt>
      <trkpt lat="43.61239" lon="2.04791">
        <ele>299.11</ele>
        <time>2017-08-14T12:29:13Z</time>
      </trkpt>
      <trkpt lat="43.61248" lon="2.04807">
        <ele>296.7</ele>
        <time>2017-08-14T12:29:23Z</time>
      </trkpt>
      <trkpt lat="43.61255" lon="2.04839">
        <ele>296.7</ele>
        <time>2017-08-14T12:29:44Z</time>
      </trkpt>
      <trkpt lat="43.61255" lon="2.04847">
        <ele>297.67</ele>
        <time>2017-08-14T12:29:49Z</time>
      </trkpt>
      <trkpt lat="43.61259" lon="2.04886">
        <ele>298.15</ele>
        <time>2017-08-14T12:30:11Z</time>
      </trkpt>
      <trkpt lat="43.61268" lon="2.04925">
        <ele>297.67</ele>
        <time>2017-08-14T12:30:35Z</time>
      </trkpt>
      <trkpt lat="43.6127" lon="2.04934">
        <ele>296.22</ele>
        <time>2017-08-14T12:30:40Z</time>
      </trkpt>
      <trkpt lat="43.61279" lon="2.04975">
        <ele>293.82</ele>
        <time>2017-08-14T12:31:05Z</time>
      </trkpt>
      <trkpt lat="43.61286" lon="2.05008">
        <ele>293.34</ele>
        <time>2017-08-14T12:31:26Z</time>
      </trkpt>
      <trkpt lat="43.61293" lon="2.05042">
        <ele>292.86</ele>
        <time>2017-08-14T12:31:48Z</time>
      </trkpt>
      <trkpt lat="43.61298" lon="2.0506">
        <ele>291.42</ele>
        <time>2017-08-14T12:31:59Z</time>
      </trkpt>
      <trkpt lat="43.61299" lon="2.05063">
        <ele>292.38</ele>
        <time>2017-08-14T12:32:01Z</time>
      </trkpt>
      <trkpt lat="43.61302" lon="2.05071">
        <ele>291.42</ele>
        <time>2017-08-14T12:32:05Z</time>
      </trkpt>
      <trkpt lat="43.61308" lon="2.05099">
        <ele>290.46</ele>
        <time>2017-08-14T12:32:24Z</time>
      </trkpt>
      <trkpt lat="43.6131" lon="2.05122">
        <ele>290.94</ele>
        <time>2017-08-14T12:32:41Z</time>
      </trkpt>
      <trkpt lat="43.61306" lon="2.05149">
        <ele>289.01</ele>
        <time>2017-08-14T12:32:59Z</time>
      </trkpt>
      <trkpt lat="43.61301" lon="2.05181">
        <ele>290.46</ele>
        <time>2017-08-14T12:33:17Z</time>
      </trkpt>
      <trkpt lat="43.61301" lon="2.05182">
        <ele>290.46</ele>
        <time>2017-08-14T12:33:18Z</time>
      </trkpt>
      <trkpt lat="43.61299" lon="2.05189">
        <ele>289.01</ele>
        <time>2017-08-14T12:33:22Z</time>
      </trkpt>
      <trkpt lat="43.61298" lon="2.05209">
        <ele>290.46</ele>
        <time>2017-08-14T12:33:33Z</time>
      </trkpt>
      <trkpt lat="43.61303" lon="2.05227">
        <ele>290.94</ele>
        <time>2017-08-14T12:33:46Z</time>
      </trkpt>
      <trkpt lat="43.61306" lon="2.05233">
        <ele>290.94</ele>
        <time>2017-08-14T12:33:51Z</time>
      </trkpt>
      <trkpt lat="43.61315" lon="2.05245">
        <ele>289.97</ele>
        <time>2017-08-14T12:34:00Z</time>
      </trkpt>
      <trkpt lat="43.61326" lon="2.05257">
        <ele>289.49</ele>
        <time>2017-08-14T12:34:12Z</time>
      </trkpt>
      <trkpt lat="43.61328" lon="2.05259">
        <ele>290.94</ele>
        <time>2017-08-14T12:34:14Z</time>
      </trkpt>
      <trkpt lat="43.61334" lon="2.05269">
        <ele>292.86</ele>
        <time>2017-08-14T12:34:23Z</time>
      </trkpt>
      <trkpt lat="43.61347" lon="2.05284">
        <ele>292.86</ele>
        <time>2017-08-14T12:34:38Z</time>
      </trkpt>
      <trkpt lat="43.61351" lon="2.0529">
        <ele>294.78</ele>
        <time>2017-08-14T12:34:43Z</time>
      </trkpt>
      <trkpt lat="43.6136" lon="2.05299">
        <ele>295.74</ele>
        <time>2017-08-14T12:34:54Z</time>
      </trkpt>
      <trkpt lat="43.61365" lon="2.05306">
        <ele>296.22</ele>
        <time>2017-08-14T12:35:01Z</time>
      </trkpt>
      <trkpt lat="43.61372" lon="2.05315">
        <ele>296.7</ele>
        <time>2017-08-14T12:35:12Z</time>
      </trkpt>
      <trkpt lat="43.61377" lon="2.05319">
        <ele>298.15</ele>
        <time>2017-08-14T12:35:16Z</time>
      </trkpt>
      <trkpt lat="43.61378" lon="2.0532">
        <ele>296.7</ele>
        <time>2017-08-14T12:35:18Z</time>
      </trkpt>
      <trkpt lat="43.61385" lon="2.05326">
        <ele>296.7</ele>
        <time>2017-08-14T12:35:26Z</time>
      </trkpt>
      <trkpt lat="43.61391" lon="2.0533">
        <ele>300.07</ele>
        <time>2017-08-14T12:35:32Z</time>
      </trkpt>
      <trkpt lat="43.61391" lon="2.0533">
        <ele>300.07</ele>
        <time>2017-08-14T12:35:33Z</time>
      </trkpt>
      <trkpt lat="43.61416" lon="2.0534">
        <ele>299.59</ele>
        <time>2017-08-14T12:35:55Z</time>
      </trkpt>
      <trkpt lat="43.61424" lon="2.05345">
        <ele>297.67</ele>
        <time>2017-08-14T12:36:02Z</time>
      </trkpt>
      <trkpt lat="43.61427" lon="2.05346">
        <ele>301.03</ele>
        <time>2017-08-14T12:36:04Z</time>
      </trkpt>
      <trkpt lat="43.61428" lon="2.05347">
        <ele>301.03</ele>
        <time>2017-08-14T12:36:05Z</time>
      </trkpt>
      <trkpt lat="43.61432" lon="2.0535">
        <ele>299.11</ele>
        <time>2017-08-14T12:36:08Z</time>
      </trkpt>
      <trkpt lat="43.61437" lon="2.05352">
        <ele>300.55</ele>
        <time>2017-08-14T12:36:12Z</time>
      </trkpt>
      <trkpt lat="43.61442" lon="2.05355">
        <ele>299.11</ele>
        <time>2017-08-14T12:36:17Z</time>
      </trkpt>
      <trkpt lat="43.61464" lon="2.05367">
        <ele>300.55</ele>
        <time>2017-08-14T12:36:38Z</time>
      </trkpt>
      <trkpt lat="43.61467" lon="2.05368">
        <ele>299.11</ele>
        <time>2017-08-14T12:36:41Z</time>
      </trkpt>
      <trkpt lat="43.61482" lon="2.05374">
        <ele>299.59</ele>
        <time>2017-08-14T12:37:03Z</time>
      </trkpt>
      <trkpt lat="43.61489" lon="2.05375">
        <ele>296.7</ele>
        <time>2017-08-14T12:37:13Z</time>
      </trkpt>
      <trkpt lat="43.61489" lon="2.05375">
        <ele>298.63</ele>
        <time>2017-08-14T12:37:15Z</time>
      </trkpt>
      <trkpt lat="43.61487" lon="2.05378">
        <ele>299.59</ele>
        <time>2017-08-14T12:37:42Z</time>
      </trkpt>
      <trkpt lat="43.61487" lon="2.05378">
        <ele>295.74</ele>
        <time>2017-08-14T12:37:45Z</time>
      </trkpt>
      <trkpt lat="43.61487" lon="2.05378">
        <ele>299.11</ele>
        <time>2017-08-14T12:37:47Z</time>
      </trkpt>
      <trkpt lat="43.61486" lon="2.05378">
        <ele>299.11</ele>
        <time>2017-08-14T12:37:48Z</time>
      </trkpt>
      <trkpt lat="43.61488" lon="2.05375">
        <ele>298.15</ele>
        <time>2017-08-14T12:38:08Z</time>
      </trkpt>
      <trkpt lat="43.61488" lon="2.05375">
        <ele>299.59</ele>
        <time>2017-08-14T12:38:13Z</time>
      </trkpt>
      <trkpt lat="43.61489" lon="2.05376">
        <ele>298.15</ele>
        <time>2017-08-14T12:38:16Z</time>
      </trkpt>
      <trkpt lat="43.61491" lon="2.05378">
        <ele>293.34</ele>
        <time>2017-08-14T12:38:22Z</time>
      </trkpt>
      <trkpt lat="43.61492" lon="2.05378">
        <ele>298.15</ele>
        <time>2017-08-14T12:38:23Z</time>
      </trkpt>
      <trkpt lat="43.61491" lon="2.0538">
        <ele>298.63</ele>
        <time>2017-08-14T12:38:39Z</time>
      </trkpt>
      <trkpt lat="43.6149" lon="2.0538">
        <ele>297.18</ele>
        <time>2017-08-14T12:38:41Z</time>
      </trkpt>
      <trkpt lat="43.61487" lon="2.05379">
        <ele>297.67</ele>
        <time>2017-08-14T12:38:45Z</time>
      </trkpt>
      <trkpt lat="43.61487" lon="2.05366">
        <ele>299.59</ele>
        <time>2017-08-14T12:38:52Z</time>
      </trkpt>
      <trkpt lat="43.61485" lon="2.05375">
        <ele>295.74</ele>
        <time>2017-08-14T12:39:10Z</time>
      </trkpt>
      <trkpt lat="43.61495" lon="2.05378">
        <ele>298.15</ele>
        <time>2017-08-14T12:39:31Z</time>
      </trkpt>
      <trkpt lat="43.61485" lon="2.05375">
        <ele>299.59</ele>
        <time>2017-08-14T12:39:53Z</time>
      </trkpt>
      <trkpt lat="43.61484" lon="2.05381">
        <ele>298.15</ele>
        <time>2017-08-14T12:40:25Z</time>
      </trkpt>
      <trkpt lat="43.61493" lon="2.05381">
        <ele>298.15</ele>
        <time>2017-08-14T12:40:56Z</time>
      </trkpt>
      <trkpt lat="43.61488" lon="2.05387">
        <ele>297.18</ele>
        <time>2017-08-14T12:41:11Z</time>
      </trkpt>
      <trkpt lat="43.61482" lon="2.05385">
        <ele>297.18</ele>
        <time>2017-08-14T12:41:31Z</time>
      </trkpt>
      <trkpt lat="43.61487" lon="2.05383">
        <ele>298.63</ele>
        <time>2017-08-14T12:41:44Z</time>
      </trkpt>
      <trkpt lat="43.61488" lon="2.05383">
        <ele>297.18</ele>
        <time>2017-08-14T12:41:48Z</time>
      </trkpt>
      <trkpt lat="43.61497" lon="2.05375">
        <ele>298.15</ele>
        <time>2017-08-14T12:42:14Z</time>
      </trkpt>
      <trkpt lat="43.61496" lon="2.05375">
        <ele>293.82</ele>
        <time>2017-08-14T12:42:18Z</time>
      </trkpt>
      <trkpt lat="43.61496" lon="2.05375">
        <ele>301.99</ele>
        <time>2017-08-14T12:42:19Z</time>
      </trkpt>
      <trkpt lat="43.61495" lon="2.05374">
        <ele>298.15</ele>
        <time>2017-08-14T12:42:20Z</time>
      </trkpt>
      <trkpt lat="43.61508" lon="2.05379">
        <ele>297.18</ele>
        <time>2017-08-14T12:42:40Z</time>
      </trkpt>
      <trkpt lat="43.61531" lon="2.05385">
        <ele>296.22</ele>
        <time>2017-08-14T12:43:03Z</time>
      </trkpt>
      <trkpt lat="43.61546" lon="2.05387">
        <ele>294.78</ele>
        <time>2017-08-14T12:43:19Z</time>
      </trkpt>
      <trkpt lat="43.61568" lon="2.05392">
        <ele>293.82</ele>
        <time>2017-08-14T12:43:37Z</time>
      </trkpt>
      <trkpt lat="43.61589" lon="2.05397">
        <ele>290.94</ele>
        <time>2017-08-14T12:43:58Z</time>
      </trkpt>
      <trkpt lat="43.61617" lon="2.05416">
        <ele>288.53</ele>
        <time>2017-08-14T12:44:21Z</time>
      </trkpt>
      <trkpt lat="43.61642" lon="2.05437">
        <ele>285.65</ele>
        <time>2017-08-14T12:44:45Z</time>
      </trkpt>
      <trkpt lat="43.61654" lon="2.05444">
        <ele>285.65</ele>
        <time>2017-08-14T12:44:55Z</time>
      </trkpt>
      <trkpt lat="43.6168" lon="2.05447">
        <ele>284.21</ele>
        <time>2017-08-14T12:45:17Z</time>
      </trkpt>
      <trkpt lat="43.61694" lon="2.05448">
        <ele>281.32</ele>
        <time>2017-08-14T12:45:34Z</time>
      </trkpt>
      <trkpt lat="43.61719" lon="2.05454">
        <ele>277.96</ele>
        <time>2017-08-14T12:45:52Z</time>
      </trkpt>
      <trkpt lat="43.61748" lon="2.0546">
        <ele>277</ele>
        <time>2017-08-14T12:46:12Z</time>
      </trkpt>
      <trkpt lat="43.61774" lon="2.05461">
        <ele>276.04</ele>
        <time>2017-08-14T12:46:35Z</time>
      </trkpt>
      <trkpt lat="43.61803" lon="2.0546">
        <ele>274.59</ele>
        <time>2017-08-14T12:47:00Z</time>
      </trkpt>
      <trkpt lat="43.61832" lon="2.05454">
        <ele>274.11</ele>
        <time>2017-08-14T12:47:23Z</time>
      </trkpt>
      <trkpt lat="43.61849" lon="2.05451">
        <ele>273.15</ele>
        <time>2017-08-14T12:47:43Z</time>
      </trkpt>
      <trkpt lat="43.61877" lon="2.05447">
        <ele>272.67</ele>
        <time>2017-08-14T12:48:06Z</time>
      </trkpt>
      <trkpt lat="43.61893" lon="2.05449">
        <ele>271.23</ele>
        <time>2017-08-14T12:48:18Z</time>
      </trkpt>
      <trkpt lat="43.61914" lon="2.05456">
        <ele>267.86</ele>
        <time>2017-08-14T12:48:36Z</time>
      </trkpt>
      <trkpt lat="43.61928" lon="2.05466">
        <ele>264.02</ele>
        <time>2017-08-14T12:48:50Z</time>
      </trkpt>
      <trkpt lat="43.61945" lon="2.05471">
        <ele>264.5</ele>
        <time>2017-08-14T12:49:07Z</time>
      </trkpt>
      <trkpt lat="43.61963" lon="2.05493">
        <ele>262.1</ele>
        <time>2017-08-14T12:49:30Z</time>
      </trkpt>
      <trkpt lat="43.61974" lon="2.05533">
        <ele>259.69</ele>
        <time>2017-08-14T12:49:56Z</time>
      </trkpt>
      <trkpt lat="43.61989" lon="2.05554">
        <ele>256.81</ele>
        <time>2017-08-14T12:50:16Z</time>
      </trkpt>
      <trkpt lat="43.62002" lon="2.05571">
        <ele>253.44</ele>
        <time>2017-08-14T12:50:34Z</time>
      </trkpt>
      <trkpt lat="43.6202" lon="2.05584">
        <ele>250.08</ele>
        <time>2017-08-14T12:50:51Z</time>
      </trkpt>
      <trkpt lat="43.62036" lon="2.05594">
        <ele>246.72</ele>
        <time>2017-08-14T12:51:06Z</time>
      </trkpt>
      <trkpt lat="43.62056" lon="2.05613">
        <ele>244.79</ele>
        <time>2017-08-14T12:51:29Z</time>
      </trkpt>
      <trkpt lat="43.62077" lon="2.05626">
        <ele>241.43</ele>
        <time>2017-08-14T12:51:50Z</time>
      </trkpt>
      <trkpt lat="43.62099" lon="2.05637">
        <ele>238.06</ele>
        <time>2017-08-14T12:52:11Z</time>
      </trkpt>
      <trkpt lat="43.62117" lon="2.05648">
        <ele>234.7</ele>
        <time>2017-08-14T12:52:33Z</time>
      </trkpt>
      <trkpt lat="43.62129" lon="2.05662">
        <ele>231.33</ele>
        <time>2017-08-14T12:52:50Z</time>
      </trkpt>
      <trkpt lat="43.62133" lon="2.05689">
        <ele>228.45</ele>
        <time>2017-08-14T12:53:09Z</time>
      </trkpt>
      <trkpt lat="43.62152" lon="2.05698">
        <ele>226.05</ele>
        <time>2017-08-14T12:53:29Z</time>
      </trkpt>
      <trkpt lat="43.62164" lon="2.05695">
        <ele>222.68</ele>
        <time>2017-08-14T12:53:41Z</time>
      </trkpt>
      <trkpt lat="43.62185" lon="2.05702">
        <ele>222.2</ele>
        <time>2017-08-14T12:54:01Z</time>
      </trkpt>
      <trkpt lat="43.62203" lon="2.05717">
        <ele>221.72</ele>
        <time>2017-08-14T12:54:18Z</time>
      </trkpt>
      <trkpt lat="43.62209" lon="2.05722">
        <ele>223.16</ele>
        <time>2017-08-14T12:54:27Z</time>
      </trkpt>
      <trkpt lat="43.62227" lon="2.05742">
        <ele>222.68</ele>
        <time>2017-08-14T12:54:50Z</time>
      </trkpt>
      <trkpt lat="43.62236" lon="2.05747">
        <ele>221.24</ele>
        <time>2017-08-14T12:54:59Z</time>
      </trkpt>
      <trkpt lat="43.62255" lon="2.05755">
        <ele>219.32</ele>
        <time>2017-08-14T12:55:19Z</time>
      </trkpt>
      <trkpt lat="43.62274" lon="2.05769">
        <ele>215.95</ele>
        <time>2017-08-14T12:55:39Z</time>
      </trkpt>
      <trkpt lat="43.62281" lon="2.05779">
        <ele>212.59</ele>
        <time>2017-08-14T12:55:52Z</time>
      </trkpt>
      <trkpt lat="43.62294" lon="2.05785">
        <ele>209.22</ele>
        <time>2017-08-14T12:56:07Z</time>
      </trkpt>
      <trkpt lat="43.62314" lon="2.05801">
        <ele>206.82</ele>
        <time>2017-08-14T12:56:28Z</time>
      </trkpt>
      <trkpt lat="43.62333" lon="2.05825">
        <ele>205.86</ele>
        <time>2017-08-14T12:56:49Z</time>
      </trkpt>
      <trkpt lat="43.62353" lon="2.05849">
        <ele>207.3</ele>
        <time>2017-08-14T12:57:13Z</time>
      </trkpt>
      <trkpt lat="43.62377" lon="2.05865">
        <ele>207.78</ele>
        <time>2017-08-14T12:57:36Z</time>
      </trkpt>
      <trkpt lat="43.62381" lon="2.05871">
        <ele>204.9</ele>
        <time>2017-08-14T12:57:40Z</time>
      </trkpt>
      <trkpt lat="43.62382" lon="2.05873">
        <ele>205.86</ele>
        <time>2017-08-14T12:57:42Z</time>
      </trkpt>
      <trkpt lat="43.62402" lon="2.05893">
        <ele>208.26</ele>
        <time>2017-08-14T12:58:04Z</time>
      </trkpt>
      <trkpt lat="43.62425" lon="2.05911">
        <ele>206.82</ele>
        <time>2017-08-14T12:58:26Z</time>
      </trkpt>
      <trkpt lat="43.6244" lon="2.05929">
        <ele>207.3</ele>
        <time>2017-08-14T12:58:45Z</time>
      </trkpt>
      <trkpt lat="43.62448" lon="2.05943">
        <ele>207.78</ele>
        <time>2017-08-14T12:59:10Z</time>
      </trkpt>
      <trkpt lat="43.62456" lon="2.0595">
        <ele>208.74</ele>
        <time>2017-08-14T12:59:35Z</time>
      </trkpt>
      <trkpt lat="43.62467" lon="2.05971">
        <ele>209.7</ele>
        <time>2017-08-14T12:59:57Z</time>
      </trkpt>
      <trkpt lat="43.62479" lon="2.05995">
        <ele>211.15</ele>
        <time>2017-08-14T13:00:21Z</time>
      </trkpt>
      <trkpt lat="43.62491" lon="2.06023">
        <ele>212.11</ele>
        <time>2017-08-14T13:00:43Z</time>
      </trkpt>
      <trkpt lat="43.62508" lon="2.06043">
        <ele>212.11</ele>
        <time>2017-08-14T13:01:06Z</time>
      </trkpt>
      <trkpt lat="43.62536" lon="2.06045">
        <ele>214.03</ele>
        <time>2017-08-14T13:01:32Z</time>
      </trkpt>
      <trkpt lat="43.62556" lon="2.06046">
        <ele>216.43</ele>
        <time>2017-08-14T13:01:55Z</time>
      </trkpt>
      <trkpt lat="43.62575" lon="2.06048">
        <ele>217.4</ele>
        <time>2017-08-14T13:02:18Z</time>
      </trkpt>
      <trkpt lat="43.62581" lon="2.06037">
        <ele>218.36</ele>
        <time>2017-08-14T13:02:41Z</time>
      </trkpt>
      <trkpt lat="43.62605" lon="2.06025">
        <ele>220.76</ele>
        <time>2017-08-14T13:03:06Z</time>
      </trkpt>
      <trkpt lat="43.62628" lon="2.06028">
        <ele>222.68</ele>
        <time>2017-08-14T13:03:28Z</time>
      </trkpt>
      <trkpt lat="43.62644" lon="2.06044">
        <ele>224.12</ele>
        <time>2017-08-14T13:03:47Z</time>
      </trkpt>
      <trkpt lat="43.62667" lon="2.06048">
        <ele>225.09</ele>
        <time>2017-08-14T13:04:09Z</time>
      </trkpt>
      <trkpt lat="43.62677" lon="2.06036">
        <ele>226.53</ele>
        <time>2017-08-14T13:04:22Z</time>
      </trkpt>
      <trkpt lat="43.62681" lon="2.06022">
        <ele>227.49</ele>
        <time>2017-08-14T13:04:43Z</time>
      </trkpt>
      <trkpt lat="43.62677" lon="2.06015">
        <ele>227.49</ele>
        <time>2017-08-14T13:05:06Z</time>
      </trkpt>
      <trkpt lat="43.62682" lon="2.06004">
        <ele>227.97</ele>
        <time>2017-08-14T13:05:24Z</time>
      </trkpt>
      <trkpt lat="43.62683" lon="2.06004">
        <ele>227.97</ele>
        <time>2017-08-14T13:05:51Z</time>
      </trkpt>
      <trkpt lat="43.62683" lon="2.06003">
        <ele>219.8</ele>
        <time>2017-08-14T13:06:09Z</time>
      </trkpt>
      <trkpt lat="43.62683" lon="2.06003">
        <ele>235.18</ele>
        <time>2017-08-14T13:06:10Z</time>
      </trkpt>
      <trkpt lat="43.62683" lon="2.06003">
        <ele>227.49</ele>
        <time>2017-08-14T13:06:11Z</time>
      </trkpt>
      <trkpt lat="43.62692" lon="2.05987">
        <ele>226.53</ele>
        <time>2017-08-14T13:06:28Z</time>
      </trkpt>
      <trkpt lat="43.62702" lon="2.05969">
        <ele>225.09</ele>
        <time>2017-08-14T13:06:50Z</time>
      </trkpt>
      <trkpt lat="43.62712" lon="2.05936">
        <ele>223.64</ele>
        <time>2017-08-14T13:07:13Z</time>
      </trkpt>
      <trkpt lat="43.62713" lon="2.05911">
        <ele>223.16</ele>
        <time>2017-08-14T13:07:33Z</time>
      </trkpt>
      <trkpt lat="43.6273" lon="2.05871">
        <ele>224.12</ele>
        <time>2017-08-14T13:07:56Z</time>
      </trkpt>
      <trkpt lat="43.62742" lon="2.05848">
        <ele>224.12</ele>
        <time>2017-08-14T13:08:18Z</time>
      </trkpt>
      <trkpt lat="43.62742" lon="2.05824">
        <ele>221.72</ele>
        <time>2017-08-14T13:08:36Z</time>
      </trkpt>
      <trkpt lat="43.62746" lon="2.05785">
        <ele>221.24</ele>
        <time>2017-08-14T13:08:58Z</time>
      </trkpt>
      <trkpt lat="43.62755" lon="2.05762">
        <ele>219.32</ele>
        <time>2017-08-14T13:09:18Z</time>
      </trkpt>
      <trkpt lat="43.62766" lon="2.0573">
        <ele>216.91</ele>
        <time>2017-08-14T13:09:40Z</time>
      </trkpt>
      <trkpt lat="43.62766" lon="2.05704">
        <ele>215.47</ele>
        <time>2017-08-14T13:09:59Z</time>
      </trkpt>
      <trkpt lat="43.62757" lon="2.05676">
        <ele>213.55</ele>
        <time>2017-08-14T13:10:19Z</time>
      </trkpt>
      <trkpt lat="43.62749" lon="2.05649">
        <ele>212.59</ele>
        <time>2017-08-14T13:10:40Z</time>
      </trkpt>
      <trkpt lat="43.62745" lon="2.05618">
        <ele>211.63</ele>
        <time>2017-08-14T13:11:00Z</time>
      </trkpt>
      <trkpt lat="43.62743" lon="2.05592">
        <ele>211.15</ele>
        <time>2017-08-14T13:11:20Z</time>
      </trkpt>
      <trkpt lat="43.6274" lon="2.05565">
        <ele>212.11</ele>
        <time>2017-08-14T13:11:42Z</time>
      </trkpt>
      <trkpt lat="43.62738" lon="2.05531">
        <ele>213.07</ele>
        <time>2017-08-14T13:12:04Z</time>
      </trkpt>
      <trkpt lat="43.62751" lon="2.0551">
        <ele>211.15</ele>
        <time>2017-08-14T13:12:23Z</time>
      </trkpt>
      <trkpt lat="43.62748" lon="2.05496">
        <ele>207.78</ele>
        <time>2017-08-14T13:12:39Z</time>
      </trkpt>
      <trkpt lat="43.62756" lon="2.05477">
        <ele>204.42</ele>
        <time>2017-08-14T13:13:00Z</time>
      </trkpt>
      <trkpt lat="43.6277" lon="2.05467">
        <ele>201.05</ele>
        <time>2017-08-14T13:13:17Z</time>
      </trkpt>
      <trkpt lat="43.62785" lon="2.05456">
        <ele>198.17</ele>
        <time>2017-08-14T13:13:35Z</time>
      </trkpt>
      <trkpt lat="43.62795" lon="2.05449">
        <ele>194.8</ele>
        <time>2017-08-14T13:13:50Z</time>
      </trkpt>
      <trkpt lat="43.62813" lon="2.05441">
        <ele>191.44</ele>
        <time>2017-08-14T13:14:11Z</time>
      </trkpt>
      <trkpt lat="43.62825" lon="2.05437">
        <ele>189.04</ele>
        <time>2017-08-14T13:14:29Z</time>
      </trkpt>
      <trkpt lat="43.62835" lon="2.05435">
        <ele>185.67</ele>
        <time>2017-08-14T13:14:45Z</time>
      </trkpt>
      <trkpt lat="43.62843" lon="2.05435">
        <ele>184.71</ele>
        <time>2017-08-14T13:15:04Z</time>
      </trkpt>
      <trkpt lat="43.62842" lon="2.05436">
        <ele>185.67</ele>
        <time>2017-08-14T13:15:07Z</time>
      </trkpt>
      <trkpt lat="43.62838" lon="2.05425">
        <ele>186.15</ele>
        <time>2017-08-14T13:15:27Z</time>
      </trkpt>
      <trkpt lat="43.62825" lon="2.05408">
        <ele>187.59</ele>
        <time>2017-08-14T13:15:40Z</time>
      </trkpt>
      <trkpt lat="43.62826" lon="2.05392">
        <ele>189.04</ele>
        <time>2017-08-14T13:16:02Z</time>
      </trkpt>
      <trkpt lat="43.62822" lon="2.05353">
        <ele>190.48</ele>
        <time>2017-08-14T13:16:26Z</time>
      </trkpt>
      <trkpt lat="43.62809" lon="2.05322">
        <ele>190.96</ele>
        <time>2017-08-14T13:16:46Z</time>
      </trkpt>
      <trkpt lat="43.62806" lon="2.05291">
        <ele>193.84</ele>
        <time>2017-08-14T13:17:12Z</time>
      </trkpt>
      <trkpt lat="43.62802" lon="2.05264">
        <ele>196.73</ele>
        <time>2017-08-14T13:17:34Z</time>
      </trkpt>
      <trkpt lat="43.62807" lon="2.05252">
        <ele>195.28</ele>
        <time>2017-08-14T13:17:43Z</time>
      </trkpt>
      <trkpt lat="43.62807" lon="2.05219">
        <ele>193.36</ele>
        <time>2017-08-14T13:18:04Z</time>
      </trkpt>
      <trkpt lat="43.62813" lon="2.05191">
        <ele>190.96</ele>
        <time>2017-08-14T13:18:28Z</time>
      </trkpt>
      <trkpt lat="43.62813" lon="2.05189">
        <ele>192.4</ele>
        <time>2017-08-14T13:18:30Z</time>
      </trkpt>
      <trkpt lat="43.6281" lon="2.05171">
        <ele>189.52</ele>
        <time>2017-08-14T13:18:46Z</time>
      </trkpt>
      <trkpt lat="43.6281" lon="2.05169">
        <ele>189.52</ele>
        <time>2017-08-14T13:18:47Z</time>
      </trkpt>
      <trkpt lat="43.62816" lon="2.05153">
        <ele>186.15</ele>
        <time>2017-08-14T13:19:03Z</time>
      </trkpt>
      <trkpt lat="43.62815" lon="2.05133">
        <ele>182.79</ele>
        <time>2017-08-14T13:19:21Z</time>
      </trkpt>
      <trkpt lat="43.62803" lon="2.05127">
        <ele>179.42</ele>
        <time>2017-08-14T13:19:45Z</time>
      </trkpt>
      <trkpt lat="43.62789" lon="2.0513">
        <ele>176.54</ele>
        <time>2017-08-14T13:19:58Z</time>
      </trkpt>
      <trkpt lat="43.6277" lon="2.05133">
        <ele>173.66</ele>
        <time>2017-08-14T13:20:20Z</time>
      </trkpt>
      <trkpt lat="43.62781" lon="2.05116">
        <ele>171.73</ele>
        <time>2017-08-14T13:20:35Z</time>
      </trkpt>
      <trkpt lat="43.62789" lon="2.05089">
        <ele>170.29</ele>
        <time>2017-08-14T13:20:56Z</time>
      </trkpt>
      <trkpt lat="43.62791" lon="2.05069">
        <ele>168.85</ele>
        <time>2017-08-14T13:21:15Z</time>
      </trkpt>
      <trkpt lat="43.62793" lon="2.05054">
        <ele>167.89</ele>
        <time>2017-08-14T13:21:34Z</time>
      </trkpt>
      <trkpt lat="43.62812" lon="2.0504">
        <ele>164.52</ele>
        <time>2017-08-14T13:21:54Z</time>
      </trkpt>
      <trkpt lat="43.62817" lon="2.05029">
        <ele>163.08</ele>
        <time>2017-08-14T13:22:17Z</time>
      </trkpt>
      <trkpt lat="43.62833" lon="2.05004">
        <ele>160.68</ele>
        <time>2017-08-14T13:22:41Z</time>
      </trkpt>
      <trkpt lat="43.62832" lon="2.04973">
        <ele>159.24</ele>
        <time>2017-08-14T13:23:05Z</time>
      </trkpt>
      <trkpt lat="43.62832" lon="2.04937">
        <ele>158.27</ele>
        <time>2017-08-14T13:23:32Z</time>
      </trkpt>
      <trkpt lat="43.6284" lon="2.04909">
        <ele>157.79</ele>
        <time>2017-08-14T13:23:56Z</time>
      </trkpt>
      <trkpt lat="43.62867" lon="2.04874">
        <ele>157.79</ele>
        <time>2017-08-14T13:24:20Z</time>
      </trkpt>
      <trkpt lat="43.6288" lon="2.04842">
        <ele>157.79</ele>
        <time>2017-08-14T13:24:43Z</time>
      </trkpt>
      <trkpt lat="43.62888" lon="2.04813">
        <ele>157.79</ele>
        <time>2017-08-14T13:25:06Z</time>
      </trkpt>
      <trkpt lat="43.62894" lon="2.04786">
        <ele>157.31</ele>
        <time>2017-08-14T13:25:26Z</time>
      </trkpt>
      <trkpt lat="43.62903" lon="2.04759">
        <ele>157.31</ele>
        <time>2017-08-14T13:25:47Z</time>
      </trkpt>
      <trkpt lat="43.62905" lon="2.04732">
        <ele>157.31</ele>
        <time>2017-08-14T13:26:09Z</time>
      </trkpt>
      <trkpt lat="43.62916" lon="2.04701">
        <ele>156.83</ele>
        <time>2017-08-14T13:26:31Z</time>
      </trkpt>
      <trkpt lat="43.62928" lon="2.04671">
        <ele>156.83</ele>
        <time>2017-08-14T13:26:54Z</time>
      </trkpt>
      <trkpt lat="43.62939" lon="2.04639">
        <ele>156.35</ele>
        <time>2017-08-14T13:27:18Z</time>
      </trkpt>
      <trkpt lat="43.62942" lon="2.04633">
        <ele>157.79</ele>
        <time>2017-08-14T13:27:23Z</time>
      </trkpt>
      <trkpt lat="43.62955" lon="2.04606">
        <ele>156.35</ele>
        <time>2017-08-14T13:27:43Z</time>
      </trkpt>
      <trkpt lat="43.62971" lon="2.04579">
        <ele>155.39</ele>
        <time>2017-08-14T13:28:03Z</time>
      </trkpt>
      <trkpt lat="43.62984" lon="2.04546">
        <ele>154.43</ele>
        <time>2017-08-14T13:28:25Z</time>
      </trkpt>
      <trkpt lat="43.62997" lon="2.04522">
        <ele>153.95</ele>
        <time>2017-08-14T13:28:49Z</time>
      </trkpt>
      <trkpt lat="43.63015" lon="2.04497">
        <ele>153.95</ele>
        <time>2017-08-14T13:29:13Z</time>
      </trkpt>
      <trkpt lat="43.63033" lon="2.04472">
        <ele>154.91</ele>
        <time>2017-08-14T13:29:36Z</time>
      </trkpt>
      <trkpt lat="43.63051" lon="2.0445">
        <ele>155.39</ele>
        <time>2017-08-14T13:29:57Z</time>
      </trkpt>
      <trkpt lat="43.63064" lon="2.0443">
        <ele>155.39</ele>
        <time>2017-08-14T13:30:16Z</time>
      </trkpt>
      <trkpt lat="43.63082" lon="2.04416">
        <ele>154.43</ele>
        <time>2017-08-14T13:30:39Z</time>
      </trkpt>
      <trkpt lat="43.63109" lon="2.04437">
        <ele>152.99</ele>
        <time>2017-08-14T13:31:02Z</time>
      </trkpt>
      <trkpt lat="43.63138" lon="2.04448">
        <ele>152.51</ele>
        <time>2017-08-14T13:31:30Z</time>
      </trkpt>
      <trkpt lat="43.63146" lon="2.04444">
        <ele>152.51</ele>
        <time>2017-08-14T13:31:38Z</time>
      </trkpt>
      <trkpt lat="43.63168" lon="2.04418">
        <ele>152.51</ele>
        <time>2017-08-14T13:32:02Z</time>
      </trkpt>
      <trkpt lat="43.63185" lon="2.04392">
        <ele>151.54</ele>
        <time>2017-08-14T13:32:24Z</time>
      </trkpt>
      <trkpt lat="43.63202" lon="2.04374">
        <ele>151.54</ele>
        <time>2017-08-14T13:32:45Z</time>
      </trkpt>
      <trkpt lat="43.63228" lon="2.04368">
        <ele>151.06</ele>
        <time>2017-08-14T13:33:08Z</time>
      </trkpt>
      <trkpt lat="43.63253" lon="2.04363">
        <ele>151.06</ele>
        <time>2017-08-14T13:33:29Z</time>
      </trkpt>
      <trkpt lat="43.6328" lon="2.04358">
        <ele>150.58</ele>
        <time>2017-08-14T13:33:51Z</time>
      </trkpt>
      <trkpt lat="43.63301" lon="2.0436">
        <ele>150.1</ele>
        <time>2017-08-14T13:34:11Z</time>
      </trkpt>
      <trkpt lat="43.63325" lon="2.04368">
        <ele>150.1</ele>
        <time>2017-08-14T13:34:33Z</time>
      </trkpt>
      <trkpt lat="43.63357" lon="2.04376">
        <ele>152.03</ele>
        <time>2017-08-14T13:35:00Z</time>
      </trkpt>
      <trkpt lat="43.63359" lon="2.04377">
        <ele>150.1</ele>
        <time>2017-08-14T13:35:02Z</time>
      </trkpt>
      <trkpt lat="43.63363" lon="2.04377">
        <ele>152.03</ele>
        <time>2017-08-14T13:35:06Z</time>
      </trkpt>
      <trkpt lat="43.63386" lon="2.04378">
        <ele>151.54</ele>
        <time>2017-08-14T13:35:31Z</time>
      </trkpt>
      <trkpt lat="43.63397" lon="2.0438">
        <ele>151.54</ele>
        <time>2017-08-14T13:35:54Z</time>
      </trkpt>
      <trkpt lat="43.63406" lon="2.04382">
        <ele>151.54</ele>
        <time>2017-08-14T13:36:19Z</time>
      </trkpt>
      <trkpt lat="43.63408" lon="2.04387">
        <ele>152.51</ele>
        <time>2017-08-14T13:36:40Z</time>
      </trkpt>
      <trkpt lat="43.63404" lon="2.04389">
        <ele>151.06</ele>
        <time>2017-08-14T13:37:10Z</time>
      </trkpt>
      <trkpt lat="43.63414" lon="2.04391">
        <ele>150.58</ele>
        <time>2017-08-14T13:37:33Z</time>
      </trkpt>
      <trkpt lat="43.63412" lon="2.04388">
        <ele>152.03</ele>
        <time>2017-08-14T13:37:58Z</time>
      </trkpt>
      <trkpt lat="43.63412" lon="2.04388">
        <ele>150.1</ele>
        <time>2017-08-14T13:38:00Z</time>
      </trkpt>
      <trkpt lat="43.63411" lon="2.04387">
        <ele>154.43</ele>
        <time>2017-08-14T13:38:01Z</time>
      </trkpt>
      <trkpt lat="43.63411" lon="2.04387">
        <ele>152.51</ele>
        <time>2017-08-14T13:38:02Z</time>
      </trkpt>
      <trkpt lat="43.63412" lon="2.04386">
        <ele>151.54</ele>
        <time>2017-08-14T13:38:04Z</time>
      </trkpt>
      <trkpt lat="43.63419" lon="2.04384">
        <ele>151.06</ele>
        <time>2017-08-14T13:38:30Z</time>
      </trkpt>
      <trkpt lat="43.63414" lon="2.04383">
        <ele>146.74</ele>
        <time>2017-08-14T13:38:43Z</time>
      </trkpt>
      <trkpt lat="43.63414" lon="2.04383">
        <ele>156.83</ele>
        <time>2017-08-14T13:38:44Z</time>
      </trkpt>
      <trkpt lat="43.63414" lon="2.04383">
        <ele>151.54</ele>
        <time>2017-08-14T13:38:45Z</time>
      </trkpt>
      <trkpt lat="43.63416" lon="2.04384">
        <ele>151.06</ele>
        <time>2017-08-14T13:39:07Z</time>
      </trkpt>
      <trkpt lat="43.6344" lon="2.04386">
        <ele>151.06</ele>
        <time>2017-08-14T13:39:35Z</time>
      </trkpt>
      <trkpt lat="43.6345" lon="2.0439">
        <ele>152.03</ele>
        <time>2017-08-14T13:39:45Z</time>
      </trkpt>
      <trkpt lat="43.63473" lon="2.04393">
        <ele>152.99</ele>
        <time>2017-08-14T13:40:09Z</time>
      </trkpt>
      <trkpt lat="43.63476" lon="2.04395">
        <ele>151.54</ele>
        <time>2017-08-14T13:40:11Z</time>
      </trkpt>
      <trkpt lat="43.63495" lon="2.04397">
        <ele>152.99</ele>
        <time>2017-08-14T13:40:27Z</time>
      </trkpt>
      <trkpt lat="43.6352" lon="2.04402">
        <ele>151.06</ele>
        <time>2017-08-14T13:40:50Z</time>
      </trkpt>
      <trkpt lat="43.6353" lon="2.04405">
        <ele>152.51</ele>
        <time>2017-08-14T13:41:03Z</time>
      </trkpt>
      <trkpt lat="43.63561" lon="2.04408">
        <ele>152.51</ele>
        <time>2017-08-14T13:41:27Z</time>
      </trkpt>
      <trkpt lat="43.63587" lon="2.04408">
        <ele>151.54</ele>
        <time>2017-08-14T13:41:50Z</time>
      </trkpt>
      <trkpt lat="43.6361" lon="2.04409">
        <ele>152.03</ele>
        <time>2017-08-14T13:42:13Z</time>
      </trkpt>
      <trkpt lat="43.63637" lon="2.04411">
        <ele>152.03</ele>
        <time>2017-08-14T13:42:35Z</time>
      </trkpt>
      <trkpt lat="43.63663" lon="2.04406">
        <ele>151.06</ele>
        <time>2017-08-14T13:42:59Z</time>
      </trkpt>
      <trkpt lat="43.63693" lon="2.044">
        <ele>151.06</ele>
        <time>2017-08-14T13:43:21Z</time>
      </trkpt>
      <trkpt lat="43.63705" lon="2.04395">
        <ele>151.54</ele>
        <time>2017-08-14T13:43:32Z</time>
      </trkpt>
      <trkpt lat="43.63735" lon="2.04389">
        <ele>151.54</ele>
        <time>2017-08-14T13:43:59Z</time>
      </trkpt>
      <trkpt lat="43.63769" lon="2.04379">
        <ele>152.51</ele>
        <time>2017-08-14T13:44:24Z</time>
      </trkpt>
      <trkpt lat="43.6379" lon="2.04372">
        <ele>151.54</ele>
        <time>2017-08-14T13:44:46Z</time>
      </trkpt>
      <trkpt lat="43.63814" lon="2.04362">
        <ele>151.06</ele>
        <time>2017-08-14T13:45:08Z</time>
      </trkpt>
      <trkpt lat="43.63842" lon="2.04358">
        <ele>152.03</ele>
        <time>2017-08-14T13:45:30Z</time>
      </trkpt>
      <trkpt lat="43.63862" lon="2.04351">
        <ele>150.1</ele>
        <time>2017-08-14T13:45:50Z</time>
      </trkpt>
      <trkpt lat="43.63875" lon="2.04347">
        <ele>151.54</ele>
        <time>2017-08-14T13:46:13Z</time>
      </trkpt>
      <trkpt lat="43.63877" lon="2.04352">
        <ele>147.22</ele>
        <time>2017-08-14T13:46:32Z</time>
      </trkpt>
      <trkpt lat="43.63877" lon="2.04353">
        <ele>154.91</ele>
        <time>2017-08-14T13:46:33Z</time>
      </trkpt>
      <trkpt lat="43.63877" lon="2.04353">
        <ele>151.54</ele>
        <time>2017-08-14T13:46:34Z</time>
      </trkpt>
      <trkpt lat="43.63876" lon="2.04343">
        <ele>151.06</ele>
        <time>2017-08-14T13:46:57Z</time>
      </trkpt>
      <trkpt lat="43.63884" lon="2.04342">
        <ele>151.06</ele>
        <time>2017-08-14T13:47:23Z</time>
      </trkpt>
      <trkpt lat="43.63892" lon="2.04324">
        <ele>150.58</ele>
        <time>2017-08-14T13:47:43Z</time>
      </trkpt>
      <trkpt lat="43.63901" lon="2.04299">
        <ele>150.58</ele>
        <time>2017-08-14T13:48:05Z</time>
      </trkpt>
      <trkpt lat="43.63929" lon="2.04278">
        <ele>150.58</ele>
        <time>2017-08-14T13:48:26Z</time>
      </trkpt>
      <trkpt lat="43.63946" lon="2.04257">
        <ele>150.58</ele>
        <time>2017-08-14T13:48:49Z</time>
      </trkpt>
      <trkpt lat="43.63966" lon="2.04249">
        <ele>151.54</ele>
        <time>2017-08-14T13:49:08Z</time>
      </trkpt>
      <trkpt lat="43.63989" lon="2.04233">
        <ele>151.54</ele>
        <time>2017-08-14T13:49:34Z</time>
      </trkpt>
      <trkpt lat="43.64007" lon="2.04218">
        <ele>151.54</ele>
        <time>2017-08-14T13:50:00Z</time>
      </trkpt>
      <trkpt lat="43.64011" lon="2.04205">
        <ele>150.58</ele>
        <time>2017-08-14T13:50:26Z</time>
      </trkpt>
      <trkpt lat="43.64044" lon="2.04187">
        <ele>151.06</ele>
        <time>2017-08-14T13:50:51Z</time>
      </trkpt>
      <trkpt lat="43.64068" lon="2.04173">
        <ele>150.58</ele>
        <time>2017-08-14T13:51:11Z</time>
      </trkpt>
      <trkpt lat="43.64092" lon="2.04153">
        <ele>150.58</ele>
        <time>2017-08-14T13:51:35Z</time>
      </trkpt>
      <trkpt lat="43.64094" lon="2.04149">
        <ele>150.58</ele>
        <time>2017-08-14T13:51:39Z</time>
      </trkpt>
      <trkpt lat="43.64125" lon="2.04122">
        <ele>150.58</ele>
        <time>2017-08-14T13:52:03Z</time>
      </trkpt>
      <trkpt lat="43.64128" lon="2.04119">
        <ele>149.14</ele>
        <time>2017-08-14T13:52:06Z</time>
      </trkpt>
      <trkpt lat="43.64133" lon="2.04095">
        <ele>149.62</ele>
        <time>2017-08-14T13:52:25Z</time>
      </trkpt>
      <trkpt lat="43.64144" lon="2.04066">
        <ele>150.1</ele>
        <time>2017-08-14T13:52:50Z</time>
      </trkpt>
      <trkpt lat="43.64158" lon="2.04043">
        <ele>150.58</ele>
        <time>2017-08-14T13:53:09Z</time>
      </trkpt>
      <trkpt lat="43.64173" lon="2.04017">
        <ele>150.58</ele>
        <time>2017-08-14T13:53:33Z</time>
      </trkpt>
      <trkpt lat="43.64193" lon="2.03993">
        <ele>149.14</ele>
        <time>2017-08-14T13:53:58Z</time>
      </trkpt>
      <trkpt lat="43.64209" lon="2.03968">
        <ele>149.14</ele>
        <time>2017-08-14T13:54:23Z</time>
      </trkpt>
      <trkpt lat="43.64221" lon="2.03947">
        <ele>149.14</ele>
        <time>2017-08-14T13:54:44Z</time>
      </trkpt>
      <trkpt lat="43.64236" lon="2.03925">
        <ele>149.14</ele>
        <time>2017-08-14T13:55:04Z</time>
      </trkpt>
      <trkpt lat="43.64245" lon="2.03904">
        <ele>150.58</ele>
        <time>2017-08-14T13:55:24Z</time>
      </trkpt>
      <trkpt lat="43.64251" lon="2.03884">
        <ele>149.62</ele>
        <time>2017-08-14T13:55:44Z</time>
      </trkpt>
      <trkpt lat="43.64257" lon="2.03857">
        <ele>149.14</ele>
        <time>2017-08-14T13:56:01Z</time>
      </trkpt>
      <trkpt lat="43.64275" lon="2.03828">
        <ele>148.66</ele>
        <time>2017-08-14T13:56:24Z</time>
      </trkpt>
      <trkpt lat="43.64283" lon="2.03804">
        <ele>148.18</ele>
        <time>2017-08-14T13:56:44Z</time>
      </trkpt>
      <trkpt lat="43.64286" lon="2.03801">
        <ele>149.62</ele>
        <time>2017-08-14T13:56:46Z</time>
      </trkpt>
      <trkpt lat="43.64293" lon="2.03768">
        <ele>149.62</ele>
        <time>2017-08-14T13:57:10Z</time>
      </trkpt>
      <trkpt lat="43.64298" lon="2.0374">
        <ele>149.62</ele>
        <time>2017-08-14T13:57:33Z</time>
      </trkpt>
      <trkpt lat="43.64323" lon="2.0372">
        <ele>148.18</ele>
        <time>2017-08-14T13:57:53Z</time>
      </trkpt>
      <trkpt lat="43.64347" lon="2.03713">
        <ele>148.18</ele>
        <time>2017-08-14T13:58:13Z</time>
      </trkpt>
      <trkpt lat="43.64359" lon="2.03711">
        <ele>148.18</ele>
        <time>2017-08-14T13:58:26Z</time>
      </trkpt>
      <trkpt lat="43.64365" lon="2.0371">
        <ele>148.18</ele>
        <time>2017-08-14T13:58:32Z</time>
      </trkpt>
      <trkpt lat="43.64387" lon="2.03697">
        <ele>148.18</ele>
        <time>2017-08-14T13:58:54Z</time>
      </trkpt>
      <trkpt lat="43.64394" lon="2.03676">
        <ele>147.7</ele>
        <time>2017-08-14T13:59:19Z</time>
      </trkpt>
      <trkpt lat="43.64398" lon="2.03674">
        <ele>147.7</ele>
        <time>2017-08-14T13:59:44Z</time>
      </trkpt>
      <trkpt lat="43.644" lon="2.03674">
        <ele>148.66</ele>
        <time>2017-08-14T13:59:56Z</time>
      </trkpt>
      <trkpt lat="43.64401" lon="2.03673">
        <ele>147.22</ele>
        <time>2017-08-14T14:00:04Z</time>
      </trkpt>
    </trkseg>
  </trk>
</gpx>